Provisional Data: Baldwin Creek near Lowman, NY


Please select a monitoring station.
Please select start date.
Please select start date.

Toggle Unit: C/F Toggle Unit: C/F
Sample Time Temperature (C) Temperature (F) Specific Conductivity (mS/cm) pH   Turbidity (NTU+) DO (mg/L)
5/4/2021 12:00:00 AM 11.84 53.312 0.119 7.22 8.73 9.96
5/4/2021 12:15:00 AM 11.82 53.276 0.119 7.22 8.76 9.96
5/4/2021 12:30:00 AM 11.8 53.24 0.119 7.22 8.87 9.97
5/4/2021 12:45:00 AM 11.78 53.204 0.119 7.21 8.59 9.97
5/4/2021 1:00:00 AM 11.76 53.168 0.119 7.2 8.57 9.98
5/4/2021 1:15:00 AM 11.73 53.114 0.119 7.19 8.73 9.99
5/4/2021 1:30:00 AM 11.71 53.078 0.119 7.2 8.49 9.99
5/4/2021 1:45:00 AM 11.69 53.042 0.119 7.19 8.9 10
5/4/2021 2:00:00 AM 11.67 53.006 0.119 7.19 9.23 10
5/4/2021 2:15:00 AM 11.64 52.952 0.119 7.18 9.79 10.01
5/4/2021 2:30:00 AM 11.62 52.916 0.119 7.18 10.11 10.02
5/4/2021 2:45:00 AM 11.6 52.88 0.119 7.17 10.02 10.02
5/4/2021 3:00:00 AM 11.58 52.844 0.119 7.16 10.21 10.03
5/4/2021 3:15:00 AM 11.56 52.808 0.119 7.16 10.85 10.03
5/4/2021 3:30:00 AM 11.54 52.772 0.119 7.16 10.41 10.04
5/4/2021 3:45:00 AM 11.52 52.736 0.119 7.15 10.88 10.04
5/4/2021 4:00:00 AM 11.51 52.718 0.119 7.14 10.68 10.04
5/4/2021 4:15:00 AM 11.49 52.682 0.119 7.15 10.7 10.05
5/4/2021 4:30:00 AM 11.47 52.646 0.119 7.15 11.35 10.06
5/4/2021 4:45:00 AM 11.45 52.61 0.119 7.14 10.81 10.06
5/4/2021 5:00:00 AM 11.44 52.592 0.119 7.14 11.11 10.07
5/4/2021 5:15:00 AM 11.42 52.556 0.119 7.14 11.9 10.07
5/4/2021 5:30:00 AM 11.41 52.538 0.118 7.13 11.34 10.08
5/4/2021 5:45:00 AM 11.4 52.52 0.118 7.13 11.67 10.08
5/4/2021 6:00:00 AM 11.39 52.502 0.118 7.1 11.35 10.08
5/4/2021 6:15:00 AM 11.38 52.484 0.118 7.13 11.4 10.09
5/4/2021 6:30:00 AM 11.37 52.466 0.117 7.12 11.04 10.09
5/4/2021 6:45:00 AM 11.36 52.448 0.117 7.1 11.35 10.1
5/4/2021 7:00:00 AM 11.35 52.43 0.117 7.12 10.94 10.11
5/4/2021 7:15:00 AM 11.36 52.448 0.117 7.13 10.44 10.14
5/4/2021 7:30:00 AM 11.37 52.466 0.117 7.13 10.61 10.18
5/4/2021 7:45:00 AM 11.38 52.484 0.116 7.13 10.38 10.21
5/4/2021 8:00:00 AM 11.41 52.538 0.116 7.15 10.47 10.24
5/4/2021 8:15:00 AM 11.41 52.538 0.116 7.15 10.37 10.25
5/4/2021 8:30:00 AM 11.44 52.592 0.116 7.16 10.32 10.26
5/4/2021 8:45:00 AM 11.46 52.628 0.116 7.17 9.85 10.28
5/4/2021 9:00:00 AM 11.51 52.718 0.116 7.15 10.02 10.31
5/4/2021 9:15:00 AM 11.54 52.772 0.116 7.2 9.97 10.32
5/4/2021 9:30:00 AM 11.6 52.88 0.115 7.2 9.76 10.34
5/4/2021 9:45:00 AM 11.71 53.078 0.115 7.22 10.15 10.37
5/4/2021 10:00:00 AM 11.78 53.204 0.115 7.23 9.58 10.38
5/4/2021 10:15:00 AM 11.91 53.438 0.115 7.25 9.48 10.4
5/4/2021 10:30:00 AM 12.02 53.636 0.115 7.27 9.68 10.4
5/4/2021 10:45:00 AM 12.13 53.834 0.115 7.29 9.53 10.39
5/4/2021 11:00:00 AM 12.26 54.068 0.115 7.3 9.6 10.39
5/4/2021 11:15:00 AM 12.36 54.248 0.115 7.31 9.87 10.38
5/4/2021 11:30:00 AM 12.63 54.734 0.115 7.34 9.75 10.38
5/4/2021 11:45:00 AM 12.92 55.256 0.116 7.37 9.63 10.34
5/4/2021 12:00:00 PM 13.02 55.436 0.116 7.38 9.93 10.32
5/4/2021 12:15:00 PM 13.33 55.994 0.116 7.39 10.23 10.28
5/4/2021 12:30:00 PM 13.51 56.318 0.116 7.42 10.14 10.25
5/4/2021 12:45:00 PM 13.5 56.3 0.116 7.4 10.93 10.23
5/4/2021 1:00:00 PM 13.63 56.534 0.116 7.41 11.54 10.22
5/4/2021 1:15:00 PM 13.74 56.732 0.117 7.42 12.08 10.2
5/4/2021 1:30:00 PM 13.86 56.948 0.117 7.44 12.32 10.17
5/4/2021 1:45:00 PM 14.01 57.218 0.117 7.44 12 10.13
5/4/2021 2:00:00 PM 14.21 57.578 0.117 7.43 11.34 10.09
5/4/2021 2:15:00 PM 14.35 57.83 0.117 7.45 10.47 10.04
5/4/2021 2:30:00 PM 14.67 58.406 0.117 7.47 10.4 10.01
5/4/2021 2:45:00 PM 15.04 59.072 0.117 7.5 10.12 9.97
5/4/2021 3:00:00 PM 15.15 59.27 0.117 7.52 10.07 9.93
5/4/2021 3:15:00 PM 15.28 59.504 0.116 7.51 9.82 9.89
5/4/2021 3:30:00 PM 15.33 59.594 0.116 7.5 9.73 9.85
5/4/2021 3:45:00 PM 15.45 59.81 0.116 7.51 9.88 9.81
5/4/2021 4:00:00 PM 15.53 59.954 0.117 7.49 10.23 9.78
5/4/2021 4:15:00 PM 15.6 60.08 0.116 7.48 9.95 9.76
5/4/2021 4:30:00 PM 15.66 60.188 0.116 7.49 9.87 9.71
5/4/2021 4:45:00 PM 15.66 60.188 0.116 7.47 9.42 9.63
5/4/2021 5:00:00 PM 15.66 60.188 0.116 7.44 9.47 9.56
5/4/2021 5:15:00 PM 15.66 60.188 0.116 7.42 9.45 9.53
5/4/2021 5:30:00 PM 15.67 60.206 0.116 7.42 9.22 9.5
5/4/2021 5:45:00 PM 15.66 60.188 0.116 7.4 9.23 9.47
5/4/2021 6:00:00 PM 15.65 60.17 0.116 7.39 9.48 9.44
5/4/2021 6:15:00 PM 15.66 60.188 0.116 7.36 9.47 9.42
5/4/2021 6:30:00 PM 15.66 60.188 0.116 7.38 9.49 9.4
5/4/2021 6:45:00 PM 15.66 60.188 0.116 7.36 8.97 9.39
5/4/2021 7:00:00 PM 15.64 60.152 0.116 7.36 9.09 9.38
5/4/2021 7:15:00 PM 15.62 60.116 0.116 7.35 8.93 9.36
5/4/2021 7:30:00 PM 15.59 60.062 0.116 7.34 8.95 9.34
5/4/2021 7:45:00 PM 15.56 60.008 0.116 7.33 8.59 9.29
5/4/2021 8:00:00 PM 15.52 59.936 0.116 7.32 8.65 9.27
5/4/2021 8:15:00 PM 15.47 59.846 0.117 7.3 9.07 9.25
5/4/2021 8:30:00 PM 15.41 59.738 0.116 7.3 8.9 9.23
5/4/2021 8:45:00 PM 15.37 59.666 0.117 7.28 9.31 9.22
5/4/2021 9:00:00 PM 15.34 59.612 0.117 7.27 8.7 9.21
5/4/2021 9:15:00 PM 15.3 59.54 0.117 7.26 8.52 9.19
5/4/2021 9:30:00 PM 15.24 59.432 0.117 7.26 8.96 9.19
5/4/2021 9:45:00 PM 15.2 59.36 0.117 7.25 8.91 9.2
5/4/2021 10:00:00 PM 15.15 59.27 0.117 7.24 8.62 9.2
5/4/2021 10:15:00 PM 15.08 59.144 0.117 7.25 8.77 9.2
5/4/2021 10:30:00 PM 15.02 59.036 0.117 7.23 8.85 9.21
5/4/2021 10:45:00 PM 14.95 58.91 0.117 7.23 9.05 9.22
5/4/2021 11:00:00 PM 14.88 58.784 0.117 7.21 8.86 9.23
5/4/2021 11:15:00 PM 14.82 58.676 0.117 7.21 8.76 9.24
5/4/2021 11:30:00 PM 14.76 58.568 0.118 7.2 8.81 9.25
5/4/2021 11:45:00 PM 14.7 58.46 0.118 7.18 8.46 9.26
5/5/2021 12:00:00 AM 14.64 58.352 0.118 7.18 8.55 9.27
5/5/2021 12:15:00 AM 14.59 58.262 0.118 7.18 8.26 9.28
5/5/2021 12:30:00 AM 14.54 58.172 0.118 7.18 8.3 9.3
5/5/2021 12:45:00 AM 14.49 58.082 0.118 7.19 8.3 9.3
5/5/2021 1:00:00 AM 14.43 57.974 0.118 7.18 8.54 9.32
5/5/2021 1:15:00 AM 14.37 57.866 0.118 7.18 8.7 9.33
5/5/2021 1:30:00 AM 14.31 57.758 0.118 7.18 8.33 9.34
5/5/2021 1:45:00 AM 14.26 57.668 0.118 7.18 8.21 9.36
5/5/2021 2:00:00 AM 14.21 57.578 0.118 7.18 8.31 9.36
5/5/2021 2:15:00 AM 14.16 57.488 0.119 7.17 8.27 9.37
5/5/2021 2:30:00 AM 14.11 57.398 0.119 7.18 8.2 9.38
5/5/2021 2:45:00 AM 14.06 57.308 0.119 7.17 8.62 9.39
5/5/2021 3:00:00 AM 14.01 57.218 0.119 7.17 8.45 9.4
5/5/2021 3:15:00 AM 13.95 57.11 0.119 7.16 8.25 9.41
5/5/2021 3:30:00 AM 13.9 57.02 0.119 7.15 8.14 9.43
5/5/2021 3:45:00 AM 13.85 56.93 0.119 7.15 8.02 9.44
5/5/2021 4:00:00 AM 13.8 56.84 0.119 7.15 8.13 9.45
5/5/2021 4:15:00 AM 13.74 56.732 0.12 7.15 8.04 9.46
5/5/2021 4:30:00 AM 13.68 56.624 0.12 7.15 8.33 9.48
5/5/2021 4:45:00 AM 13.62 56.516 0.12 7.15 8.05 9.49
5/5/2021 5:00:00 AM 13.58 56.444 0.12 7.16 8.35 9.5
5/5/2021 5:15:00 AM 13.52 56.336 0.12 7.16 8.03 9.51
5/5/2021 5:30:00 AM 13.47 56.246 0.12 7.16 7.98 9.52
5/5/2021 5:45:00 AM 13.43 56.174 0.12 7.15 7.89 9.53
5/5/2021 6:00:00 AM 13.39 56.102 0.12 7.15 7.97 9.54
5/5/2021 6:15:00 AM 13.35 56.03 0.121 7.15 7.75 9.55
5/5/2021 6:30:00 AM 13.31 55.958 0.12 7.16 7.52 9.58
5/5/2021 6:45:00 AM 13.27 55.886 0.121 7.15 7.83 9.61
5/5/2021 7:00:00 AM 13.25 55.85 0.121 7.16 7.59 9.65
5/5/2021 7:15:00 AM 13.23 55.814 0.121 7.19 7.54 9.7
5/5/2021 7:30:00 AM 13.23 55.814 0.121 7.2 7.31 9.76
5/5/2021 7:45:00 AM 13.24 55.832 0.121 7.2 7.38 9.8
5/5/2021 8:00:00 AM 13.23 55.814 0.121 7.23 7.27 9.82
5/5/2021 8:15:00 AM 13.24 55.832 0.121 7.25 7.08 9.84
5/5/2021 8:30:00 AM 13.25 55.85 0.121 7.27 6.95 9.89
5/5/2021 8:45:00 AM 13.24 55.832 0.121 7.29 7 9.91
5/5/2021 9:00:00 AM 13.24 55.832 0.121 7.31 6.88 9.94
5/5/2021 9:15:00 AM 13.23 55.814 0.121 7.31 6.97 9.95
5/5/2021 9:30:00 AM 13.2 55.76 0.121 7.31 6.89 9.95
5/5/2021 9:45:00 AM 13.17 55.706 0.121 7.29 6.97 9.95
5/5/2021 10:00:00 AM 13.13 55.634 0.121 7.3 6.84 9.93
5/5/2021 10:15:00 AM 13.12 55.616 0.121 7.31 6.85 9.96
5/5/2021 10:30:00 AM 13.1 55.58 0.121 7.31 6.84 9.99
5/5/2021 10:45:00 AM 13.1 55.58 0.121 7.33 6.74 10.02
5/5/2021 11:00:00 AM 13.1 55.58 0.121 7.33 7.3 10.06
5/5/2021 11:15:00 AM 13.11 55.598 0.121 7.35 7.37 10.09
5/5/2021 11:30:00 AM 13.1 55.58 0.121 7.36 7.05 10.12
5/5/2021 11:45:00 AM 13.1 55.58 0.121 7.38 7.07 10.13
5/5/2021 12:00:00 PM 13.09 55.562 0.121 7.35 7.06 10.15
5/5/2021 12:15:00 PM 13.07 55.526 0.121 7.38 6.81 10.17
5/5/2021 12:30:00 PM 13.05 55.49 0.121 7.36 6.75 10.15
5/5/2021 12:45:00 PM 13 55.4 0.121 7.38 7.2 10.13
5/5/2021 1:00:00 PM 12.98 55.364 0.121 7.36 6.94 10.13
5/5/2021 1:15:00 PM 12.98 55.364 0.121 7.37 6.88 10.16
5/5/2021 1:30:00 PM 13.02 55.436 0.121 7.39 6.89 10.21
5/5/2021 1:45:00 PM 13.04 55.472 0.121 7.41 6.94 10.24
5/5/2021 2:00:00 PM 13.06 55.508 0.121 7.42 6.76 10.26
5/5/2021 2:15:00 PM 13.06 55.508 0.121 7.43 7.25 10.24
5/5/2021 2:30:00 PM 13.04 55.472 0.121 7.41 7.46 10.19
5/5/2021 2:45:00 PM 13.04 55.472 0.121 7.41 7.68 10.2
5/5/2021 3:00:00 PM 13.06 55.508 0.121 7.43 7.92 10.24
5/5/2021 3:15:00 PM 13.03 55.454 0.121 7.43 7.87 10.23
5/5/2021 3:30:00 PM 13.04 55.472 0.121 7.44 8.15 10.24
5/5/2021 3:45:00 PM 13.02 55.436 0.121 7.42 7.98 10.24
5/5/2021 4:00:00 PM 13.03 55.454 0.121 7.43 7.9 10.26
5/5/2021 4:15:00 PM 13.01 55.418 0.121 7.44 7.4 10.24
5/5/2021 4:30:00 PM 12.98 55.364 0.121 7.41 7.37 10.18
5/5/2021 4:45:00 PM 12.94 55.292 0.121 7.39 7.89 10.15
5/5/2021 5:00:00 PM 12.88 55.184 0.121 7.37 7.63 10.11
5/5/2021 5:15:00 PM 12.83 55.094 0.121 7.36 7.98 10.1
5/5/2021 5:30:00 PM 12.79 55.022 0.121 7.34 7.58 10.1
5/5/2021 5:45:00 PM 12.79 55.022 0.121 7.35 7.44 10.16
5/5/2021 6:00:00 PM 12.78 55.004 0.121 7.38 7.49 10.18
5/5/2021 6:15:00 PM 12.74 54.932 0.122 7.34 7.37 10.12
5/5/2021 6:30:00 PM 12.69 54.842 0.122 7.33 7.34 10.07
5/5/2021 6:45:00 PM 12.64 54.752 0.122 7.32 7.48 10.04
5/5/2021 7:00:00 PM 12.58 54.644 0.122 7.31 7.49 10.02
5/5/2021 7:15:00 PM 12.53 54.554 0.122 7.29 7.55 10
5/5/2021 7:30:00 PM 12.47 54.446 0.122 7.28 7.61 9.99
5/5/2021 7:45:00 PM 12.43 54.374 0.122 7.28 7.56 10.01
5/5/2021 8:00:00 PM 12.37 54.266 0.122 7.28 7.56 10.01
5/5/2021 8:15:00 PM 12.32 54.176 0.122 7.26 7.53 10
5/5/2021 8:30:00 PM 12.27 54.086 0.122 7.25 7.66 9.99
5/5/2021 8:45:00 PM 12.21 53.978 0.122 7.25 7.63 9.98
5/5/2021 9:00:00 PM 12.16 53.888 0.122 7.24 7.61 9.98
5/5/2021 9:15:00 PM 12.1 53.78 0.122 7.23 7.72 9.98
5/5/2021 9:30:00 PM 12.05 53.69 0.123 7.23 7.78 9.98
5/5/2021 9:45:00 PM 11.99 53.582 0.122 7.22 7.59 9.99
5/5/2021 10:00:00 PM 11.92 53.456 0.122 7.22 7.69 10
5/5/2021 10:15:00 PM 11.87 53.366 0.122 7.21 7.69 10.02
5/5/2021 10:30:00 PM 11.81 53.258 0.123 7.19 7.74 10.02
5/5/2021 10:45:00 PM 11.76 53.168 0.122 7.22 7.73 10.03
5/5/2021 11:00:00 PM 11.7 53.06 0.123 7.21 7.68 10.04
5/5/2021 11:15:00 PM 11.64 52.952 0.123 7.2 8.7 10.05
5/5/2021 11:30:00 PM 11.57 52.826 0.123 7.21 7.72 10.07
5/5/2021 11:45:00 PM 11.51 52.718 0.123 7.21 7.6 10.08
5/6/2021 12:00:00 AM 11.45 52.61 0.123 7.19 7.45 10.09
5/6/2021 12:15:00 AM 11.39 52.502 0.123 7.2 7.45 10.11
5/6/2021 12:30:00 AM 11.35 52.43 0.123 7.17 7.56 10.12
5/6/2021 12:45:00 AM 11.29 52.322 0.123 7.2 7.38 10.13
5/6/2021 1:00:00 AM 11.24 52.232 0.123 7.19 7.54 10.14
5/6/2021 1:15:00 AM 11.2 52.16 0.123 7.2 7.41 10.16
5/6/2021 1:30:00 AM 11.15 52.07 0.123 7.19 7.36 10.17
5/6/2021 1:45:00 AM 11.1 51.98 0.123 7.19 7.33 10.18
5/6/2021 2:00:00 AM 11.05 51.89 0.123 7.2 7.45 10.19
5/6/2021 2:15:00 AM 11 51.8 0.123 7.2 7.55 10.21
5/6/2021 2:30:00 AM 10.95 51.71 0.123 7.18 7.72 10.22
5/6/2021 2:45:00 AM 10.91 51.638 0.123 7.19 7.55 10.23
5/6/2021 3:00:00 AM 10.86 51.548 0.123 7.19 7.45 10.25
5/6/2021 3:15:00 AM 10.82 51.476 0.123 7.19 7.33 10.25
5/6/2021 3:30:00 AM 10.78 51.404 0.123 7.19 7.3 10.26
5/6/2021 3:45:00 AM 10.74 51.332 0.123 7.19 7.19 10.27
5/6/2021 4:00:00 AM 10.7 51.26 0.123 7.19 7.22 10.29
5/6/2021 4:15:00 AM 10.65 51.17 0.123 7.19 7.05 10.3
5/6/2021 4:30:00 AM 10.6 51.08 0.123 7.19 7.57 10.31
5/6/2021 4:45:00 AM 10.54 50.972 0.123 7.18 7.06 10.33
5/6/2021 5:00:00 AM 10.48 50.864 0.123 7.19 6.96 10.34
5/6/2021 5:15:00 AM 10.42 50.756 0.123 7.18 7.06 10.36
5/6/2021 5:30:00 AM 10.38 50.684 0.123 7.19 7 10.37
5/6/2021 5:45:00 AM 10.34 50.612 0.123 7.19 6.88 10.39
5/6/2021 6:00:00 AM 10.3 50.54 0.124 7.19 7.13 10.4
5/6/2021 6:15:00 AM 10.26 50.468 0.123 7.19 7.05 10.42
5/6/2021 6:30:00 AM 10.22 50.396 0.124 7.2 6.97 10.45
5/6/2021 6:45:00 AM 10.17 50.306 0.124 7.2 6.71 10.49
5/6/2021 7:00:00 AM 10.14 50.252 0.124 7.21 6.45 10.56
5/6/2021 7:15:00 AM 10.12 50.216 0.124 7.24 6.67 10.64
5/6/2021 7:30:00 AM 10.12 50.216 0.124 7.26 6.75 10.72
5/6/2021 7:45:00 AM 10.13 50.234 0.124 7.28 6.48 10.78
5/6/2021 8:00:00 AM 10.15 50.27 0.124 7.3 6.67 10.81
5/6/2021 8:15:00 AM 10.17 50.306 0.124 7.31 6.36 10.84
5/6/2021 8:30:00 AM 10.23 50.414 0.124 7.33 6.64 10.89
5/6/2021 8:45:00 AM 10.28 50.504 0.124 7.33 6.62 10.93
5/6/2021 9:00:00 AM 10.35 50.63 0.124 7.37 6.69 10.97
5/6/2021 9:15:00 AM 10.46 50.828 0.124 7.4 6.52 11
5/6/2021 9:30:00 AM 10.58 51.044 0.124 7.43 6.21 11.01
5/6/2021 9:45:00 AM 10.72 51.296 0.124 7.44 6.2 11.02
5/6/2021 10:00:00 AM 10.9 51.62 0.124 7.46 6.38 11.03
5/6/2021 10:15:00 AM 10.97 51.746 0.124 7.48 6.38 11.02
5/6/2021 10:30:00 AM 11.03 51.854 0.124 7.47 6.15 11.01
5/6/2021 10:45:00 AM 11.22 52.196 0.124 7.49 6.41 10.99
5/6/2021 11:00:00 AM 11.38 52.484 0.124 7.51 6.32 10.99
5/6/2021 11:15:00 AM 11.62 52.916 0.124 7.53 6.33 10.98
5/6/2021 11:30:00 AM 11.82 53.276 0.124 7.57 6.14 10.96
5/6/2021 11:45:00 AM 11.84 53.312 0.124 7.55 6.2 10.92
5/6/2021 12:00:00 PM 12.05 53.69 0.124 7.57 6.41 10.91
5/6/2021 12:15:00 PM 12.24 54.032 0.124 7.59 6.29 10.88
5/6/2021 12:30:00 PM 12.38 54.284 0.124 7.61 6.23 10.86
5/6/2021 12:45:00 PM 12.42 54.356 0.124 7.6 6.3 10.83
5/6/2021 1:00:00 PM 12.51 54.518 0.124 7.59 6.11 10.81
5/6/2021 1:15:00 PM 12.63 54.734 0.124 7.61 6.67 10.78
5/6/2021 1:30:00 PM 12.9 55.22 0.124 7.63 6.45 10.75
5/6/2021 1:45:00 PM 13.15 55.67 0.124 7.66 6.75 10.72
5/6/2021 2:00:00 PM 13.37 56.066 0.124 7.68 6.92 10.69
5/6/2021 2:15:00 PM 13.52 56.336 0.124 7.69 6.42 10.65
5/6/2021 2:30:00 PM 13.71 56.678 0.124 7.7 6.29 10.62
5/6/2021 2:45:00 PM 13.9 57.02 0.124 7.7 6.14 10.59
5/6/2021 3:00:00 PM 14.04 57.272 0.124 7.72 6.01 10.56
5/6/2021 3:15:00 PM 14.11 57.398 0.124 7.71 6.08 10.53
5/6/2021 3:30:00 PM 14.16 57.488 0.124 7.7 6.07 10.5
5/6/2021 3:45:00 PM 14.2 57.56 0.124 7.72 5.92 10.47
5/6/2021 4:00:00 PM 14.2 57.56 0.124 7.7 5.98 10.44
5/6/2021 4:15:00 PM 14.17 57.506 0.124 7.68 6.01 10.42
5/6/2021 4:30:00 PM 14.14 57.452 0.125 7.66 6.01 10.39
5/6/2021 4:45:00 PM 14.11 57.398 0.125 7.65 6.19 10.38
5/6/2021 5:00:00 PM 14.09 57.362 0.125 7.65 6.03 10.35
5/6/2021 5:15:00 PM 14.07 57.326 0.125 7.64 6.08 10.34
5/6/2021 5:30:00 PM 14.06 57.308 0.125 7.64 5.95 10.32
5/6/2021 5:45:00 PM 14 57.2 0.125 7.59 6.08 10.28
5/6/2021 6:00:00 PM 13.95 57.11 0.125 7.6 5.84 10.25
5/6/2021 6:15:00 PM 13.9 57.02 0.125 7.58 5.77 10.24
5/6/2021 6:30:00 PM 13.81 56.858 0.125 7.56 6.08 10.22
5/6/2021 6:45:00 PM 13.72 56.696 0.125 7.55 5.87 10.19
5/6/2021 7:00:00 PM 13.64 56.552 0.125 7.51 5.75 10.15
5/6/2021 7:15:00 PM 13.58 56.444 0.125 7.48 5.95 10.1
5/6/2021 7:30:00 PM 13.53 56.354 0.125 7.46 5.83 10.05
5/6/2021 7:45:00 PM 13.45 56.21 0.125 7.42 5.69 10.01
5/6/2021 8:00:00 PM 13.38 56.084 0.126 7.39 5.84 9.95
5/6/2021 8:15:00 PM 13.29 55.922 0.126 7.36 5.87 9.9
5/6/2021 8:30:00 PM 13.2 55.76 0.126 7.34 5.81 9.85
5/6/2021 8:45:00 PM 13.12 55.616 0.126 7.31 5.98 9.82
5/6/2021 9:00:00 PM 13.03 55.454 0.126 7.29 5.92 9.79
5/6/2021 9:15:00 PM 12.95 55.31 0.126 7.27 5.78 9.78
5/6/2021 9:30:00 PM 12.86 55.148 0.126 7.26 5.96 9.78
5/6/2021 9:45:00 PM 12.77 54.986 0.126 7.24 6.1 9.78
5/6/2021 10:00:00 PM 12.68 54.824 0.126 7.24 6.06 9.78
5/6/2021 10:15:00 PM 12.58 54.644 0.126 7.24 5.76 9.79
5/6/2021 10:30:00 PM 12.48 54.464 0.126 7.23 6.08 9.8
5/6/2021 10:45:00 PM 12.39 54.302 0.127 7.22 5.97 9.82
5/6/2021 11:00:00 PM 12.28 54.104 0.127 7.21 6.09 9.83
5/6/2021 11:15:00 PM 12.18 53.924 0.127 7.2 6.21 9.85
5/6/2021 11:30:00 PM 12.07 53.726 0.127 7.21 6.03 9.87
5/6/2021 11:45:00 PM 11.96 53.528 0.127 7.2 5.9 9.89
5/7/2021 12:00:00 AM 11.85 53.33 0.127 7.19 5.97 9.91
5/7/2021 12:15:00 AM 11.74 53.132 0.127 7.19 6.06 9.94
5/7/2021 12:30:00 AM 11.63 52.934 0.127 7.19 6.06 9.96
5/7/2021 12:45:00 AM 11.51 52.718 0.128 7.19 5.78 9.99
5/7/2021 1:00:00 AM 11.4 52.52 0.128 7.16 5.98 10.01
5/7/2021 1:15:00 AM 11.28 52.304 0.128 7.18 6.07 10.05
5/7/2021 1:30:00 AM 11.16 52.088 0.128 7.15 5.97 10.07
5/7/2021 1:45:00 AM 11.05 51.89 0.128 7.17 6.02 10.1
5/7/2021 2:00:00 AM 10.93 51.674 0.128 7.17 6.05 10.12
5/7/2021 2:15:00 AM 10.81 51.458 0.128 7.16 6.23 10.15
5/7/2021 2:30:00 AM 10.7 51.26 0.128 7.15 5.96 10.19
5/7/2021 2:45:00 AM 10.58 51.044 0.128 7.16 5.81 10.21
5/7/2021 3:00:00 AM 10.47 50.846 0.128 7.16 5.86 10.24
5/7/2021 3:15:00 AM 10.37 50.666 0.128 7.15 5.82 10.27
5/7/2021 3:30:00 AM 10.26 50.468 0.129 7.15 5.64 10.3
5/7/2021 3:45:00 AM 10.15 50.27 0.129 7.14 5.76 10.33
5/7/2021 4:00:00 AM 10.05 50.09 0.129 7.15 5.6 10.36
5/7/2021 4:15:00 AM 9.94 49.892 0.129 7.14 5.85 10.38
5/7/2021 4:30:00 AM 9.84 49.712 0.129 7.14 5.75 10.41
5/7/2021 4:45:00 AM 9.75 49.55 0.129 7.14 5.91 10.44
5/7/2021 5:00:00 AM 9.65 49.37 0.129 7.14 5.8 10.47
5/7/2021 5:15:00 AM 9.56 49.208 0.129 7.14 5.7 10.49
5/7/2021 5:30:00 AM 9.46 49.028 0.129 7.14 5.64 10.51
5/7/2021 5:45:00 AM 9.37 48.866 0.129 7.15 5.64 10.54
5/7/2021 6:00:00 AM 9.29 48.722 0.129 7.14 5.65 10.57
5/7/2021 6:15:00 AM 9.21 48.578 0.129 7.14 5.56 10.6
5/7/2021 6:30:00 AM 9.13 48.434 0.129 7.16 5.63 10.66
5/7/2021 6:45:00 AM 9.06 48.308 0.13 7.17 5.71 10.72
5/7/2021 7:00:00 AM 9 48.2 0.13 7.18 5.62 10.8
5/7/2021 7:15:00 AM 8.95 48.11 0.13 7.2 5.59 10.88
5/7/2021 7:30:00 AM 8.92 48.056 0.13 7.22 5.57 10.95
5/7/2021 7:45:00 AM 8.91 48.038 0.13 7.24 5.53 11.02
5/7/2021 8:00:00 AM 8.91 48.038 0.13 7.26 5.68 11.09
5/7/2021 8:15:00 AM 8.95 48.11 0.13 7.3 5.36 11.16
5/7/2021 8:30:00 AM 9.01 48.218 0.13 7.33 5.57 11.22
5/7/2021 8:45:00 AM 9.1 48.38 0.13 7.35 5.33 11.27
5/7/2021 9:00:00 AM 9.23 48.614 0.13 7.41 5.36 11.32
5/7/2021 9:15:00 AM 9.37 48.866 0.13 7.44 5.33 11.36
5/7/2021 9:30:00 AM 9.49 49.082 0.13 7.47 5.23 11.39
5/7/2021 9:45:00 AM 9.61 49.298 0.13 7.48 5.25 11.39
5/7/2021 10:00:00 AM 9.64 49.352 0.13 7.5 5.2 11.37
5/7/2021 10:15:00 AM 9.64 49.352 0.13 7.49 5.15 11.33
5/7/2021 10:30:00 AM 9.63 49.334 0.13 7.48 5.1 11.3
5/7/2021 10:45:00 AM 9.63 49.334 0.13 7.48 5.11 11.3
5/7/2021 11:00:00 AM 9.65 49.37 0.13 7.48 5.12 11.31
5/7/2021 11:15:00 AM 9.66 49.388 0.13 7.48 5.04 11.33
5/7/2021 11:30:00 AM 9.67 49.406 0.13 7.49 5.1 11.33
5/7/2021 11:45:00 AM 9.71 49.478 0.13 7.5 5.06 11.34
5/7/2021 12:00:00 PM 9.81 49.658 0.13 7.52 5.01 11.35
5/7/2021 12:15:00 PM 9.94 49.892 0.13 7.55 5.05 11.37
5/7/2021 12:30:00 PM 10.14 50.252 0.13 7.57 4.94 11.38
5/7/2021 12:45:00 PM 10.37 50.666 0.13 7.63 5.01 11.39
5/7/2021 1:00:00 PM 10.56 51.008 0.13 7.65 5.06 11.37
5/7/2021 1:15:00 PM 10.67 51.206 0.13 7.65 4.96 11.35
5/7/2021 1:30:00 PM 10.76 51.368 0.13 7.67 5.03 11.33
5/7/2021 1:45:00 PM 10.84 51.512 0.13 7.67 4.94 11.3
5/7/2021 2:00:00 PM 10.9 51.62 0.13 7.67 4.96 11.28
5/7/2021 2:15:00 PM 10.95 51.71 0.13 7.66 5.01 11.27
5/7/2021 2:30:00 PM 10.96 51.728 0.13 7.67 5 11.25
5/7/2021 2:45:00 PM 10.94 51.692 0.13 7.65 4.96 11.2
5/7/2021 3:00:00 PM 10.88 51.584 0.13 7.62 4.91 11.12
5/7/2021 3:15:00 PM 10.83 51.494 0.131 7.57 4.84 11.01
5/7/2021 3:30:00 PM 10.8 51.44 0.131 7.53 4.99 10.94
5/7/2021 3:45:00 PM 10.76 51.368 0.131 7.5 4.99 10.88
5/7/2021 4:00:00 PM 10.74 51.332 0.131 7.48 4.88 10.85
5/7/2021 4:15:00 PM 10.73 51.314 0.131 7.47 5.03 10.82
5/7/2021 4:30:00 PM 10.72 51.296 0.13 7.47 5 10.81
5/7/2021 4:45:00 PM 10.72 51.296 0.13 7.46 5.01 10.8
5/7/2021 5:00:00 PM 10.72 51.296 0.13 7.45 5.12 10.78
5/7/2021 5:15:00 PM 10.72 51.296 0.13 7.45 5.04 10.76
5/7/2021 5:30:00 PM 10.72 51.296 0.13 7.45 4.99 10.76
5/7/2021 5:45:00 PM 10.72 51.296 0.13 7.43 4.93 10.75
5/7/2021 6:00:00 PM 10.71 51.278 0.13 7.43 5.06 10.75
5/7/2021 6:15:00 PM 10.69 51.242 0.13 7.43 5 10.73
5/7/2021 6:30:00 PM 10.67 51.206 0.13 7.42 5.08 10.69
5/7/2021 6:45:00 PM 10.65 51.17 0.13 7.41 5.25 10.65
5/7/2021 7:00:00 PM 10.63 51.134 0.13 7.39 5.1 10.63
5/7/2021 7:15:00 PM 10.6 51.08 0.13 7.38 4.92 10.59
5/7/2021 7:30:00 PM 10.57 51.026 0.13 7.36 5.27 10.54
5/7/2021 7:45:00 PM 10.54 50.972 0.13 7.34 5.37 10.49
5/7/2021 8:00:00 PM 10.51 50.918 0.13 7.32 5.4 10.46
5/7/2021 8:15:00 PM 10.48 50.864 0.13 7.3 5.4 10.43
5/7/2021 8:30:00 PM 10.45 50.81 0.13 7.3 5.52 10.4
5/7/2021 8:45:00 PM 10.42 50.756 0.129 7.28 5.61 10.38
5/7/2021 9:00:00 PM 10.39 50.702 0.129 7.27 5.7 10.37
5/7/2021 9:15:00 PM 10.37 50.666 0.129 7.27 5.95 10.36
5/7/2021 9:30:00 PM 10.35 50.63 0.13 7.27 5.8 10.35
5/7/2021 9:45:00 PM 10.32 50.576 0.13 7.25 6.07 10.35
5/7/2021 10:00:00 PM 10.29 50.522 0.13 7.26 6.11 10.34
5/7/2021 10:15:00 PM 10.26 50.468 0.13 7.26 6.2 10.35
5/7/2021 10:30:00 PM 10.24 50.432 0.129 7.25 6.31 10.34
5/7/2021 10:45:00 PM 10.21 50.378 0.129 7.24 6.95 10.35
5/7/2021 11:00:00 PM 10.18 50.324 0.129 7.23 8.18 10.35
5/7/2021 11:15:00 PM 10.14 50.252 0.129 7.23 9.01 10.36
5/7/2021 11:30:00 PM 10.1 50.18 0.129 7.23 9.59 10.37
5/7/2021 11:45:00 PM 10.06 50.108 0.129 7.21 9.69 10.39
5/8/2021 12:00:00 AM 10.02 50.036 0.129 7.22 9.45 10.41
5/8/2021 12:15:00 AM 9.98 49.964 0.13 7.21 10.35 10.43
5/8/2021 12:30:00 AM 9.92 49.856 0.131 7.2 12.36 10.45
5/8/2021 12:45:00 AM 9.86 49.748 0.131 7.2 15.29 10.46
5/8/2021 1:00:00 AM 9.79 49.622 0.13 7.17 19.67 10.49
5/8/2021 1:15:00 AM 9.72 49.496 0.129 7.18 23.24 10.51
5/8/2021 1:30:00 AM 9.65 49.37 0.129 7.15 36.54 10.53
5/8/2021 1:45:00 AM 9.59 49.262 0.129 7.14 40.29 10.55
5/8/2021 2:00:00 AM 9.52 49.136 0.128 7.15 47.18 10.58
5/8/2021 2:15:00 AM 9.45 49.01 0.126 7.15 42.59 10.6
5/8/2021 2:30:00 AM 9.36 48.848 0.123 7.13 56.52 10.63
5/8/2021 2:45:00 AM 9.28 48.704 0.121 7.14 64.87 10.66
5/8/2021 3:00:00 AM 9.2 48.56 0.119 7.11 71.26 10.7
5/8/2021 3:15:00 AM 9.14 48.452 0.118 7.12 79.53 10.72
5/8/2021 3:30:00 AM 9.08 48.344 0.116 7.1 81 10.75
5/8/2021 3:45:00 AM 9.01 48.218 0.114 7.08 74.13 10.76
5/8/2021 4:00:00 AM 8.94 48.092 0.112 7.07 90.43 10.78
5/8/2021 4:15:00 AM 8.88 47.984 0.11 7.07 119.91 10.82
5/8/2021 4:30:00 AM 8.83 47.894 0.108 7.07 143.27 10.84
5/8/2021 4:45:00 AM 8.78 47.804 0.107 7.06 112.53 10.86
5/8/2021 5:00:00 AM 8.74 47.732 0.105 7.07 128.86 10.88
5/8/2021 5:15:00 AM 8.7 47.66 0.104 7.06 122.36 10.9
5/8/2021 5:30:00 AM 8.67 47.606 0.103 7.06 97.69 10.91
5/8/2021 5:45:00 AM 8.64 47.552 0.101 7.05 134.38 10.91
5/8/2021 6:00:00 AM 8.61 47.498 0.1 7.05 116.22 10.93
5/8/2021 6:15:00 AM 8.59 47.462 0.099 7.04 110.79 10.94
5/8/2021 6:30:00 AM 8.57 47.426 0.098 7.04 96.42 10.94
5/8/2021 6:45:00 AM 8.54 47.372 0.097 7.04 85.83 10.95
5/8/2021 7:00:00 AM 8.53 47.354 0.097 7.03 80.52 10.95
5/8/2021 7:15:00 AM 8.51 47.318 0.096 7.02 68.01 10.96
5/8/2021 7:30:00 AM 8.49 47.282 0.095 7.03 54.97 10.97
5/8/2021 7:45:00 AM 8.48 47.264 0.095 7.01 56.8 10.98
5/8/2021 8:00:00 AM 8.46 47.228 0.094 7.02 59.76 10.98
5/8/2021 8:15:00 AM 8.45 47.21 0.094 7 67.24 11
5/8/2021 8:30:00 AM 8.44 47.192 0.094 7.02 77.62 11.01
5/8/2021 8:45:00 AM 8.43 47.174 0.094 7.03 56.68 11.01
5/8/2021 9:00:00 AM 8.44 47.192 0.093 7.02 58.54 11.01
5/8/2021 9:15:00 AM 8.44 47.192 0.093 7.02 53.12 11.02
5/8/2021 9:30:00 AM 8.45 47.21 0.093 7.05 43.6 11.03
5/8/2021 9:45:00 AM 8.46 47.228 0.093 7.04 51.16 11.03
5/8/2021 10:00:00 AM 8.47 47.246 0.093 7.05 36.78 11.04
5/8/2021 10:15:00 AM 8.48 47.264 0.093 7.03 43.1 11.05
5/8/2021 10:30:00 AM 8.5 47.3 0.094 7.05 37.44 11.05
5/8/2021 10:45:00 AM 8.51 47.318 0.094 7.05 41.09 11.05
5/8/2021 11:00:00 AM 8.53 47.354 0.094 7.05 43.67 11.05
5/8/2021 11:15:00 AM 8.54 47.372 0.094 7.05 42.85 11.05
5/8/2021 11:30:00 AM 8.57 47.426 0.094 7.07 58.82 11.06
5/8/2021 11:45:00 AM 8.63 47.534 0.095 7.07 48.05 11.07
5/8/2021 12:00:00 PM 8.75 47.75 0.095 7.08 36.81 11.09
5/8/2021 12:15:00 PM 8.78 47.804 0.095 7.1 39.04 11.07
5/8/2021 12:30:00 PM 8.79 47.822 0.095 7.09 34 11.06
5/8/2021 12:45:00 PM 8.84 47.912 0.096 7.1 58.05 11.05
5/8/2021 1:00:00 PM 8.96 48.128 0.096 7.11 46.1 11.05
5/8/2021 1:15:00 PM 9.08 48.344 0.096 7.12 29.94 11.06
5/8/2021 1:30:00 PM 9.14 48.452 0.096 7.14 35.38 11.02
5/8/2021 1:45:00 PM 9.25 48.65 0.097 7.16 31.06 11.05
5/8/2021 2:00:00 PM 9.38 48.884 0.097 7.18 33.63 11.04
5/8/2021 2:15:00 PM 9.56 49.208 0.097 7.19 24.44 11.03
5/8/2021 2:30:00 PM 9.63 49.334 0.098 7.18 27.49 11.01
5/8/2021 2:45:00 PM 9.8 49.64 0.098 7.21 26.47 10.98
5/8/2021 3:00:00 PM 9.91 49.838 0.098 7.23 24.05 10.97
5/8/2021 3:15:00 PM 10.02 50.036 0.099 7.22 30.36 10.92
5/8/2021 3:30:00 PM 10.13 50.234 0.099 7.23 26.16 10.9
5/8/2021 3:45:00 PM 10.2 50.36 0.099 7.23 28.7 10.89
5/8/2021 4:00:00 PM 10.32 50.576 0.099 7.24 26.9 10.86
5/8/2021 4:15:00 PM 10.29 50.522 0.1 7.22 30.07 10.84
5/8/2021 4:30:00 PM 10.33 50.594 0.1 7.22 26.11 10.81
5/8/2021 4:45:00 PM 10.38 50.684 0.1 7.22 24.94 10.81
5/8/2021 5:00:00 PM 10.39 50.702 0.1 7.21 23.87 10.79
5/8/2021 5:15:00 PM 10.4 50.72 0.101 7.22 22.12 10.75
5/8/2021 5:30:00 PM 10.36 50.648 0.101 7.21 21.08 10.72
5/8/2021 5:45:00 PM 10.34 50.612 0.101 7.19 22.27 10.74
5/8/2021 6:00:00 PM 10.31 50.558 0.102 7.19 16 10.74
5/8/2021 6:15:00 PM 10.3 50.54 0.102 7.18 20.22 10.74
5/8/2021 6:30:00 PM 10.29 50.522 0.102 7.19 19.95 10.73
5/8/2021 6:45:00 PM 10.29 50.522 0.102 7.19 19.08 10.72
5/8/2021 7:00:00 PM 10.26 50.468 0.103 7.18 19.93 10.7
5/8/2021 7:15:00 PM 10.22 50.396 0.103 7.16 18.95 10.69
5/8/2021 7:30:00 PM 10.2 50.36 0.103 7.16 18.74 10.68
5/8/2021 7:45:00 PM 10.16 50.288 0.104 7.15 18.25 10.68
5/8/2021 8:00:00 PM 10.11 50.198 0.104 7.15 17.75 10.66
5/8/2021 8:15:00 PM 10.05 50.09 0.104 7.13 17.44 10.65
5/8/2021 8:30:00 PM 9.99 49.982 0.105 7.12 16.65 10.64
5/8/2021 8:45:00 PM 9.93 49.874 0.105 7.11 17.43 10.64
5/8/2021 9:00:00 PM 9.9 49.82 0.105 7.11 16.8 10.64
5/8/2021 9:15:00 PM 9.87 49.766 0.105 7.1 16.42 10.63
5/8/2021 9:30:00 PM 9.84 49.712 0.106 7.1 16.34 10.63
5/8/2021 9:45:00 PM 9.81 49.658 0.106 7.1 16.66 10.63
5/8/2021 10:00:00 PM 9.76 49.568 0.106 7.1 16.74 10.64
5/8/2021 10:15:00 PM 9.71 49.478 0.106 7.09 16.58 10.64
5/8/2021 10:30:00 PM 9.64 49.352 0.107 7.08 15.98 10.65
5/8/2021 10:45:00 PM 9.58 49.244 0.107 7.08 15.52 10.67
5/8/2021 11:00:00 PM 9.51 49.118 0.107 7.06 15.67 10.68
5/8/2021 11:15:00 PM 9.44 48.992 0.107 7.06 15.33 10.7
5/8/2021 11:30:00 PM 9.37 48.866 0.108 7.06 15.66 10.71
5/8/2021 11:45:00 PM 9.3 48.74 0.108 7.05 15.35 10.73
5/9/2021 12:00:00 AM 9.23 48.614 0.108 7.04 15.58 10.75
5/9/2021 12:15:00 AM 9.16 48.488 0.108 7.04 15.28 10.76
5/9/2021 12:30:00 AM 9.09 48.362 0.108 7.03 15.22 10.78
5/9/2021 12:45:00 AM 9.03 48.254 0.109 7.03 15.22 10.79
5/9/2021 1:00:00 AM 8.97 48.146 0.109 7.04 14.71 10.8
5/9/2021 1:15:00 AM 8.9 48.02 0.109 7.03 14.47 10.83
5/9/2021 1:30:00 AM 8.84 47.912 0.109 7.03 14.34 10.84
5/9/2021 1:45:00 AM 8.77 47.786 0.11 7.03 14.5 10.86
5/9/2021 2:00:00 AM 8.71 47.678 0.11 7.02 15.38 10.88
5/9/2021 2:15:00 AM 8.65 47.57 0.11 7.02 14.74 10.89
5/9/2021 2:30:00 AM 8.58 47.444 0.11 7.03 14.35 10.91
5/9/2021 2:45:00 AM 8.52 47.336 0.11 7.02 14.14 10.92
5/9/2021 3:00:00 AM 8.46 47.228 0.11 7.02 13.73 10.95
5/9/2021 3:15:00 AM 8.4 47.12 0.11 7.03 13.34 10.96
5/9/2021 3:30:00 AM 8.34 47.012 0.11 7.02 13.65 10.98
5/9/2021 3:45:00 AM 8.28 46.904 0.111 7.03 13.61 11
5/9/2021 4:00:00 AM 8.22 46.796 0.111 7.03 13.25 11.02
5/9/2021 4:15:00 AM 8.16 46.688 0.111 7.02 13.22 11.03
5/9/2021 4:30:00 AM 8.09 46.562 0.111 7.02 12.66 11.04
5/9/2021 4:45:00 AM 8.03 46.454 0.111 7.02 12.56 11.07
5/9/2021 5:00:00 AM 7.98 46.364 0.111 7.03 12.6 11.08
5/9/2021 5:15:00 AM 7.92 46.256 0.111 7.02 12.87 11.1
5/9/2021 5:30:00 AM 7.86 46.148 0.111 7.03 12.71 11.11
5/9/2021 5:45:00 AM 7.81 46.058 0.111 7.03 12.9 11.13
5/9/2021 6:00:00 AM 7.76 45.968 0.112 7.02 12.68 11.15
5/9/2021 6:15:00 AM 7.71 45.878 0.112 7.03 12.71 11.19
5/9/2021 6:30:00 AM 7.66 45.788 0.112 7.05 12.22 11.21
5/9/2021 6:45:00 AM 7.62 45.716 0.112 7.03 12.46 11.25
5/9/2021 7:00:00 AM 7.6 45.68 0.112 7.05 11.89 11.29
5/9/2021 7:15:00 AM 7.58 45.644 0.112 7.05 11.79 11.33
5/9/2021 7:30:00 AM 7.57 45.626 0.112 7.07 11.34 11.36
5/9/2021 7:45:00 AM 7.57 45.626 0.112 7.08 11.02 11.4
5/9/2021 8:00:00 AM 7.6 45.68 0.112 7.1 11.12 11.43
5/9/2021 8:15:00 AM 7.64 45.752 0.112 7.11 10.91 11.47
5/9/2021 8:30:00 AM 7.72 45.896 0.112 7.14 11.28 11.5
5/9/2021 8:45:00 AM 7.77 45.986 0.112 7.16 10.65 11.52
5/9/2021 9:00:00 AM 7.86 46.148 0.112 7.18 10.61 11.53
5/9/2021 9:15:00 AM 7.96 46.328 0.112 7.19 10.63 11.54
5/9/2021 9:30:00 AM 8.06 46.508 0.112 7.22 9.85 11.56
5/9/2021 9:45:00 AM 8.16 46.688 0.113 7.24 10.04 11.56
5/9/2021 10:00:00 AM 8.25 46.85 0.112 7.25 9.76 11.55
5/9/2021 10:15:00 AM 8.33 46.994 0.112 7.25 9.81 11.54
5/9/2021 10:30:00 AM 8.43 47.174 0.112 7.27 9.39 11.54
5/9/2021 10:45:00 AM 8.53 47.354 0.112 7.29 9.32 11.53
5/9/2021 11:00:00 AM 8.63 47.534 0.112 7.28 9.21 11.52
5/9/2021 11:15:00 AM 8.73 47.714 0.112 7.3 9.42 11.5
5/9/2021 11:30:00 AM 8.87 47.966 0.112 7.31 9.27 11.49
5/9/2021 11:45:00 AM 8.97 48.146 0.112 7.33 9.37 11.47
5/9/2021 12:00:00 PM 9.07 48.326 0.112 7.33 9.21 11.44
5/9/2021 12:15:00 PM 9.17 48.506 0.112 7.34 9.16 11.42
5/9/2021 12:30:00 PM 9.26 48.668 0.112 7.35 9.02 11.4
5/9/2021 12:45:00 PM 9.32 48.776 0.112 7.35 8.94 11.37
5/9/2021 1:00:00 PM 9.39 48.902 0.112 7.34 9.17 11.34
5/9/2021 1:15:00 PM 9.44 48.992 0.112 7.33 12.8 11.3
5/9/2021 1:30:00 PM 9.5 49.1 0.112 7.35 10.52 11.29
5/9/2021 1:45:00 PM 9.54 49.172 0.112 7.35 9.25 11.27
5/9/2021 2:00:00 PM 9.58 49.244 0.112 7.35 8.99 11.25
5/9/2021 2:15:00 PM 9.59 49.262 0.112 7.34 8.97 11.22
5/9/2021 2:30:00 PM 9.6 49.28 0.112 7.34 9.06 11.2
5/9/2021 2:45:00 PM 9.61 49.298 0.112 7.33 8.95 11.18
5/9/2021 3:00:00 PM 9.63 49.334 0.112 7.33 8.8 11.17
5/9/2021 3:15:00 PM 9.63 49.334 0.112 7.33 8.78 11.15
5/9/2021 3:30:00 PM 9.63 49.334 0.112 7.31 9 11.11
5/9/2021 3:45:00 PM 9.62 49.316 0.112 7.3 8.56 11.07
5/9/2021 4:00:00 PM 9.62 49.316 0.112 7.29 8.37 11.05
5/9/2021 4:15:00 PM 9.59 49.262 0.112 7.28 8.69 11.03
5/9/2021 4:30:00 PM 9.58 49.244 0.112 7.27 8.87 11.01
5/9/2021 4:45:00 PM 9.56 49.208 0.112 7.24 8.72 11
5/9/2021 5:00:00 PM 9.54 49.172 0.112 7.26 8.84 10.98
5/9/2021 5:15:00 PM 9.52 49.136 0.112 7.25 9 10.96
5/9/2021 5:30:00 PM 9.49 49.082 0.111 7.24 8.94 10.95
5/9/2021 5:45:00 PM 9.46 49.028 0.111 7.23 8.83 10.95
5/9/2021 6:00:00 PM 9.42 48.956 0.111 7.21 9.62 10.93
5/9/2021 6:15:00 PM 9.37 48.866 0.111 7.2 9.73 10.92
5/9/2021 6:30:00 PM 9.33 48.794 0.111 7.2 9.79 10.91
5/9/2021 6:45:00 PM 9.28 48.704 0.11 7.18 10.56 10.9
5/9/2021 7:00:00 PM 9.23 48.614 0.11 7.17 10.74 10.88
5/9/2021 7:15:00 PM 9.18 48.524 0.11 7.17 11.61 10.87
5/9/2021 7:30:00 PM 9.12 48.416 0.11 7.14 12.25 10.86
5/9/2021 7:45:00 PM 9.06 48.308 0.109 7.13 14 10.86
5/9/2021 8:00:00 PM 9 48.2 0.109 7.11 16.17 10.85
5/9/2021 8:15:00 PM 8.94 48.092 0.109 7.1 16.75 10.85
5/9/2021 8:30:00 PM 8.87 47.966 0.109 7.08 20.69 10.86
5/9/2021 8:45:00 PM 8.81 47.858 0.109 7.08 24.17 10.87
5/9/2021 9:00:00 PM 8.73 47.714 0.109 7.07 37.6 10.89
5/9/2021 9:15:00 PM 8.63 47.534 0.109 7.05 42.58 10.92
5/9/2021 9:30:00 PM 8.54 47.372 0.109 7.03 42.79 10.95
5/9/2021 9:45:00 PM 8.45 47.21 0.108 7.03 55.58 10.96
5/9/2021 10:00:00 PM 8.37 47.066 0.107 7.01 73.13 10.97
5/9/2021 10:15:00 PM 8.3 46.94 0.105 7.02 88.38 11.01
5/9/2021 10:30:00 PM 8.24 46.832 0.103 7.01 123.26 11.04
5/9/2021 10:45:00 PM 8.18 46.724 0.101 7 91.67 11.06
5/9/2021 11:00:00 PM 8.13 46.634 0.1 7 106.16 11.07
5/9/2021 11:15:00 PM 8.09 46.562 0.098 7 85.73 11.09
5/9/2021 11:30:00 PM 8.06 46.508 0.096 6.97 115.69 11.1
5/9/2021 11:45:00 PM 8.02 46.436 0.095 6.97 135.9 11.11
5/10/2021 12:00:00 AM 8 46.4 0.093 6.96 110.48 11.11
5/10/2021 12:15:00 AM 7.97 46.346 0.092 6.95 111.77 11.12
5/10/2021 12:30:00 AM 7.95 46.31 0.091 6.93 117.38 11.12
5/10/2021 12:45:00 AM 7.93 46.274 0.089 6.92 98.06 11.13
5/10/2021 1:00:00 AM 7.92 46.256 0.088 6.92 120 11.14
5/10/2021 1:15:00 AM 7.9 46.22 0.087 6.9 170.31 11.14
5/10/2021 1:30:00 AM 7.89 46.202 0.086 6.9 171.37 11.14
5/10/2021 1:45:00 AM 7.88 46.184 0.086 6.89 133.48 11.14
5/10/2021 2:00:00 AM 7.87 46.166 0.085 6.89 127.11 11.15
5/10/2021 2:15:00 AM 7.86 46.148 0.084 6.88 153.17 11.15
5/10/2021 2:30:00 AM 7.85 46.13 0.084 6.88 166.87 11.15
5/10/2021 2:45:00 AM 7.84 46.112 0.084 6.86 122.85 11.16
5/10/2021 3:00:00 AM 7.82 46.076 0.084 6.88 165.97 11.16
5/10/2021 3:15:00 AM 7.81 46.058 0.083 6.87 138.78 11.17
5/10/2021 3:30:00 AM 7.8 46.04 0.083 6.86 117.68 11.16
5/10/2021 3:45:00 AM 7.79 46.022 0.082 6.86 127.05 11.16
5/10/2021 4:00:00 AM 7.78 46.004 0.082 6.86 134.34 11.17
5/10/2021 4:15:00 AM 7.77 45.986 0.081 6.85 93.33 11.17
5/10/2021 4:30:00 AM 7.76 45.968 0.081 6.85 101.66 11.18
5/10/2021 4:45:00 AM 7.75 45.95 0.081 6.82 93.68 11.17
5/10/2021 5:00:00 AM 7.74 45.932 0.08 6.85 103.35 11.18
5/10/2021 5:15:00 AM 7.73 45.914 0.08 6.84 75.12 11.18
5/10/2021 5:30:00 AM 7.72 45.896 0.081 6.85 72.5 11.2
5/10/2021 5:45:00 AM 7.71 45.878 0.081 6.85 79.53 11.2
5/10/2021 6:00:00 AM 7.7 45.86 0.081 6.85 93.08 11.19
5/10/2021 6:15:00 AM 7.69 45.842 0.081 6.84 55.53 11.2
5/10/2021 6:30:00 AM 7.69 45.842 0.081 6.82 66.79 11.2
5/10/2021 6:45:00 AM 7.69 45.842 0.082 6.85 59.24 11.2
5/10/2021 7:00:00 AM 7.7 45.86 0.082 6.85 59.08 11.21
5/10/2021 7:15:00 AM 7.71 45.878 0.082 6.82 62.47 11.22
5/10/2021 7:30:00 AM 7.72 45.896 0.083 6.86 52.53 11.21
5/10/2021 7:45:00 AM 7.73 45.914 0.083 6.86 54.1 11.21
5/10/2021 8:00:00 AM 7.75 45.95 0.084 6.86 41.27 11.23
5/10/2021 8:15:00 AM 7.78 46.004 0.084 6.87 60.01 11.23
5/10/2021 8:30:00 AM 7.8 46.04 0.085 6.88 52.86 11.22
5/10/2021 8:45:00 AM 7.81 46.058 0.085 6.89 48.68 11.23
5/10/2021 9:00:00 AM 7.85 46.13 0.085 6.89 40.11 11.24
5/10/2021 9:15:00 AM 7.9 46.22 0.086 6.91 37.27 11.22
5/10/2021 9:30:00 AM 7.95 46.31 0.086 6.91 40.06 11.22
5/10/2021 9:45:00 AM 8.02 46.436 0.086 6.93 29.01 11.23
5/10/2021 10:00:00 AM 8.08 46.544 0.087 6.94 39.62 11.23
5/10/2021 10:15:00 AM 8.15 46.67 0.087 6.95 31.26 11.23
5/10/2021 10:30:00 AM 8.26 46.868 0.087 6.97 33.85 11.22
5/10/2021 10:45:00 AM 8.45 47.21 0.088 6.99 29.96 11.21
5/10/2021 11:00:00 AM 8.58 47.444 0.088 7 33.35 11.19
5/10/2021 11:15:00 AM 8.8 47.84 0.088 7.03 31.46 11.17
5/10/2021 11:30:00 AM 8.96 48.128 0.089 7.03 32.73 11.15
5/10/2021 11:45:00 AM 8.99 48.182 0.089 7.04 28.19 11.12
5/10/2021 12:00:00 PM 9.03 48.254 0.089 7.01 30.77 11.11
5/10/2021 12:15:00 PM 9.2 48.56 0.09 7.04 23.37 11.09
5/10/2021 12:30:00 PM 9.42 48.956 0.09 7.06 34.1 11.04
5/10/2021 12:45:00 PM 9.58 49.244 0.09 7.07 32.24 11.01
5/10/2021 1:00:00 PM 9.71 49.478 0.09 7.09 67.34 10.98
5/10/2021 1:15:00 PM 9.94 49.892 0.091 7.11 28.36 10.95
5/10/2021 1:30:00 PM 9.96 49.928 0.091 7.09 27.33 10.92
5/10/2021 1:45:00 PM 9.95 49.91 0.091 7.09 39.61 10.9
5/10/2021 2:00:00 PM 10.05 50.09 0.091 7.08 25.05 10.88
5/10/2021 2:15:00 PM 10.26 50.468 0.092 7.1 19.58 10.86
5/10/2021 2:30:00 PM 10.33 50.594 0.092 7.11 26.71 10.82
5/10/2021 2:45:00 PM 10.43 50.774 0.092 7.12 25.46 10.81
5/10/2021 3:00:00 PM 10.59 51.062 0.092 7.11 24.68 10.78
5/10/2021 3:15:00 PM 10.59 51.062 0.093 7.12 17.8 10.75
5/10/2021 3:30:00 PM 10.61 51.098 0.093 7.11 19.97 10.74
5/10/2021 3:45:00 PM 10.66 51.188 0.093 7.1 21.64 10.71
5/10/2021 4:00:00 PM 10.72 51.296 0.093 7.11 24.5 10.68
5/10/2021 4:15:00 PM 10.81 51.458 0.093 7.1 15.11 10.66
5/10/2021 4:30:00 PM 10.89 51.602 0.093 7.11 20.33 10.63
5/10/2021 4:45:00 PM 10.94 51.692 0.093 7.11 21.42 10.6
5/10/2021 5:00:00 PM 10.96 51.728 0.093 7.11 20.73 10.58
5/10/2021 5:15:00 PM 10.95 51.71 0.094 7.11 20.21 10.58
5/10/2021 5:30:00 PM 10.95 51.71 0.094 7.09 19.35 10.57
5/10/2021 5:45:00 PM 10.92 51.656 0.094 7.09 19.19 10.57
5/10/2021 6:00:00 PM 10.91 51.638 0.094 7.09 16.75 10.56
5/10/2021 6:15:00 PM 10.91 51.638 0.094 7.07 18.6 10.54
5/10/2021 6:30:00 PM 10.91 51.638 0.094 7.09 18.05 10.54
5/10/2021 6:45:00 PM 10.87 51.566 0.094 7.07 18.25 10.53
5/10/2021 7:00:00 PM 10.8 51.44 0.094 7.06 18.47 10.52
5/10/2021 7:15:00 PM 10.74 51.332 0.095 7.05 18.35 10.51
5/10/2021 7:30:00 PM 10.67 51.206 0.095 7.05 18.52 10.51
5/10/2021 7:45:00 PM 10.61 51.098 0.095 7.03 18.03 10.51
5/10/2021 8:00:00 PM 10.54 50.972 0.095 7.02 24.64 10.5
5/10/2021 8:15:00 PM 10.47 50.846 0.095 7 20.75 10.5
5/10/2021 8:30:00 PM 10.4 50.72 0.095 6.99 19.48 10.5
5/10/2021 8:45:00 PM 10.32 50.576 0.095 6.97 17.75 10.51
5/10/2021 9:00:00 PM 10.24 50.432 0.095 6.96 17.93 10.52
5/10/2021 9:15:00 PM 10.15 50.27 0.095 6.93 18.34 10.53
5/10/2021 9:30:00 PM 10.06 50.108 0.095 6.93 17.71 10.54
5/10/2021 9:45:00 PM 9.97 49.946 0.096 6.93 17.93 10.56
5/10/2021 10:00:00 PM 9.88 49.784 0.096 6.91 17.68 10.58
5/10/2021 10:15:00 PM 9.79 49.622 0.096 6.91 17.66 10.6
5/10/2021 10:30:00 PM 9.7 49.46 0.096 6.9 17.32 10.61
5/10/2021 10:45:00 PM 9.61 49.298 0.096 6.89 16.74 10.64
5/10/2021 11:00:00 PM 9.52 49.136 0.096 6.89 16.39 10.66
5/10/2021 11:15:00 PM 9.42 48.956 0.096 6.86 16.09 10.68
5/10/2021 11:30:00 PM 9.33 48.794 0.096 6.89 16.4 10.71
5/10/2021 11:45:00 PM 9.25 48.65 0.096 6.89 16.77 10.73
5/11/2021 12:00:00 AM 9.16 48.488 0.096 6.88 18.44 10.75
5/11/2021 12:15:00 AM 9.07 48.326 0.096 6.87 17.93 10.78
5/11/2021 12:30:00 AM 8.99 48.182 0.097 6.88 15.85 10.8
5/11/2021 12:45:00 AM 8.91 48.038 0.097 6.88 15.03 10.82
5/11/2021 1:00:00 AM 8.84 47.912 0.097 6.89 15.02 10.84
5/11/2021 1:15:00 AM 8.78 47.804 0.097 6.89 14.62 10.86
5/11/2021 1:30:00 AM 8.72 47.696 0.097 6.89 14.33 10.88
5/11/2021 1:45:00 AM 8.66 47.588 0.097 6.89 14.09 10.9
5/11/2021 2:00:00 AM 8.61 47.498 0.097 6.89 14.24 10.92
5/11/2021 2:15:00 AM 8.55 47.39 0.097 6.89 13.9 10.93
5/11/2021 2:30:00 AM 8.49 47.282 0.097 6.89 13.66 10.95
5/11/2021 2:45:00 AM 8.44 47.192 0.097 6.9 13.52 10.97
5/11/2021 3:00:00 AM 8.38 47.084 0.097 6.9 14.03 10.98
5/11/2021 3:15:00 AM 8.32 46.976 0.097 6.9 13.51 11
5/11/2021 3:30:00 AM 8.26 46.868 0.097 6.89 13.58 11.02
5/11/2021 3:45:00 AM 8.19 46.742 0.097 6.89 13.42 11.03
5/11/2021 4:00:00 AM 8.12 46.616 0.097 6.88 13.71 11.05
5/11/2021 4:15:00 AM 8.06 46.508 0.097 6.89 12.91 11.07
5/11/2021 4:30:00 AM 7.99 46.382 0.097 6.88 12.91 11.08
5/11/2021 4:45:00 AM 7.93 46.274 0.098 6.89 12.59 11.1
5/11/2021 5:00:00 AM 7.86 46.148 0.098 6.88 12.66 11.12
5/11/2021 5:15:00 AM 7.8 46.04 0.098 6.87 13.07 11.14
5/11/2021 5:30:00 AM 7.74 45.932 0.098 6.88 12.6 11.15
5/11/2021 5:45:00 AM 7.67 45.806 0.098 6.87 12.07 11.18
5/11/2021 6:00:00 AM 7.6 45.68 0.098 6.88 12.47 11.2
5/11/2021 6:15:00 AM 7.54 45.572 0.098 6.88 12.33 11.23
5/11/2021 6:30:00 AM 7.48 45.464 0.098 6.89 12 11.26
5/11/2021 6:45:00 AM 7.43 45.374 0.098 6.89 11.7 11.28
5/11/2021 7:00:00 AM 7.39 45.302 0.098 6.89 12.13 11.31
5/11/2021 7:15:00 AM 7.35 45.23 0.098 6.9 11.73 11.34
5/11/2021 7:30:00 AM 7.33 45.194 0.098 6.91 11.53 11.37
5/11/2021 7:45:00 AM 7.34 45.212 0.098 6.92 11.26 11.4
5/11/2021 8:00:00 AM 7.36 45.248 0.098 6.94 11.29 11.43
5/11/2021 8:15:00 AM 7.39 45.302 0.098 6.93 10.84 11.45
5/11/2021 8:30:00 AM 7.44 45.392 0.098 6.98 10.97 11.47
5/11/2021 8:45:00 AM 7.5 45.5 0.098 6.99 10.95 11.49
5/11/2021 9:00:00 AM 7.57 45.626 0.098 7.01 12.15 11.5
5/11/2021 9:15:00 AM 7.67 45.806 0.098 7.03 12.37 11.51
5/11/2021 9:30:00 AM 7.78 46.004 0.098 7.02 11 11.52
5/11/2021 9:45:00 AM 7.9 46.22 0.098 7.06 11.09 11.5
5/11/2021 10:00:00 AM 7.96 46.328 0.098 7.06 11.23 11.49
5/11/2021 10:15:00 AM 8.13 46.634 0.098 7.09 10.49 11.48
5/11/2021 10:30:00 AM 8.14 46.652 0.098 7.08 10.22 11.47
5/11/2021 10:45:00 AM 8.17 46.706 0.098 7.09 10.33 11.45
5/11/2021 11:00:00 AM 8.23 46.814 0.099 7.07 10.1 11.42
5/11/2021 11:15:00 AM 8.34 47.012 0.098 7.1 9.8 11.42
5/11/2021 11:30:00 AM 8.55 47.39 0.099 7.12 9.98 11.41
5/11/2021 11:45:00 AM 8.59 47.462 0.099 7.11 10.04 11.38
5/11/2021 12:00:00 PM 8.62 47.516 0.099 7.12 9.59 11.36
5/11/2021 12:15:00 PM 8.71 47.678 0.099 7.11 10.38 11.36
5/11/2021 12:30:00 PM 8.93 48.074 0.099 7.13 9.81 11.35
5/11/2021 12:45:00 PM 9.19 48.542 0.099 7.17 12.48 11.31
5/11/2021 1:00:00 PM 9.4 48.92 0.099 7.21 12.42 11.27
5/11/2021 1:15:00 PM 9.57 49.226 0.099 7.19 11.17 11.23
5/11/2021 1:30:00 PM 9.69 49.442 0.099 7.19 10.46 11.2
5/11/2021 1:45:00 PM 9.7 49.46 0.099 7.19 12.36 11.16
5/11/2021 2:00:00 PM 9.66 49.388 0.099 7.13 48.11 11.03
5/11/2021 2:15:00 PM 9.77 49.586 0.099 7.12 48.58 11.02
5/11/2021 2:30:00 PM 9.81 49.658 0.099 7.14 50.32 11.01
5/11/2021 2:45:00 PM 9.82 49.676 0.099 7.14 41.95 10.98
5/11/2021 3:00:00 PM 9.89 49.802 0.099 7.14 21.75 11.01
5/11/2021 3:15:00 PM 9.86 49.748 0.099 7.14 22.48 10.98
5/11/2021 3:30:00 PM 9.99 49.982 0.099 7.14 28.22 10.96
5/11/2021 3:45:00 PM 10.06 50.108 0.099 7.14 39.82 10.92
5/11/2021 4:00:00 PM 10.1 50.18 0.099 7.14 46.8 10.88
5/11/2021 4:15:00 PM 10.14 50.252 0.099 7.14 51.01 10.85
5/11/2021 4:30:00 PM 10.15 50.27 0.1 7.13 44.62 10.84
5/11/2021 4:45:00 PM 10.18 50.324 0.1 7.13 34.57 10.85
5/11/2021 5:00:00 PM 10.15 50.27 0.1 7.14 23.99 10.87
5/11/2021 5:15:00 PM 10.16 50.288 0.1 7.15 16.97 10.89
5/11/2021 5:30:00 PM 10.14 50.252 0.1 7.14 14.23 10.88
5/11/2021 5:45:00 PM 10.17 50.306 0.1 7.14 13.5 10.89
5/11/2021 6:00:00 PM 10.14 50.252 0.1 7.13 13.26 10.86
5/11/2021 6:15:00 PM 10.11 50.198 0.1 7.13 12.26 10.85
5/11/2021 6:30:00 PM 10.09 50.162 0.101 7.13 12.19 10.85
5/11/2021 6:45:00 PM 10.05 50.09 0.101 7.12 11.72 10.85
5/11/2021 7:00:00 PM 9.98 49.964 0.101 7.11 11.39 10.83
5/11/2021 7:15:00 PM 9.91 49.838 0.101 7.09 11.45 10.82
5/11/2021 7:30:00 PM 9.84 49.712 0.101 7.08 11.4 10.81
5/11/2021 7:45:00 PM 9.76 49.568 0.101 7.07 11.3 10.81
5/11/2021 8:00:00 PM 9.69 49.442 0.101 7.05 11.61 10.8
5/11/2021 8:15:00 PM 9.62 49.316 0.101 7.03 10.88 10.79
5/11/2021 8:30:00 PM 9.56 49.208 0.101 7.03 11.26 10.79
5/11/2021 8:45:00 PM 9.49 49.082 0.101 7.01 10.99 10.78
5/11/2021 9:00:00 PM 9.43 48.974 0.101 7.01 11.1 10.79
5/11/2021 9:15:00 PM 9.37 48.866 0.101 7 10.77 10.8
5/11/2021 9:30:00 PM 9.31 48.758 0.101 7 10.55 10.8
5/11/2021 9:45:00 PM 9.24 48.632 0.102 6.99 10.48 10.81
5/11/2021 10:00:00 PM 9.17 48.506 0.102 6.99 10.47 10.83
5/11/2021 10:15:00 PM 9.08 48.344 0.102 6.98 10.71 10.84
5/11/2021 10:30:00 PM 9 48.2 0.102 6.96 11.26 10.85
5/11/2021 10:45:00 PM 8.92 48.056 0.102 6.96 12.47 10.87
5/11/2021 11:00:00 PM 8.84 47.912 0.102 6.95 12.98 10.89
5/11/2021 11:15:00 PM 8.76 47.768 0.102 6.95 13.33 10.9
5/11/2021 11:30:00 PM 8.69 47.642 0.102 6.95 12.84 10.92
5/11/2021 11:45:00 PM 8.61 47.498 0.102 6.95 12.14 10.94
5/12/2021 12:00:00 AM 8.53 47.354 0.103 6.93 11.7 10.96
5/12/2021 12:15:00 AM 8.45 47.21 0.103 6.93 10.76 10.98
5/12/2021 12:30:00 AM 8.38 47.084 0.103 6.94 10.39 11
5/12/2021 12:45:00 AM 8.3 46.94 0.103 6.94 10.16 11.02
5/12/2021 1:00:00 AM 8.23 46.814 0.103 6.93 9.85 11.04
5/12/2021 1:15:00 AM 8.15 46.67 0.103 6.93 10.31 11.07
5/12/2021 1:30:00 AM 8.08 46.544 0.103 6.93 9.89 11.09
5/12/2021 1:45:00 AM 8.01 46.418 0.103 6.93 10.12 11.1
5/12/2021 2:00:00 AM 7.95 46.31 0.103 6.92 10.04 11.12
5/12/2021 2:15:00 AM 7.87 46.166 0.104 6.93 9.62 11.14
5/12/2021 2:30:00 AM 7.8 46.04 0.104 6.92 10.36 11.16
5/12/2021 2:45:00 AM 7.75 45.95 0.104 6.93 9.48 11.18
5/12/2021 3:00:00 AM 7.69 45.842 0.104 6.94 9.33 11.19
5/12/2021 3:15:00 AM 7.64 45.752 0.104 6.93 8.84 11.21
5/12/2021 3:30:00 AM 7.58 45.644 0.104 6.94 9.08 11.23
5/12/2021 3:45:00 AM 7.53 45.554 0.104 6.94 9.14 11.24
5/12/2021 4:00:00 AM 7.48 45.464 0.104 6.94 8.74 11.26
5/12/2021 4:15:00 AM 7.45 45.41 0.105 6.95 8.79 11.27
5/12/2021 4:30:00 AM 7.42 45.356 0.105 6.95 8.76 11.28
5/12/2021 4:45:00 AM 7.39 45.302 0.105 6.96 8.71 11.29
5/12/2021 5:00:00 AM 7.37 45.266 0.105 6.95 8.81 11.31
5/12/2021 5:15:00 AM 7.34 45.212 0.105 6.95 8.64 11.31
5/12/2021 5:30:00 AM 7.3 45.14 0.105 6.95 8.63 11.33
5/12/2021 5:45:00 AM 7.26 45.068 0.105 6.95 8.54 11.34
5/12/2021 6:00:00 AM 7.21 44.978 0.105 6.96 8.56 11.36
5/12/2021 6:15:00 AM 7.17 44.906 0.105 6.95 8.41 11.38
5/12/2021 6:30:00 AM 7.13 44.834 0.105 6.95 8.33 11.4
5/12/2021 6:45:00 AM 7.1 44.78 0.105 6.97 8.06 11.44
5/12/2021 7:00:00 AM 7.08 44.744 0.106 6.97 8.1 11.46
5/12/2021 7:15:00 AM 7.06 44.708 0.105 6.98 8.05 11.49
5/12/2021 7:30:00 AM 7.07 44.726 0.105 7 8.12 11.53
5/12/2021 7:45:00 AM 7.1 44.78 0.106 7.01 7.92 11.56
5/12/2021 8:00:00 AM 7.14 44.852 0.106 7.03 8.02 11.59
5/12/2021 8:15:00 AM 7.19 44.942 0.106 7.03 7.77 11.61
5/12/2021 8:30:00 AM 7.25 45.05 0.106 7.07 7.81 11.63
5/12/2021 8:45:00 AM 7.33 45.194 0.106 7.07 7.9 11.64
5/12/2021 9:00:00 AM 7.44 45.392 0.106 7.07 7.75 11.66
5/12/2021 9:15:00 AM 7.56 45.608 0.106 7.12 7.59 11.67
5/12/2021 9:30:00 AM 7.71 45.878 0.106 7.12 7.44 11.66
5/12/2021 9:45:00 AM 7.87 46.166 0.106 7.14 7.43 11.66
5/12/2021 10:00:00 AM 8.06 46.508 0.106 7.15 7.52 11.65
5/12/2021 10:15:00 AM 8.27 46.886 0.106 7.18 7.33 11.63
5/12/2021 10:30:00 AM 8.5 47.3 0.106 7.2 7.38 11.61
5/12/2021 10:45:00 AM 8.75 47.75 0.106 7.22 7.46 11.57
5/12/2021 11:00:00 AM 9.02 48.236 0.106 7.24 7.32 11.53
5/12/2021 11:15:00 AM 9.2 48.56 0.106 7.24 7.13 11.48
5/12/2021 11:30:00 AM 9.45 49.01 0.106 7.26 7.22 11.44
5/12/2021 11:45:00 AM 9.75 49.55 0.106 7.27 7.36 11.39
5/12/2021 12:00:00 PM 9.98 49.964 0.106 7.29 7.43 11.35
5/12/2021 12:15:00 PM 10.31 50.558 0.106 7.3 7.41 11.29
5/12/2021 12:30:00 PM 10.63 51.134 0.106 7.34 7.33 11.24
5/12/2021 12:45:00 PM 10.89 51.602 0.106 7.35 7.16 11.18
5/12/2021 1:00:00 PM 11.08 51.944 0.106 7.35 7.07 11.12
5/12/2021 1:15:00 PM 11.23 52.214 0.106 7.34 7.35 11.06
5/12/2021 1:30:00 PM 11.38 52.484 0.106 7.35 7.27 11.01
5/12/2021 1:45:00 PM 11.56 52.808 0.107 7.35 7.26 10.97
5/12/2021 2:00:00 PM 11.67 53.006 0.106 7.35 7.24 10.93
5/12/2021 2:15:00 PM 11.8 53.24 0.106 7.35 7.21 10.89
5/12/2021 2:30:00 PM 12.03 53.654 0.107 7.37 7.23 10.85
5/12/2021 2:45:00 PM 12.04 53.672 0.107 7.36 7.31 10.79
5/12/2021 3:00:00 PM 12.14 53.852 0.107 7.35 7.86 10.75
5/12/2021 3:15:00 PM 12.18 53.924 0.107 7.35 9.36 10.71
5/12/2021 3:30:00 PM 12.36 54.248 0.107 7.32 49.05 10.6
5/12/2021 3:45:00 PM 12.33 54.194 0.107 7.28 181.02 10.39
5/12/2021 4:00:00 PM 12.36 54.248 0.106 7.22 225.06 10.3
5/12/2021 4:15:00 PM 12.51 54.518 0.107 7.24 156.43 10.28
5/12/2021 4:30:00 PM 12.56 54.608 0.107 7.26 76.64 10.32
5/12/2021 4:45:00 PM 12.74 54.932 0.107 7.29 36.69 10.37
5/12/2021 5:00:00 PM 12.85 55.13 0.107 7.3 22.34 10.37
5/12/2021 5:15:00 PM 12.97 55.346 0.107 7.34 16.87 10.35
5/12/2021 5:30:00 PM 13.03 55.454 0.107 7.34 14.1 10.32
5/12/2021 5:45:00 PM 13.08 55.544 0.107 7.35 12.89 10.28
5/12/2021 6:00:00 PM 13.12 55.616 0.107 7.35 12.07 10.23
5/12/2021 6:15:00 PM 13.1 55.58 0.107 7.33 11.21 10.2
5/12/2021 6:30:00 PM 13.08 55.544 0.107 7.31 10.91 10.17
5/12/2021 6:45:00 PM 13.03 55.454 0.108 7.3 10.56 10.14
5/12/2021 7:00:00 PM 12.98 55.364 0.108 7.29 10.4 10.12
5/12/2021 7:15:00 PM 12.91 55.238 0.108 7.27 10.53 10.09
5/12/2021 7:30:00 PM 12.85 55.13 0.108 7.25 10.17 10.09
5/12/2021 7:45:00 PM 12.77 54.986 0.108 7.24 9.69 10.07
5/12/2021 8:00:00 PM 12.68 54.824 0.108 7.22 9.78 10.06
5/12/2021 8:15:00 PM 12.59 54.662 0.108 7.21 9.17 10.05
5/12/2021 8:30:00 PM 12.5 54.5 0.109 7.21 9.19 10.04
5/12/2021 8:45:00 PM 12.4 54.32 0.109 7.18 9.28 10.03
5/12/2021 9:00:00 PM 12.31 54.158 0.109 7.15 9.08 10.03
5/12/2021 9:15:00 PM 12.21 53.978 0.109 7.14 9.17 10.04
5/12/2021 9:30:00 PM 12.11 53.798 0.109 7.12 8.92 10.05
5/12/2021 9:45:00 PM 12.01 53.618 0.109 7.11 9.1 10.07
5/12/2021 10:00:00 PM 11.91 53.438 0.109 7.09 8.85 10.08
5/12/2021 10:15:00 PM 11.8 53.24 0.11 7.07 8.83 10.1
5/12/2021 10:30:00 PM 11.69 53.042 0.109 7.06 9.08 10.12
5/12/2021 10:45:00 PM 11.56 52.808 0.11 7.07 8.84 10.15
5/12/2021 11:00:00 PM 11.42 52.556 0.11 7.05 8.96 10.18
5/12/2021 11:15:00 PM 11.28 52.304 0.11 7.03 8.47 10.21
5/12/2021 11:30:00 PM 11.13 52.034 0.11 7.02 8.87 10.24
5/12/2021 11:45:00 PM 10.98 51.764 0.11 7.02 8.6 10.29
5/13/2021 12:00:00 AM 10.83 51.494 0.11 7.01 8.57 10.32
5/13/2021 12:15:00 AM 10.68 51.224 0.11 7.01 8.46 10.36
5/13/2021 12:30:00 AM 10.54 50.972 0.111 7.01 8.63 10.39
5/13/2021 12:45:00 AM 10.39 50.702 0.11 6.99 8.48 10.44
5/13/2021 1:00:00 AM 10.25 50.45 0.11 7 8.33 10.47
5/13/2021 1:15:00 AM 10.12 50.216 0.11 7 8.18 10.51
5/13/2021 1:30:00 AM 9.98 49.964 0.111 6.99 7.99 10.54
5/13/2021 1:45:00 AM 9.86 49.748 0.111 6.97 8.02 10.58
5/13/2021 2:00:00 AM 9.73 49.514 0.111 6.99 7.93 10.61
5/13/2021 2:15:00 AM 9.61 49.298 0.111 6.99 8.01 10.64
5/13/2021 2:30:00 AM 9.5 49.1 0.111 7 8.1 10.67
5/13/2021 2:45:00 AM 9.39 48.902 0.111 7 7.76 10.7
5/13/2021 3:00:00 AM 9.28 48.704 0.111 6.99 7.94 10.74
5/13/2021 3:15:00 AM 9.18 48.524 0.111 6.99 7.71 10.77
5/13/2021 3:30:00 AM 9.08 48.344 0.111 7 7.68 10.79
5/13/2021 3:45:00 AM 8.98 48.164 0.112 6.98 7.72 10.81
5/13/2021 4:00:00 AM 8.89 48.002 0.112 7 7.8 10.84
5/13/2021 4:15:00 AM 8.79 47.822 0.112 7 7.59 10.87
5/13/2021 4:30:00 AM 8.7 47.66 0.112 7.01 7.66 10.9
5/13/2021 4:45:00 AM 8.62 47.516 0.112 7 7.9 10.93
5/13/2021 5:00:00 AM 8.53 47.354 0.112 7.01 7.73 10.95
5/13/2021 5:15:00 AM 8.45 47.21 0.112 7.01 7.47 10.98
5/13/2021 5:30:00 AM 8.37 47.066 0.112 7.01 7.51 11
5/13/2021 5:45:00 AM 8.29 46.922 0.113 6.98 7.44 11.03
5/13/2021 6:00:00 AM 8.21 46.778 0.113 7.02 7.41 11.05
5/13/2021 6:15:00 AM 8.14 46.652 0.113 7 7.14 11.09
5/13/2021 6:30:00 AM 8.07 46.526 0.113 7.03 7.19 11.13
5/13/2021 6:45:00 AM 8.01 46.418 0.113 7.03 7.15 11.18
5/13/2021 7:00:00 AM 7.96 46.328 0.113 7.04 7.08 11.22
5/13/2021 7:15:00 AM 7.92 46.256 0.113 7.05 7.12 11.27
5/13/2021 7:30:00 AM 7.9 46.22 0.113 7.06 7.02 11.31
5/13/2021 7:45:00 AM 7.9 46.22 0.113 7.08 6.9 11.37
5/13/2021 8:00:00 AM 7.93 46.274 0.113 7.1 6.96 11.41
5/13/2021 8:15:00 AM 7.97 46.346 0.113 7.13 6.93 11.44
5/13/2021 8:30:00 AM 8.04 46.472 0.113 7.15 6.75 11.47
5/13/2021 8:45:00 AM 8.11 46.598 0.113 7.15 6.78 11.5
5/13/2021 9:00:00 AM 8.22 46.796 0.113 7.18 6.73 11.52
5/13/2021 9:15:00 AM 8.35 47.03 0.113 7.22 6.83 11.54
5/13/2021 9:30:00 AM 8.51 47.318 0.114 7.23 6.97 11.54
5/13/2021 9:45:00 AM 8.69 47.642 0.113 7.26 6.79 11.54
5/13/2021 10:00:00 AM 8.9 48.02 0.113 7.28 6.66 11.53
5/13/2021 10:15:00 AM 9.12 48.416 0.113 7.3 6.77 11.52
5/13/2021 10:30:00 AM 9.38 48.884 0.113 7.34 6.5 11.5
5/13/2021 10:45:00 AM 9.64 49.352 0.113 7.36 6.47 11.47
5/13/2021 11:00:00 AM 9.92 49.856 0.113 7.38 6.41 11.43
5/13/2021 11:15:00 AM 10.14 50.252 0.113 7.41 6.25 11.38
5/13/2021 11:30:00 AM 10.23 50.414 0.113 7.41 6.4 11.33
5/13/2021 11:45:00 AM 10.43 50.774 0.114 7.41 6.38 11.3
5/13/2021 12:00:00 PM 10.44 50.792 0.114 7.41 6.42 11.25
5/13/2021 12:15:00 PM 10.75 51.35 0.114 7.42 6.26 11.23
5/13/2021 12:30:00 PM 11.07 51.926 0.114 7.46 6.29 11.19
5/13/2021 12:45:00 PM 11.23 52.214 0.114 7.45 6.26 11.13
5/13/2021 1:00:00 PM 11.35 52.43 0.114 7.46 6.28 11.08
5/13/2021 1:15:00 PM 11.64 52.952 0.114 7.48 6.26 11.03
5/13/2021 1:30:00 PM 11.93 53.474 0.114 7.51 6.4 10.98
5/13/2021 1:45:00 PM 12 53.6 0.114 7.49 6.3 10.91
5/13/2021 2:00:00 PM 12.25 54.05 0.114 7.5 6.37 10.87
5/13/2021 2:15:00 PM 12.38 54.284 0.114 7.49 6.38 10.83
5/13/2021 2:30:00 PM 12.48 54.464 0.114 7.5 6.39 10.78
5/13/2021 2:45:00 PM 12.66 54.788 0.114 7.51 6.44 10.75
5/13/2021 3:00:00 PM 12.89 55.202 0.114 7.51 6.46 10.74
5/13/2021 3:15:00 PM 12.9 55.22 0.114 7.53 6.2 10.7
5/13/2021 3:30:00 PM 12.91 55.238 0.114 7.48 6.25 10.67
5/13/2021 3:45:00 PM 13.09 55.562 0.114 7.52 6.51 10.64
5/13/2021 4:00:00 PM 13.23 55.814 0.114 7.53 6.24 10.63
5/13/2021 4:15:00 PM 13.22 55.796 0.114 7.53 6.38 10.58
5/13/2021 4:30:00 PM 13.16 55.688 0.114 7.5 6.17 10.56
5/13/2021 4:45:00 PM 13.16 55.688 0.114 7.5 6.33 10.53
5/13/2021 5:00:00 PM 13.16 55.688 0.114 7.49 6.22 10.51
5/13/2021 5:15:00 PM 13.14 55.652 0.114 7.47 6.25 10.47
5/13/2021 5:30:00 PM 13.13 55.634 0.115 7.45 6.09 10.43
5/13/2021 5:45:00 PM 13.12 55.616 0.115 7.46 6.42 10.43
5/13/2021 6:00:00 PM 13.14 55.652 0.115 7.45 6.38 10.41
5/13/2021 6:15:00 PM 13.15 55.67 0.115 7.44 6.24 10.38
5/13/2021 6:30:00 PM 13.13 55.634 0.115 7.41 6.29 10.34
5/13/2021 6:45:00 PM 13.08 55.544 0.115 7.42 6.32 10.28
5/13/2021 7:00:00 PM 13.03 55.454 0.115 7.39 6.41 10.24
5/13/2021 7:15:00 PM 12.96 55.328 0.115 7.38 6.4 10.18
5/13/2021 7:30:00 PM 12.9 55.22 0.115 7.35 6.39 10.16
5/13/2021 7:45:00 PM 12.83 55.094 0.115 7.33 6.24 10.14
5/13/2021 8:00:00 PM 12.76 54.968 0.115 7.31 6.3 10.11
5/13/2021 8:15:00 PM 12.68 54.824 0.115 7.29 6.25 10.08
5/13/2021 8:30:00 PM 12.61 54.698 0.115 7.27 6.34 10.05
5/13/2021 8:45:00 PM 12.53 54.554 0.116 7.23 6.38 10.03
5/13/2021 9:00:00 PM 12.44 54.392 0.116 7.23 6.12 10.02
5/13/2021 9:15:00 PM 12.35 54.23 0.116 7.2 6.42 10.01
5/13/2021 9:30:00 PM 12.26 54.068 0.116 7.18 6.44 10.02
5/13/2021 9:45:00 PM 12.16 53.888 0.116 7.17 6.56 10.02
5/13/2021 10:00:00 PM 12.08 53.744 0.116 7.17 6.39 10.03
5/13/2021 10:15:00 PM 12 53.6 0.116 7.16 6.44 10.04
5/13/2021 10:30:00 PM 11.92 53.456 0.116 7.16 6.33 10.05
5/13/2021 10:45:00 PM 11.83 53.294 0.116 7.14 6.33 10.06
5/13/2021 11:00:00 PM 11.74 53.132 0.116 7.14 6.34 10.08
5/13/2021 11:15:00 PM 11.64 52.952 0.116 7.14 6.32 10.1
5/13/2021 11:30:00 PM 11.53 52.754 0.117 7.12 6.35 10.12
5/13/2021 11:45:00 PM 11.42 52.556 0.117 7.13 6.45 10.14
5/14/2021 12:00:00 AM 11.31 52.358 0.117 7.11 6.43 10.17
5/14/2021 12:15:00 AM 11.19 52.142 0.117 7.1 6.38 10.2
5/14/2021 12:30:00 AM 11.07 51.926 0.117 7.1 6.24 10.23
5/14/2021 12:45:00 AM 10.94 51.692 0.117 7.09 6.25 10.26
5/14/2021 1:00:00 AM 10.81 51.458 0.117 7.09 6.32 10.29
5/14/2021 1:15:00 AM 10.69 51.242 0.117 7.06 6.96 10.33
5/14/2021 1:30:00 AM 10.56 51.008 0.117 7.09 6.56 10.36
5/14/2021 1:45:00 AM 10.43 50.774 0.117 7.08 6.3 10.39
5/14/2021 2:00:00 AM 10.31 50.558 0.117 7.08 6.42 10.42
5/14/2021 2:15:00 AM 10.18 50.324 0.118 7.06 6.72 10.46
5/14/2021 2:30:00 AM 10.06 50.108 0.118 7.07 6.59 10.49
5/14/2021 2:45:00 AM 9.95 49.91 0.118 7.08 6.41 10.53
5/14/2021 3:00:00 AM 9.83 49.694 0.118 7.07 6.38 10.55
5/14/2021 3:15:00 AM 9.72 49.496 0.118 7.07 6.54 10.59
5/14/2021 3:30:00 AM 9.62 49.316 0.118 7.07 6.55 10.62
5/14/2021 3:45:00 AM 9.52 49.136 0.118 7.07 6.72 10.64
5/14/2021 4:00:00 AM 9.42 48.956 0.118 7.07 6.42 10.67
5/14/2021 4:15:00 AM 9.32 48.776 0.118 7.07 6.4 10.7
5/14/2021 4:30:00 AM 9.22 48.596 0.119 7.06 6.49 10.73
5/14/2021 4:45:00 AM 9.13 48.434 0.119 7.07 6.16 10.76
5/14/2021 5:00:00 AM 9.04 48.272 0.119 7.07 6.15 10.78
5/14/2021 5:15:00 AM 8.96 48.128 0.119 7.07 6.06 10.81
5/14/2021 5:30:00 AM 8.87 47.966 0.119 7.07 6.01 10.83
5/14/2021 5:45:00 AM 8.79 47.822 0.119 7.07 5.93 10.86
5/14/2021 6:00:00 AM 8.71 47.678 0.119 7.07 5.87 10.89
5/14/2021 6:15:00 AM 8.63 47.534 0.119 7.08 5.84 10.93
5/14/2021 6:30:00 AM 8.56 47.408 0.119 7.08 5.85 10.98
5/14/2021 6:45:00 AM 8.5 47.3 0.119 7.09 5.81 11.03
5/14/2021 7:00:00 AM 8.45 47.21 0.119 7.11 5.91 11.09
5/14/2021 7:15:00 AM 8.41 47.138 0.12 7.12 5.77 11.15
5/14/2021 7:30:00 AM 8.39 47.102 0.12 7.14 5.77 11.21
5/14/2021 7:45:00 AM 8.4 47.12 0.119 7.16 5.73 11.27
5/14/2021 8:00:00 AM 8.44 47.192 0.12 7.19 5.77 11.32
5/14/2021 8:15:00 AM 8.49 47.282 0.12 7.21 5.67 11.37
5/14/2021 8:30:00 AM 8.57 47.426 0.12 7.24 5.7 11.41
5/14/2021 8:45:00 AM 8.66 47.588 0.12 7.26 5.65 11.43
5/14/2021 9:00:00 AM 8.76 47.768 0.12 7.29 6.35 11.47
5/14/2021 9:15:00 AM 8.9 48.02 0.12 7.31 5.96 11.49
5/14/2021 9:30:00 AM 9.06 48.308 0.12 7.34 5.6 11.5
5/14/2021 9:45:00 AM 9.26 48.668 0.12 7.36 5.6 11.5
5/14/2021 10:00:00 AM 9.48 49.064 0.12 7.39 5.5 11.49
5/14/2021 10:15:00 AM 9.73 49.514 0.12 7.42 5.53 11.48
5/14/2021 10:30:00 AM 10.01 50.018 0.12 7.45 5.49 11.46
5/14/2021 10:45:00 AM 10.29 50.522 0.12 7.48 5.4 11.43
5/14/2021 11:00:00 AM 10.59 51.062 0.12 7.51 5.37 11.4
5/14/2021 11:15:00 AM 10.89 51.602 0.12 7.54 5.46 11.36
5/14/2021 11:30:00 AM 11.21 52.178 0.12 7.56 5.33 11.32
5/14/2021 11:45:00 AM 11.52 52.736 0.12 7.58 5.26 11.28
5/14/2021 12:00:00 PM 11.85 53.33 0.12 7.6 5.43 11.23
5/14/2021 12:15:00 PM 12.15 53.87 0.12 7.63 5.26 11.18
5/14/2021 12:30:00 PM 12.48 54.464 0.12 7.66 5.3 11.13
5/14/2021 12:45:00 PM 12.8 55.04 0.12 7.65 5.32 11.07
5/14/2021 1:00:00 PM 13.07 55.526 0.12 7.65 5.34 11.01
5/14/2021 1:15:00 PM 13.37 56.066 0.12 7.69 5.28 10.95
5/14/2021 1:30:00 PM 13.34 56.012 0.121 7.67 5.39 10.89
5/14/2021 1:45:00 PM 13.48 56.264 0.121 7.66 5.34 10.86
5/14/2021 2:00:00 PM 13.73 56.714 0.121 7.69 5.39 10.83
5/14/2021 2:15:00 PM 14 57.2 0.121 7.71 5.22 10.79
5/14/2021 2:30:00 PM 13.96 57.128 0.121 7.71 5.35 10.74
5/14/2021 2:45:00 PM 13.89 57.002 0.121 7.68 5.31 10.7
5/14/2021 3:00:00 PM 13.98 57.164 0.121 7.67 5.38 10.68
5/14/2021 3:15:00 PM 14.13 57.434 0.121 7.71 5.41 10.66
5/14/2021 3:30:00 PM 14.15 57.47 0.121 7.7 5.27 10.63
5/14/2021 3:45:00 PM 14.21 57.578 0.121 7.7 5.31 10.6
5/14/2021 4:00:00 PM 14.35 57.83 0.121 7.71 5.23 10.57
5/14/2021 4:15:00 PM 14.38 57.884 0.121 7.71 5.26 10.51
5/14/2021 4:30:00 PM 14.45 58.01 0.121 7.7 5.33 10.47
5/14/2021 4:45:00 PM 14.45 58.01 0.121 7.69 5.29 10.43
5/14/2021 5:00:00 PM 14.4 57.92 0.121 7.65 5.24 10.38
5/14/2021 5:15:00 PM 14.38 57.884 0.121 7.66 5.15 10.34
5/14/2021 5:30:00 PM 14.31 57.758 0.121 7.63 5.32 10.3
5/14/2021 5:45:00 PM 14.26 57.668 0.121 7.59 5.36 10.26
5/14/2021 6:00:00 PM 14.2 57.56 0.122 7.58 5.23 10.21
5/14/2021 6:15:00 PM 14.16 57.488 0.122 7.56 5.37 10.18
5/14/2021 6:30:00 PM 14.15 57.47 0.122 7.55 5.34 10.16
5/14/2021 6:45:00 PM 14.13 57.434 0.122 7.54 5.24 10.13
5/14/2021 7:00:00 PM 14.13 57.434 0.122 7.52 5.22 10.12
5/14/2021 7:15:00 PM 14.11 57.398 0.122 7.52 5.31 10.1
5/14/2021 7:30:00 PM 14.08 57.344 0.122 7.5 5.29 10.05
5/14/2021 7:45:00 PM 14.03 57.254 0.122 7.48 5.21 9.97
5/14/2021 8:00:00 PM 13.97 57.146 0.122 7.45 5.19 9.91
5/14/2021 8:15:00 PM 13.88 56.984 0.122 7.42 5.44 9.85
5/14/2021 8:30:00 PM 13.79 56.822 0.122 7.39 5.27 9.8
5/14/2021 8:45:00 PM 13.7 56.66 0.122 7.36 5.44 9.76
5/14/2021 9:00:00 PM 13.61 56.498 0.123 7.33 5.33 9.74
5/14/2021 9:15:00 PM 13.53 56.354 0.123 7.31 5.42 9.72
5/14/2021 9:30:00 PM 13.45 56.21 0.123 7.3 5.44 9.71
5/14/2021 9:45:00 PM 13.37 56.066 0.123 7.29 5.45 9.71
5/14/2021 10:00:00 PM 13.29 55.922 0.123 7.27 5.44 9.71
5/14/2021 10:15:00 PM 13.21 55.778 0.123 7.26 5.45 9.72
5/14/2021 10:30:00 PM 13.13 55.634 0.123 7.25 5.52 9.73
5/14/2021 10:45:00 PM 13.04 55.472 0.123 7.24 5.2 9.74
5/14/2021 11:00:00 PM 12.95 55.31 0.123 7.24 5.54 9.74
5/14/2021 11:15:00 PM 12.86 55.148 0.123 7.23 5.5 9.76
5/14/2021 11:30:00 PM 12.77 54.986 0.124 7.22 5.59 9.78
5/14/2021 11:45:00 PM 12.68 54.824 0.124 7.21 5.47 9.79
5/15/2021 12:00:00 AM 12.58 54.644 0.124 7.2 5.26 9.81
5/15/2021 12:15:00 AM 12.48 54.464 0.124 7.2 5.58 9.83
5/15/2021 12:30:00 AM 12.38 54.284 0.124 7.2 5.49 9.85
5/15/2021 12:45:00 AM 12.27 54.086 0.124 7.2 5.45 9.88
5/15/2021 1:00:00 AM 12.16 53.888 0.124 7.19 5.54 9.91
5/15/2021 1:15:00 AM 12.05 53.69 0.124 7.18 5.44 9.93
5/15/2021 1:30:00 AM 11.94 53.492 0.125 7.19 5.53 9.96
5/15/2021 1:45:00 AM 11.82 53.276 0.125 7.18 5.48 9.98
5/15/2021 2:00:00 AM 11.71 53.078 0.125 7.17 5.37 10.01
5/15/2021 2:15:00 AM 11.59 52.862 0.125 7.16 5.4 10.05
5/15/2021 2:30:00 AM 11.48 52.664 0.125 7.15 5.43 10.07
5/15/2021 2:45:00 AM 11.36 52.448 0.125 7.15 5.38 10.1
5/15/2021 3:00:00 AM 11.25 52.25 0.125 7.16 5.39 10.13
5/15/2021 3:15:00 AM 11.13 52.034 0.125 7.15 5.46 10.16
5/15/2021 3:30:00 AM 11.02 51.836 0.125 7.14 5.63 10.19
5/15/2021 3:45:00 AM 10.92 51.656 0.125 7.15 5.79 10.22
5/15/2021 4:00:00 AM 10.82 51.476 0.125 7.15 5.64 10.25
5/15/2021 4:15:00 AM 10.72 51.296 0.125 7.15 5.54 10.28
5/15/2021 4:30:00 AM 10.62 51.116 0.125 7.14 5.43 10.31
5/15/2021 4:45:00 AM 10.52 50.936 0.125 7.16 5.5 10.33
5/15/2021 5:00:00 AM 10.43 50.774 0.125 7.15 5.35 10.36
5/15/2021 5:15:00 AM 10.34 50.612 0.126 7.14 5.55 10.39
5/15/2021 5:30:00 AM 10.24 50.432 0.126 7.15 5.4 10.41
5/15/2021 5:45:00 AM 10.15 50.27 0.126 7.15 5.77 10.45
5/15/2021 6:00:00 AM 10.06 50.108 0.126 7.15 5.48 10.48
5/15/2021 6:15:00 AM 9.97 49.946 0.126 7.16 5.75 10.53
5/15/2021 6:30:00 AM 9.9 49.82 0.126 7.17 5.69 10.6
5/15/2021 6:45:00 AM 9.83 49.694 0.126 7.18 5.73 10.67
5/15/2021 7:00:00 AM 9.78 49.604 0.126 7.19 5.79 10.75
5/15/2021 7:15:00 AM 9.74 49.532 0.126 7.21 5.48 10.83
5/15/2021 7:30:00 AM 9.73 49.514 0.126 7.23 5.5 10.9
5/15/2021 7:45:00 AM 9.73 49.514 0.126 7.26 5.68 10.98
5/15/2021 8:00:00 AM 9.77 49.586 0.126 7.29 5.44 11.06
5/15/2021 8:15:00 AM 9.82 49.676 0.126 7.32 5.31 11.12
5/15/2021 8:30:00 AM 9.88 49.784 0.126 7.36 5.37 11.17
5/15/2021 8:45:00 AM 9.97 49.946 0.126 7.37 5.26 11.2
5/15/2021 9:00:00 AM 10.06 50.108 0.126 7.41 5.17 11.24
5/15/2021 9:15:00 AM 10.18 50.324 0.126 7.44 5.2 11.27
5/15/2021 9:30:00 AM 10.33 50.594 0.126 7.46 5.07 11.29
5/15/2021 9:45:00 AM 10.51 50.918 0.126 7.49 5.19 11.31
5/15/2021 10:00:00 AM 10.72 51.296 0.126 7.53 5 11.32
5/15/2021 10:15:00 AM 10.98 51.764 0.126 7.56 4.96 11.31
5/15/2021 10:30:00 AM 11.25 52.25 0.126 7.59 5.04 11.3
5/15/2021 10:45:00 AM 11.55 52.79 0.126 7.64 5.02 11.28
5/15/2021 11:00:00 AM 11.85 53.33 0.126 7.67 4.9 11.25
5/15/2021 11:15:00 AM 12.16 53.888 0.126 7.71 4.89 11.22
5/15/2021 11:30:00 AM 12.48 54.464 0.126 7.73 5.01 11.18
5/15/2021 11:45:00 AM 12.79 55.022 0.126 7.77 4.94 11.14
5/15/2021 12:00:00 PM 12.8 55.04 0.126 7.75 4.94 11.06
5/15/2021 12:15:00 PM 12.81 55.058 0.126 7.73 4.91 11.01
5/15/2021 12:30:00 PM 12.84 55.112 0.126 7.72 4.94 11
5/15/2021 12:45:00 PM 12.93 55.274 0.126 7.73 4.77 10.99
5/15/2021 1:00:00 PM 13.08 55.544 0.127 7.75 4.91 11
5/15/2021 1:15:00 PM 13.14 55.652 0.127 7.76 4.85 10.99
5/15/2021 1:30:00 PM 13.22 55.796 0.127 7.78 4.82 10.98
5/15/2021 1:45:00 PM 13.3 55.94 0.127 7.77 4.95 10.96
5/15/2021 2:00:00 PM 13.49 56.282 0.127 7.82 4.79 10.95
5/15/2021 2:15:00 PM 13.6 56.48 0.127 7.83 4.85 10.93
5/15/2021 2:30:00 PM 13.67 56.606 0.127 7.83 4.83 10.89
5/15/2021 2:45:00 PM 13.72 56.696 0.127 7.82 4.88 10.85
5/15/2021 3:00:00 PM 13.79 56.822 0.127 7.83 4.82 10.81
5/15/2021 3:15:00 PM 13.78 56.804 0.127 7.83 4.82 10.79
5/15/2021 3:30:00 PM 13.82 56.876 0.127 7.82 4.89 10.78
5/15/2021 3:45:00 PM 13.81 56.858 0.127 7.81 4.96 10.75
5/15/2021 4:00:00 PM 14.01 57.218 0.127 7.83 4.78 10.73
5/15/2021 4:15:00 PM 14.13 57.434 0.127 7.83 4.83 10.72
5/15/2021 4:30:00 PM 14.29 57.722 0.127 7.85 4.85 10.67
5/15/2021 4:45:00 PM 14.34 57.812 0.127 7.86 4.76 10.63
5/15/2021 5:00:00 PM 14.34 57.812 0.127 7.85 4.92 10.58
5/15/2021 5:15:00 PM 14.32 57.776 0.127 7.83 4.79 10.55
5/15/2021 5:30:00 PM 14.31 57.758 0.128 7.81 4.74 10.53
5/15/2021 5:45:00 PM 14.29 57.722 0.128 7.78 4.89 10.5
5/15/2021 6:00:00 PM 14.28 57.704 0.128 7.79 4.81 10.47
5/15/2021 6:15:00 PM 14.26 57.668 0.128 7.76 4.77 10.42
5/15/2021 6:30:00 PM 14.26 57.668 0.128 7.74 4.88 10.35
5/15/2021 6:45:00 PM 14.27 57.686 0.128 7.71 4.77 10.3
5/15/2021 7:00:00 PM 14.26 57.668 0.128 7.68 4.68 10.23
5/15/2021 7:15:00 PM 14.23 57.614 0.128 7.65 4.77 10.14
5/15/2021 7:30:00 PM 14.19 57.542 0.128 7.61 5 10.05
5/15/2021 7:45:00 PM 14.14 57.452 0.128 7.56 4.75 9.96
5/15/2021 8:00:00 PM 14.08 57.344 0.129 7.53 4.71 9.89
5/15/2021 8:15:00 PM 14.03 57.254 0.129 7.49 4.85 9.82
5/15/2021 8:30:00 PM 13.97 57.146 0.129 7.47 4.7 9.76
5/15/2021 8:45:00 PM 13.9 57.02 0.129 7.44 4.9 9.7
5/15/2021 9:00:00 PM 13.84 56.912 0.129 7.41 4.91 9.67
5/15/2021 9:15:00 PM 13.77 56.786 0.129 7.39 4.97 9.66
5/15/2021 9:30:00 PM 13.71 56.678 0.129 7.37 5.1 9.64
5/15/2021 9:45:00 PM 13.65 56.57 0.129 7.35 4.82 9.63
5/15/2021 10:00:00 PM 13.59 56.462 0.13 7.34 4.98 9.63
5/15/2021 10:15:00 PM 13.53 56.354 0.13 7.33 5.04 9.63
5/15/2021 10:30:00 PM 13.47 56.246 0.13 7.32 4.92 9.63
5/15/2021 10:45:00 PM 13.42 56.156 0.13 7.31 4.89 9.64
5/15/2021 11:00:00 PM 13.35 56.03 0.13 7.31 4.91 9.64
5/15/2021 11:15:00 PM 13.27 55.886 0.13 7.3 5.05 9.65
5/15/2021 11:30:00 PM 13.19 55.742 0.13 7.29 4.95 9.66
5/15/2021 11:45:00 PM 13.12 55.616 0.13 7.29 4.89 9.67
5/16/2021 12:00:00 AM 13.05 55.49 0.131 7.27 5.28 9.68
5/16/2021 12:15:00 AM 12.97 55.346 0.131 7.28 5.04 9.68
5/16/2021 12:30:00 AM 12.9 55.22 0.131 7.28 4.99 9.7
5/16/2021 12:45:00 AM 12.83 55.094 0.131 7.27 5.06 9.71
5/16/2021 1:00:00 AM 12.75 54.95 0.131 7.28 5.22 9.73
5/16/2021 1:15:00 AM 12.68 54.824 0.131 7.27 5.2 9.74
5/16/2021 1:30:00 AM 12.61 54.698 0.131 7.27 5.37 9.76
5/16/2021 1:45:00 AM 12.53 54.554 0.131 7.27 5.91 9.78
5/16/2021 2:00:00 AM 12.45 54.41 0.131 7.24 6.03 9.8
5/16/2021 2:15:00 AM 12.38 54.284 0.131 7.26 6.56 9.81
5/16/2021 2:30:00 AM 12.3 54.14 0.131 7.26 6.9 9.83
5/16/2021 2:45:00 AM 12.21 53.978 0.131 7.25 7.12 9.85
5/16/2021 3:00:00 AM 12.12 53.816 0.131 7.25 7.62 9.87
5/16/2021 3:15:00 AM 12.02 53.636 0.131 7.24 7.68 9.89
5/16/2021 3:30:00 AM 11.92 53.456 0.131 7.24 7.79 9.91
5/16/2021 3:45:00 AM 11.83 53.294 0.131 7.23 7.99 9.93
5/16/2021 4:00:00 AM 11.74 53.132 0.132 7.23 8.19 9.96
5/16/2021 4:15:00 AM 11.65 52.97 0.132 7.22 7.6 9.99
5/16/2021 4:30:00 AM 11.56 52.808 0.132 7.23 7.41 10.01
5/16/2021 4:45:00 AM 11.47 52.646 0.132 7.23 7.21 10.03
5/16/2021 5:00:00 AM 11.38 52.484 0.132 7.22 6.66 10.06
5/16/2021 5:15:00 AM 11.28 52.304 0.132 7.22 6.97 10.08
5/16/2021 5:30:00 AM 11.19 52.142 0.132 7.22 6.55 10.1
5/16/2021 5:45:00 AM 11.1 51.98 0.132 7.21 6.18 10.13
5/16/2021 6:00:00 AM 11.02 51.836 0.132 7.21 6.15 10.16
5/16/2021 6:15:00 AM 10.93 51.674 0.132 7.22 5.72 10.22
5/16/2021 6:30:00 AM 10.86 51.548 0.132 7.23 5.57 10.3
5/16/2021 6:45:00 AM 10.8 51.44 0.132 7.23 5.65 10.4
5/16/2021 7:00:00 AM 10.76 51.368 0.132 7.26 5.57 10.52
5/16/2021 7:15:00 AM 10.76 51.368 0.132 7.3 5.71 10.65
5/16/2021 7:30:00 AM 10.75 51.35 0.132 7.33 5.4 10.76
5/16/2021 7:45:00 AM 10.79 51.422 0.132 7.38 5.41 10.86
5/16/2021 8:00:00 AM 10.82 51.476 0.132 7.42 5.91 10.96
5/16/2021 8:15:00 AM 10.85 51.53 0.132 7.45 5.27 11
5/16/2021 8:30:00 AM 10.86 51.548 0.132 7.47 5.24 11
5/16/2021 8:45:00 AM 10.86 51.548 0.132 7.47 4.98 10.98
5/16/2021 9:00:00 AM 10.88 51.584 0.132 7.48 5.03 11
5/16/2021 9:15:00 AM 10.89 51.602 0.132 7.49 4.83 11.03
5/16/2021 9:30:00 AM 10.91 51.638 0.132 7.51 4.94 11.07
5/16/2021 9:45:00 AM 10.94 51.692 0.132 7.51 4.87 11.11
5/16/2021 10:00:00 AM 10.99 51.782 0.132 7.55 4.86 11.17
5/16/2021 10:15:00 AM 11.07 51.926 0.132 7.57 4.93 11.22
5/16/2021 10:30:00 AM 11.21 52.178 0.132 7.62 4.83 11.29
5/16/2021 10:45:00 AM 11.4 52.52 0.132 7.66 4.78 11.33
5/16/2021 11:00:00 AM 11.59 52.862 0.132 7.71 4.71 11.36
5/16/2021 11:15:00 AM 11.73 53.114 0.132 7.74 4.84 11.36
5/16/2021 11:30:00 AM 11.85 53.33 0.132 7.77 4.78 11.36
5/16/2021 11:45:00 AM 12 53.6 0.132 7.81 4.66 11.34
5/16/2021 12:00:00 PM 12.16 53.888 0.132 7.83 4.65 11.34
5/16/2021 12:15:00 PM 12.28 54.104 0.133 7.85 4.69 11.33
5/16/2021 12:30:00 PM 12.38 54.284 0.133 7.88 4.73 11.31
5/16/2021 12:45:00 PM 12.47 54.446 0.133 7.89 4.77 11.29
5/16/2021 1:00:00 PM 12.62 54.716 0.133 7.91 4.67 11.29
5/16/2021 1:15:00 PM 12.93 55.274 0.133 7.95 4.6 11.28
5/16/2021 1:30:00 PM 13.29 55.922 0.133 7.99 4.74 11.26
5/16/2021 1:45:00 PM 13.59 56.462 0.133 8.04 4.74 11.22
5/16/2021 2:00:00 PM 13.87 56.966 0.133 8.07 4.69 11.17
5/16/2021 2:15:00 PM 14.14 57.452 0.133 8.08 4.71 11.12
5/16/2021 2:30:00 PM 14.44 57.992 0.133 8.11 4.63 11.06
5/16/2021 2:45:00 PM 14.64 58.352 0.133 8.11 5.3 11.02
5/16/2021 3:00:00 PM 14.74 58.532 0.134 8.13 4.45 10.97
5/16/2021 3:15:00 PM 14.71 58.478 0.134 8.11 4.54 10.93
5/16/2021 3:30:00 PM 14.71 58.478 0.134 8.09 4.52 10.88
5/16/2021 3:45:00 PM 14.64 58.352 0.134 8.06 4.56 10.84
5/16/2021 4:00:00 PM 14.67 58.406 0.134 8.04 4.62 10.81
5/16/2021 4:15:00 PM 14.71 58.478 0.134 8.05 4.58 10.8
5/16/2021 4:30:00 PM 14.72 58.496 0.134 8.05 4.45 10.79
5/16/2021 4:45:00 PM 14.73 58.514 0.134 8.03 4.57 10.76
5/16/2021 5:00:00 PM 14.75 58.55 0.134 8.02 4.49 10.71
5/16/2021 5:15:00 PM 14.8 58.64 0.134 8.01 4.53 10.67
5/16/2021 5:30:00 PM 14.87 58.766 0.134 8.01 4.56 10.63
5/16/2021 5:45:00 PM 14.87 58.766 0.134 7.98 4.52 10.57
5/16/2021 6:00:00 PM 14.83 58.694 0.134 7.95 4.46 10.48
5/16/2021 6:15:00 PM 14.81 58.658 0.135 7.9 4.6 10.38
5/16/2021 6:30:00 PM 14.78 58.604 0.135 7.84 4.46 10.25
5/16/2021 6:45:00 PM 14.76 58.568 0.135 7.78 4.49 10.14
5/16/2021 7:00:00 PM 14.76 58.568 0.135 7.74 4.57 10.09
5/16/2021 7:15:00 PM 14.75 58.55 0.135 7.74 4.6 10.09
5/16/2021 7:30:00 PM 14.7 58.46 0.135 7.72 4.56 10.05
5/16/2021 7:45:00 PM 14.64 58.352 0.135 7.68 4.46 9.96
5/16/2021 8:00:00 PM 14.56 58.208 0.135 7.65 4.34 9.89
5/16/2021 8:15:00 PM 14.5 58.1 0.136 7.61 4.62 9.82
5/16/2021 8:30:00 PM 14.42 57.956 0.136 7.56 4.77 9.73
5/16/2021 8:45:00 PM 14.33 57.794 0.136 7.53 4.64 9.65
5/16/2021 9:00:00 PM 14.25 57.65 0.136 7.49 4.65 9.6
5/16/2021 9:15:00 PM 14.17 57.506 0.136 7.47 4.58 9.57
5/16/2021 9:30:00 PM 14.08 57.344 0.136 7.43 4.96 9.54
5/16/2021 9:45:00 PM 13.99 57.182 0.136 7.41 4.85 9.53
5/16/2021 10:00:00 PM 13.9 57.02 0.137 7.39 4.76 9.53
5/16/2021 10:15:00 PM 13.81 56.858 0.137 7.36 4.72 9.53
5/16/2021 10:30:00 PM 13.72 56.696 0.137 7.37 4.68 9.53
5/16/2021 10:45:00 PM 13.62 56.516 0.137 7.35 4.73 9.55
5/16/2021 11:00:00 PM 13.53 56.354 0.137 7.33 4.63 9.56
5/16/2021 11:15:00 PM 13.44 56.192 0.137 7.33 4.67 9.57
5/16/2021 11:30:00 PM 13.36 56.048 0.137 7.33 4.57 9.58
5/16/2021 11:45:00 PM 13.28 55.904 0.137 7.32 4.64 9.59
5/17/2021 12:00:00 AM 13.19 55.742 0.137 7.31 4.59 9.6
5/17/2021 12:15:00 AM 13.1 55.58 0.137 7.31 4.58 9.62
5/17/2021 12:30:00 AM 13.01 55.418 0.137 7.31 4.78 9.63
5/17/2021 12:45:00 AM 12.93 55.274 0.137 7.31 4.73 9.65
5/17/2021 1:00:00 AM 12.85 55.13 0.138 7.3 4.75 9.66
5/17/2021 1:15:00 AM 12.77 54.986 0.138 7.3 4.51 9.68
5/17/2021 1:30:00 AM 12.69 54.842 0.138 7.3 4.6 9.7
5/17/2021 1:45:00 AM 12.62 54.716 0.138 7.3 4.6 9.71
5/17/2021 2:00:00 AM 12.54 54.572 0.138 7.3 4.61 9.73
5/17/2021 2:15:00 AM 12.47 54.446 0.138 7.29 4.75 9.74
5/17/2021 2:30:00 AM 12.4 54.32 0.138 7.29 4.57 9.76
5/17/2021 2:45:00 AM 12.34 54.212 0.138 7.3 4.7 9.78
5/17/2021 3:00:00 AM 12.28 54.104 0.138 7.29 4.64 9.79
5/17/2021 3:15:00 AM 12.23 54.014 0.138 7.29 4.67 9.81
5/17/2021 3:30:00 AM 12.19 53.942 0.138 7.29 4.75 9.82
5/17/2021 3:45:00 AM 12.13 53.834 0.138 7.28 4.74 9.83
5/17/2021 4:00:00 AM 12.07 53.726 0.139 7.3 4.62 9.85
5/17/2021 4:15:00 AM 12.01 53.618 0.139 7.3 4.66 9.86
5/17/2021 4:30:00 AM 11.93 53.474 0.139 7.29 4.71 9.88
5/17/2021 4:45:00 AM 11.86 53.348 0.139 7.27 4.48 9.9
5/17/2021 5:00:00 AM 11.78 53.204 0.139 7.28 4.64 9.91
5/17/2021 5:15:00 AM 11.7 53.06 0.139 7.27 4.66 9.94
5/17/2021 5:30:00 AM 11.63 52.934 0.139 7.27 4.51 9.96
5/17/2021 5:45:00 AM 11.54 52.772 0.139 7.27 4.74 9.97
5/17/2021 6:00:00 AM 11.46 52.628 0.139 7.27 5.45 10.01
5/17/2021 6:15:00 AM 11.38 52.484 0.139 7.27 4.69 10.07
5/17/2021 6:30:00 AM 11.31 52.358 0.139 7.28 6.27 10.14
5/17/2021 6:45:00 AM 11.25 52.25 0.139 7.29 4.86 10.24
5/17/2021 7:00:00 AM 11.2 52.16 0.139 7.31 4.8 10.34
5/17/2021 7:15:00 AM 11.17 52.106 0.139 7.31 4.67 10.45
5/17/2021 7:30:00 AM 11.15 52.07 0.139 7.35 4.74 10.55
5/17/2021 7:45:00 AM 11.15 52.07 0.139 7.38 4.5 10.65
5/17/2021 8:00:00 AM 11.18 52.124 0.139 7.42 4.44 10.75
5/17/2021 8:15:00 AM 11.24 52.232 0.139 7.46 4.79 10.85
5/17/2021 8:30:00 AM 11.33 52.394 0.139 7.5 5.65 10.93
5/17/2021 8:45:00 AM 11.43 52.574 0.139 7.54 7.77 10.99
5/17/2021 9:00:00 AM 11.55 52.79 0.139 7.58 4.8 11.05
5/17/2021 9:15:00 AM 11.69 53.042 0.139 7.63 4.51 11.11
5/17/2021 9:30:00 AM 11.86 53.348 0.139 7.67 4.52 11.15
5/17/2021 9:45:00 AM 12.04 53.672 0.139 7.71 4.44 11.18
5/17/2021 10:00:00 AM 12.26 54.068 0.139 7.76 4.32 11.2
5/17/2021 10:15:00 AM 12.49 54.482 0.14 7.8 4.37 11.21
5/17/2021 10:30:00 AM 12.78 55.004 0.14 7.86 4.31 11.21
5/17/2021 10:45:00 AM 13.09 55.562 0.139 7.91 4.36 11.21
5/17/2021 11:00:00 AM 13.43 56.174 0.139 7.95 4.33 11.19
5/17/2021 11:15:00 AM 13.78 56.804 0.14 8.01 4.21 11.17
5/17/2021 11:30:00 AM 14.16 57.488 0.139 8.05 4.17 11.15
5/17/2021 11:45:00 AM 14.51 58.118 0.14 8.09 4.15 11.12
5/17/2021 12:00:00 PM 14.77 58.586 0.14 8.12 4.2 11.05
5/17/2021 12:15:00 PM 15.07 59.126 0.14 8.14 4.3 10.99
5/17/2021 12:30:00 PM 15.12 59.216 0.14 8.13 4.3 10.93
5/17/2021 12:45:00 PM 15.3 59.54 0.14 8.14 4.24 10.87
5/17/2021 1:00:00 PM 15.4 59.72 0.14 8.14 4.3 10.85
5/17/2021 1:15:00 PM 15.67 60.206 0.14 8.17 4.21 10.82
5/17/2021 1:30:00 PM 16.09 60.962 0.14 8.24 4.25 10.81
5/17/2021 1:45:00 PM 16.36 61.448 0.14 8.28 4.15 10.75
5/17/2021 2:00:00 PM 16.69 62.042 0.14 8.32 4.22 10.72
5/17/2021 2:15:00 PM 17.04 62.672 0.14 8.36 4.19 10.69
5/17/2021 2:30:00 PM 17.15 62.87 0.14 8.38 4.15 10.6
5/17/2021 2:45:00 PM 17 62.6 0.14 8.31 4.24 10.5
5/17/2021 3:00:00 PM 16.96 62.528 0.14 8.25 4.31 10.44
5/17/2021 3:15:00 PM 16.97 62.546 0.14 8.24 4.18 10.43
5/17/2021 3:30:00 PM 16.98 62.564 0.14 8.25 4.27 10.4
5/17/2021 3:45:00 PM 16.88 62.384 0.141 8.23 4.29 10.36
5/17/2021 4:00:00 PM 16.81 62.258 0.141 8.2 4.28 10.34
5/17/2021 4:15:00 PM 16.92 62.456 0.141 8.21 4.21 10.31
5/17/2021 4:30:00 PM 17.01 62.618 0.141 8.21 4.28 10.29
5/17/2021 4:45:00 PM 16.99 62.582 0.141 8.19 4.21 10.26
5/17/2021 5:00:00 PM 16.92 62.456 0.141 8.17 4.28 10.23
5/17/2021 5:15:00 PM 16.79 62.222 0.141 8.11 4.27 10.14
5/17/2021 5:30:00 PM 16.66 61.988 0.141 8.03 4.32 10.01
5/17/2021 5:45:00 PM 16.56 61.808 0.141 7.96 4.42 9.91
5/17/2021 6:00:00 PM 16.52 61.736 0.142 7.92 4.22 9.85
5/17/2021 6:15:00 PM 16.54 61.772 0.142 7.9 4.2 9.83
5/17/2021 6:30:00 PM 16.53 61.754 0.142 7.88 4.18 9.8
5/17/2021 6:45:00 PM 16.48 61.664 0.142 7.86 4.25 9.75
5/17/2021 7:00:00 PM 16.44 61.592 0.142 7.83 4.33 9.7
5/17/2021 7:15:00 PM 16.39 61.502 0.142 7.8 4.27 9.64
5/17/2021 7:30:00 PM 16.3 61.34 0.142 7.75 6.16 9.56
5/17/2021 7:45:00 PM 16.2 61.16 0.142 7.7 7.27 9.5
5/17/2021 8:00:00 PM 16.12 61.016 0.143 7.66 4.87 9.45
5/17/2021 8:15:00 PM 16.03 60.854 0.143 7.64 4.47 9.39
5/17/2021 8:30:00 PM 15.93 60.674 0.143 7.6 5.5 9.32
5/17/2021 8:45:00 PM 15.83 60.494 0.143 7.56 5.08 9.25
5/17/2021 9:00:00 PM 15.71 60.278 0.143 7.52 4.47 9.2
5/17/2021 9:15:00 PM 15.59 60.062 0.143 7.49 4.38 9.18
5/17/2021 9:30:00 PM 15.46 59.828 0.143 7.46 4.32 9.15
5/17/2021 9:45:00 PM 15.32 59.576 0.144 7.44 4.47 9.16
5/17/2021 10:00:00 PM 15.19 59.342 0.144 7.42 4.2 9.16
5/17/2021 10:15:00 PM 15.07 59.126 0.144 7.39 4.23 9.16
5/17/2021 10:30:00 PM 14.96 58.928 0.144 7.4 4.34 9.17
5/17/2021 10:45:00 PM 14.85 58.73 0.144 7.39 4.43 9.19
5/17/2021 11:00:00 PM 14.75 58.55 0.144 7.39 4.48 9.2
5/17/2021 11:15:00 PM 14.65 58.37 0.144 7.38 4.51 9.21
5/17/2021 11:30:00 PM 14.56 58.208 0.144 7.38 4.3 9.23
5/17/2021 11:45:00 PM 14.47 58.046 0.144 7.37 4.18 9.24
5/18/2021 12:00:00 AM 14.39 57.902 0.144 7.37 4.25 9.24
5/18/2021 12:15:00 AM 14.31 57.758 0.144 7.37 4.26 9.27
5/18/2021 12:30:00 AM 14.24 57.632 0.144 7.37 4.14 9.29
5/18/2021 12:45:00 AM 14.17 57.506 0.145 7.37 4.35 9.29
5/18/2021 1:00:00 AM 14.09 57.362 0.145 7.37 4.53 9.32
5/18/2021 1:15:00 AM 14.02 57.236 0.145 7.37 4.39 9.33
5/18/2021 1:30:00 AM 13.94 57.092 0.145 7.36 4.32 9.35
5/18/2021 1:45:00 AM 13.86 56.948 0.145 7.35 4.3 9.36
5/18/2021 2:00:00 AM 13.79 56.822 0.145 7.35 4.33 9.38
5/18/2021 2:15:00 AM 13.72 56.696 0.145 7.35 4.28 9.39
5/18/2021 2:30:00 AM 13.64 56.552 0.145 7.35 4.26 9.41
5/18/2021 2:45:00 AM 13.57 56.426 0.145 7.34 4.27 9.42
5/18/2021 3:00:00 AM 13.49 56.282 0.146 7.34 4.31 9.44
5/18/2021 3:15:00 AM 13.41 56.138 0.146 7.34 4.2 9.46
5/18/2021 3:30:00 AM 13.34 56.012 0.146 7.33 4.35 9.47
5/18/2021 3:45:00 AM 13.26 55.868 0.146 7.33 4.23 9.49
5/18/2021 4:00:00 AM 13.18 55.724 0.146 7.33 4.16 9.5
5/18/2021 4:15:00 AM 13.1 55.58 0.146 7.32 4.35 9.52
5/18/2021 4:30:00 AM 13.03 55.454 0.146 7.32 4.32 9.55
5/18/2021 4:45:00 AM 12.95 55.31 0.146 7.31 4.27 9.57
5/18/2021 5:00:00 AM 12.88 55.184 0.146 7.32 4.4 9.59
5/18/2021 5:15:00 AM 12.8 55.04 0.146 7.31 4.32 9.61
5/18/2021 5:30:00 AM 12.73 54.914 0.146 7.31 4.34 9.63
5/18/2021 5:45:00 AM 12.65 54.77 0.146 7.31 4.31 9.64
5/18/2021 6:00:00 AM 12.58 54.644 0.146 7.31 4.39 9.68
5/18/2021 6:15:00 AM 12.51 54.518 0.146 7.32 4.31 9.73
5/18/2021 6:30:00 AM 12.44 54.392 0.146 7.33 4.42 9.82
5/18/2021 6:45:00 AM 12.38 54.284 0.146 7.34 4.38 9.92
5/18/2021 7:00:00 AM 12.33 54.194 0.146 7.36 4.36 10.04
5/18/2021 7:15:00 AM 12.3 54.14 0.146 7.39 4.46 10.15
5/18/2021 7:30:00 AM 12.28 54.104 0.146 7.41 4.28 10.26
5/18/2021 7:45:00 AM 12.29 54.122 0.146 7.45 4.29 10.38
5/18/2021 8:00:00 AM 12.33 54.194 0.146 7.49 4.37 10.5
5/18/2021 8:15:00 AM 12.38 54.284 0.146 7.53 4.25 10.62
5/18/2021 8:30:00 AM 12.47 54.446 0.146 7.58 4.19 10.73
5/18/2021 8:45:00 AM 12.58 54.644 0.146 7.63 4.25 10.83
5/18/2021 9:00:00 AM 12.71 54.878 0.146 7.69 4.23 10.9
5/18/2021 9:15:00 AM 12.86 55.148 0.146 7.74 4.18 10.96
5/18/2021 9:30:00 AM 13.05 55.49 0.146 7.79 4.31 11.03
5/18/2021 9:45:00 AM 13.25 55.85 0.146 7.85 4.19 11.08
5/18/2021 10:00:00 AM 13.48 56.264 0.146 7.91 4.32 11.09
5/18/2021 10:15:00 AM 13.71 56.678 0.146 7.96 4.09 11.13
5/18/2021 10:30:00 AM 14 57.2 0.146 8.02 4.02 11.14
5/18/2021 10:45:00 AM 14.31 57.758 0.146 8.09 4.15 11.15
5/18/2021 11:00:00 AM 14.66 58.388 0.146 8.17 4.04 11.14
5/18/2021 11:15:00 AM 15.02 59.036 0.146 8.22 4.03 11.12
5/18/2021 11:30:00 AM 15.4 59.72 0.146 8.29 4.06 11.12
5/18/2021 11:45:00 AM 15.78 60.404 0.146 8.35 4.05 11.07
5/18/2021 12:00:00 PM 16.15 61.07 0.146 8.4 4.11 11.05
5/18/2021 12:15:00 PM 16.5 61.7 0.146 8.45 4.07 11.01
5/18/2021 12:30:00 PM 16.83 62.294 0.146 8.5 4.02 10.98
5/18/2021 12:45:00 PM 17.15 62.87 0.146 8.55 4.05 10.93
5/18/2021 1:00:00 PM 17.43 63.374 0.146 8.58 4.06 10.89
5/18/2021 1:15:00 PM 17.69 63.842 0.146 8.6 4.06 10.85
5/18/2021 1:30:00 PM 17.93 64.274 0.147 8.64 4.09 10.81
5/18/2021 1:45:00 PM 18.13 64.634 0.146 8.66 3.95 10.77
5/18/2021 2:00:00 PM 18.3 64.94 0.147 8.69 4.07 10.73
5/18/2021 2:15:00 PM 18.46 65.228 0.147 8.71 4.01 10.69
5/18/2021 2:30:00 PM 18.58 65.444 0.147 8.72 3.96 10.65
5/18/2021 2:45:00 PM 18.67 65.606 0.147 8.73 4.01 10.62
5/18/2021 3:00:00 PM 18.73 65.714 0.147 8.74 3.93 10.58
5/18/2021 3:15:00 PM 18.76 65.768 0.147 8.73 3.98 10.55
5/18/2021 3:30:00 PM 18.75 65.75 0.147 8.72 3.83 10.5
5/18/2021 3:45:00 PM 18.76 65.768 0.147 8.7 4.01 10.45
5/18/2021 4:00:00 PM 18.74 65.732 0.147 8.66 4 10.39
5/18/2021 4:15:00 PM 18.69 65.642 0.147 8.63 3.94 10.32
5/18/2021 4:30:00 PM 18.6 65.48 0.147 8.55 4.14 10.22
5/18/2021 4:45:00 PM 18.51 65.318 0.147 8.49 4.18 10.16
5/18/2021 5:00:00 PM 18.43 65.174 0.148 8.44 3.99 10.1
5/18/2021 5:15:00 PM 18.39 65.102 0.148 8.39 4 10.06
5/18/2021 5:30:00 PM 18.34 65.012 0.148 8.36 4.92 10.02
5/18/2021 5:45:00 PM 18.29 64.922 0.148 8.3 3.97 9.96
5/18/2021 6:00:00 PM 18.24 64.832 0.148 8.29 4.03 9.92
5/18/2021 6:15:00 PM 18.18 64.724 0.148 8.24 4.02 9.87
5/18/2021 6:30:00 PM 18.13 64.634 0.148 8.19 4.05 9.77
5/18/2021 6:45:00 PM 18.07 64.526 0.148 8.12 4.24 9.66
5/18/2021 7:00:00 PM 18.01 64.418 0.148 8.06 4.22 9.56
5/18/2021 7:15:00 PM 17.95 64.31 0.149 8.01 4.33 9.48
5/18/2021 7:30:00 PM 17.88 64.184 0.149 7.94 4.51 9.38
5/18/2021 7:45:00 PM 17.81 64.058 0.149 7.89 4.46 9.29
5/18/2021 8:00:00 PM 17.73 63.914 0.149 7.84 4.31 9.21
5/18/2021 8:15:00 PM 17.64 63.752 0.149 7.79 4.19 9.11
5/18/2021 8:30:00 PM 17.55 63.59 0.149 7.75 4.28 9.03
5/18/2021 8:45:00 PM 17.44 63.392 0.15 7.7 4.25 8.93
5/18/2021 9:00:00 PM 17.33 63.194 0.15 7.65 4.51 8.85
5/18/2021 9:15:00 PM 17.2 62.96 0.15 7.61 4.6 8.79
5/18/2021 9:30:00 PM 17.09 62.762 0.15 7.57 4.67 8.76
5/18/2021 9:45:00 PM 16.96 62.528 0.15 7.55 4.72 8.74
5/18/2021 10:00:00 PM 16.84 62.312 0.15 7.52 4.65 8.74
5/18/2021 10:15:00 PM 16.71 62.078 0.15 7.5 4.53 8.74
5/18/2021 10:30:00 PM 16.59 61.862 0.15 7.49 4.63 8.75
5/18/2021 10:45:00 PM 16.46 61.628 0.15 7.48 4.39 8.76
5/18/2021 11:00:00 PM 16.35 61.43 0.151 7.47 4.35 8.78
5/18/2021 11:15:00 PM 16.23 61.214 0.151 7.46 4.33 8.79
5/18/2021 11:30:00 PM 16.11 60.998 0.151 7.44 4.29 8.81
5/18/2021 11:45:00 PM 15.98 60.764 0.151 7.44 4.32 8.83
5/19/2021 12:00:00 AM 15.85 60.53 0.151 7.43 4.32 8.86
5/19/2021 12:15:00 AM 15.73 60.314 0.151 7.42 4.09 8.87
5/19/2021 12:30:00 AM 15.62 60.116 0.151 7.41 4.32 8.91
5/19/2021 12:45:00 AM 15.5 59.9 0.151 7.4 4.25 8.91
5/19/2021 1:00:00 AM 15.39 59.702 0.151 7.4 4.19 8.95
5/19/2021 1:15:00 AM 15.28 59.504 0.151 7.4 4.26 8.96
5/19/2021 1:30:00 AM 15.18 59.324 0.152 7.39 4.2 8.99
5/19/2021 1:45:00 AM 15.07 59.126 0.152 7.37 4.22 9.01
5/19/2021 2:00:00 AM 14.97 58.946 0.152 7.38 4.83 9.03
5/19/2021 2:15:00 AM 14.87 58.766 0.152 7.39 4.2 9.05
5/19/2021 2:30:00 AM 14.78 58.604 0.152 7.38 4.1 9.06
5/19/2021 2:45:00 AM 14.69 58.442 0.152 7.37 4.1 9.09
5/19/2021 3:00:00 AM 14.6 58.28 0.152 7.38 4.16 9.11
5/19/2021 3:15:00 AM 14.51 58.118 0.152 7.37 4.12 9.13
5/19/2021 3:30:00 AM 14.42 57.956 0.153 7.37 4.11 9.16
5/19/2021 3:45:00 AM 14.34 57.812 0.153 7.37 4.03 9.17
5/19/2021 4:00:00 AM 14.26 57.668 0.153 7.37 4.08 9.19
5/19/2021 4:15:00 AM 14.18 57.524 0.153 7.37 4.09 9.21
5/19/2021 4:30:00 AM 14.11 57.398 0.153 7.37 3.98 9.23
5/19/2021 4:45:00 AM 14.03 57.254 0.153 7.37 4.08 9.25
5/19/2021 5:00:00 AM 13.96 57.128 0.153 7.37 4.07 9.26
5/19/2021 5:15:00 AM 13.88 56.984 0.153 7.36 4.11 9.28
5/19/2021 5:30:00 AM 13.81 56.858 0.153 7.36 3.99 9.31
5/19/2021 5:45:00 AM 13.74 56.732 0.153 7.36 4.63 9.32
5/19/2021 6:00:00 AM 13.67 56.606 0.154 7.36 4.25 9.36
5/19/2021 6:15:00 AM 13.6 56.48 0.153 7.36 4.01 9.43
5/19/2021 6:30:00 AM 13.55 56.39 0.153 7.38 4.1 9.5
5/19/2021 6:45:00 AM 13.5 56.3 0.153 7.4 4.02 9.62
5/19/2021 7:00:00 AM 13.47 56.246 0.153 7.43 4.06 9.76
5/19/2021 7:15:00 AM 13.44 56.192 0.153 7.45 4.05 9.89
5/19/2021 7:30:00 AM 13.44 56.192 0.153 7.47 4.15 10.02
5/19/2021 7:45:00 AM 13.46 56.228 0.153 7.51 4.05 10.15
5/19/2021 8:00:00 AM 13.5 56.3 0.153 7.56 4.55 10.27
5/19/2021 8:15:00 AM 13.57 56.426 0.153 7.61 4.09 10.4
5/19/2021 8:30:00 AM 13.67 56.606 0.153 7.66 4.06 10.51
5/19/2021 8:45:00 AM 13.8 56.84 0.153 7.72 3.97 10.61
5/19/2021 9:00:00 AM 13.96 57.128 0.153 7.79 4.23 10.72
5/19/2021 9:15:00 AM 14.11 57.398 0.153 7.85 4.06 10.79
5/19/2021 9:30:00 AM 14.31 57.758 0.153 7.91 4.08 10.85
5/19/2021 9:45:00 AM 14.54 58.172 0.153 7.98 3.96 10.92
5/19/2021 10:00:00 AM 14.78 58.604 0.153 8.05 4.21 10.96
5/19/2021 10:15:00 AM 15.04 59.072 0.153 8.12 4.25 10.99
5/19/2021 10:30:00 AM 15.34 59.612 0.153 8.2 3.93 11.01
5/19/2021 10:45:00 AM 15.65 60.17 0.153 8.28 4.01 11.03
5/19/2021 11:00:00 AM 16 60.8 0.153 8.35 3.86 11.03
5/19/2021 11:15:00 AM 16.39 61.502 0.153 8.44 3.96 11.03
5/19/2021 11:30:00 AM 16.8 62.24 0.153 8.52 3.86 11.02
5/19/2021 11:45:00 AM 17.22 62.996 0.153 8.62 3.9 11
5/19/2021 12:00:00 PM 17.63 63.734 0.153 8.69 3.85 10.98
5/19/2021 12:15:00 PM 18.04 64.472 0.153 8.76 3.84 10.93
5/19/2021 12:30:00 PM 18.42 65.156 0.153 8.82 3.85 10.87
5/19/2021 12:45:00 PM 18.77 65.786 0.153 8.85 3.79 10.79
5/19/2021 1:00:00 PM 19.07 66.326 0.153 8.91 3.86 10.83
5/19/2021 1:15:00 PM 19.36 66.848 0.153 8.93 3.87 10.79
5/19/2021 1:30:00 PM 19.62 67.316 0.153 8.97 3.82 10.73
5/19/2021 1:45:00 PM 19.86 67.748 0.153 8.98 3.88 10.68
5/19/2021 2:00:00 PM 20.07 68.126 0.153 9.02 3.93 10.64
5/19/2021 2:15:00 PM 20.22 68.396 0.153 9.03 3.85 10.59
5/19/2021 2:30:00 PM 20.35 68.63 0.154 9.05 3.94 10.55
5/19/2021 2:45:00 PM 20.42 68.756 0.154 9.04 4.12 10.51
5/19/2021 3:00:00 PM 20.46 68.828 0.154 9.05 3.87 10.48
5/19/2021 3:15:00 PM 20.49 68.882 0.154 9.05 4.08 10.44
5/19/2021 3:30:00 PM 20.39 68.702 0.154 9.02 3.75 10.39
5/19/2021 3:45:00 PM 20.29 68.522 0.154 9 3.88 10.31
5/19/2021 4:00:00 PM 20.19 68.342 0.154 8.96 3.81 10.32
5/19/2021 4:15:00 PM 20.1 68.18 0.154 8.94 3.87 10.26
5/19/2021 4:30:00 PM 20.03 68.054 0.154 8.91 3.8 10.25
5/19/2021 4:45:00 PM 19.94 67.892 0.154 8.87 3.76 10.2
5/19/2021 5:00:00 PM 19.82 67.676 0.154 8.82 3.82 10.14
5/19/2021 5:15:00 PM 19.7 67.46 0.154 8.75 3.95 10.06
5/19/2021 5:30:00 PM 19.63 67.334 0.154 8.7 3.67 10.02
5/19/2021 5:45:00 PM 19.57 67.226 0.154 8.66 3.76 9.97
5/19/2021 6:00:00 PM 19.52 67.136 0.154 8.61 3.67 9.96
5/19/2021 6:15:00 PM 19.5 67.1 0.154 8.59 3.75 9.94
5/19/2021 6:30:00 PM 19.45 67.01 0.154 8.52 3.76 9.87
5/19/2021 6:45:00 PM 19.37 66.866 0.154 8.45 3.77 9.78
5/19/2021 7:00:00 PM 19.29 66.722 0.154 8.36 3.72 9.66
5/19/2021 7:15:00 PM 19.21 66.578 0.154 8.24 3.81 9.51
5/19/2021 7:30:00 PM 19.14 66.452 0.155 8.13 3.83 9.36
5/19/2021 7:45:00 PM 19.07 66.326 0.155 8.04 3.75 9.2
5/19/2021 8:00:00 PM 18.99 66.182 0.155 7.97 3.89 9.08
5/19/2021 8:15:00 PM 18.9 66.02 0.155 7.9 3.81 8.94
5/19/2021 8:30:00 PM 18.81 65.858 0.156 7.83 3.74 8.81
5/19/2021 8:45:00 PM 18.71 65.67799 0.156 7.77 3.85 8.68
5/19/2021 9:00:00 PM 18.61 65.498 0.156 7.72 3.89 8.58
5/19/2021 9:15:00 PM 18.5 65.3 0.156 7.69 3.74 8.5
5/19/2021 9:30:00 PM 18.4 65.12 0.156 7.65 3.76 8.44
5/19/2021 9:45:00 PM 18.29 64.922 0.156 7.62 3.77 8.42
5/19/2021 10:00:00 PM 18.19 64.742 0.157 7.6 3.88 8.4
5/19/2021 10:15:00 PM 18.08 64.544 0.157 7.58 3.79 8.39
5/19/2021 10:30:00 PM 17.97 64.346 0.157 7.56 3.49 8.39
5/19/2021 10:45:00 PM 17.86 64.148 0.157 7.55 3.66 8.39
5/19/2021 11:00:00 PM 17.74 63.932 0.157 7.53 3.46 8.41
5/19/2021 11:15:00 PM 17.62 63.716 0.157 7.5 3.46 8.42
5/19/2021 11:30:00 PM 17.51 63.518 0.157 7.51 3.44 8.44
5/19/2021 11:45:00 PM 17.38 63.284 0.157 7.49 3.5 8.46
5/20/2021 12:00:00 AM 17.26 63.068 0.157 7.47 3.42 8.48
5/20/2021 12:15:00 AM 17.14 62.852 0.157 7.48 3.61 8.5
5/20/2021 12:30:00 AM 17.02 62.636 0.157 7.47 3.56 8.53
5/20/2021 12:45:00 AM 16.9 62.42 0.157 7.46 3.45 8.52
5/20/2021 1:00:00 AM 16.78 62.204 0.158 7.45 3.49 8.57
5/20/2021 1:15:00 AM 16.67 62.006 0.158 7.44 3.46 8.6
5/20/2021 1:30:00 AM 16.56 61.808 0.158 7.44 3.44 8.59
5/20/2021 1:45:00 AM 16.44 61.592 0.158 7.43 3.44 8.63
5/20/2021 2:00:00 AM 16.33 61.394 0.158 7.42 3.6 8.64
5/20/2021 2:15:00 AM 16.22 61.196 0.158 7.42 3.48 8.68
5/20/2021 2:30:00 AM 16.11 60.998 0.158 7.41 3.5 8.71
5/20/2021 2:45:00 AM 16.01 60.818 0.158 7.42 3.57 8.74
5/20/2021 3:00:00 AM 15.91 60.638 0.159 7.41 3.48 8.76
5/20/2021 3:15:00 AM 15.81 60.458 0.159 7.4 3.6 8.78
5/20/2021 3:30:00 AM 15.72 60.296 0.159 7.4 3.52 8.78
5/20/2021 3:45:00 AM 15.64 60.152 0.159 7.4 3.5 8.83
5/20/2021 4:00:00 AM 15.56 60.008 0.159 7.4 3.4 8.84
5/20/2021 4:15:00 AM 15.49 59.882 0.159 7.4 3.47 8.87
5/20/2021 4:30:00 AM 15.42 59.756 0.159 7.4 3.47 8.87
5/20/2021 4:45:00 AM 15.35 59.63 0.159 7.4 3.54 8.89
5/20/2021 5:00:00 AM 15.29 59.522 0.159 7.4 3.66 8.92
5/20/2021 5:15:00 AM 15.22 59.396 0.16 7.4 3.71 8.94
5/20/2021 5:30:00 AM 15.15 59.27 0.16 7.39 3.6 8.95
5/20/2021 5:45:00 AM 15.08 59.144 0.16 7.4 3.74 8.97
5/20/2021 6:00:00 AM 15.02 59.036 0.16 7.39 3.58 9
5/20/2021 6:15:00 AM 14.95 58.91 0.16 7.4 3.67 9.05
5/20/2021 6:30:00 AM 14.9 58.82 0.16 7.41 3.65 9.14
5/20/2021 6:45:00 AM 14.87 58.766 0.16 7.42 3.65 9.27
5/20/2021 7:00:00 AM 14.86 58.748 0.16 7.46 3.73 9.46
5/20/2021 7:15:00 AM 14.86 58.748 0.16 7.5 3.73 9.65
5/20/2021 7:30:00 AM 14.87 58.766 0.16 7.54 3.72 9.85
5/20/2021 7:45:00 AM 14.89 58.802 0.16 7.59 3.79 10.05
5/20/2021 8:00:00 AM 14.97 58.946 0.16 7.65 3.94 10.22
5/20/2021 8:15:00 AM 15.03 59.054 0.16 7.72 3.95 10.41
5/20/2021 8:30:00 AM 15.19 59.342 0.159 7.81 3.99 10.58
5/20/2021 8:45:00 AM 15.3 59.54 0.159 7.9 3.99 10.71
5/20/2021 9:00:00 AM 15.47 59.846 0.159 8 3.89 10.85
5/20/2021 9:15:00 AM 15.56 60.008 0.159 8.08 4 10.92
5/20/2021 9:30:00 AM 15.75 60.35 0.159 8.2 4.04 11.03
5/20/2021 9:45:00 AM 15.95 60.71 0.159 8.3 5.52 11.06
5/20/2021 10:00:00 AM 16.16 61.088 0.159 8.39 4.32 11.1
5/20/2021 10:15:00 AM 16.39 61.502 0.159 8.48 4.05 11.09
5/20/2021 10:30:00 AM 16.69 62.042 0.159 8.57 4 11.09
5/20/2021 10:45:00 AM 17 62.6 0.159 8.66 4.23 11.12
5/20/2021 11:00:00 AM 17.34 63.212 0.159 8.75 3.95 11.11
5/20/2021 11:15:00 AM 17.74 63.932 0.159 8.81 3.89 11.11
5/20/2021 11:30:00 AM 18.13 64.634 0.159 8.88 3.93 11.1
5/20/2021 11:45:00 AM 18.55 65.39 0.159 8.96 3.81 11.06
5/20/2021 12:00:00 PM 19.02 66.236 0.159 9.03 3.82 11.05
5/20/2021 12:15:00 PM 19.42 66.956 0.159 9.09 3.85 11.01
5/20/2021 12:30:00 PM 19.86 67.748 0.159 9.14 3.66 10.91
5/20/2021 12:45:00 PM 20 68 0.159 9.14 3.65 10.84
5/20/2021 1:00:00 PM 20.33 68.594 0.159 9.16 3.6 10.8
5/20/2021 1:15:00 PM 20.5 68.9 0.159 9.18 3.48 10.69
5/20/2021 1:30:00 PM 20.74 69.332 0.159 9.18 3.45 10.62
5/20/2021 1:45:00 PM 21.1 69.98 0.159 9.22 3.51 10.61
5/20/2021 2:00:00 PM 21.47 70.646 0.159 9.28 3.38 10.6
5/20/2021 2:15:00 PM 21.66 70.988 0.16 9.32 3.36 10.56
5/20/2021 2:30:00 PM 21.7 71.06 0.16 9.31 3.29 10.47
5/20/2021 2:45:00 PM 21.59 70.862 0.16 9.27 3.42 10.39
5/20/2021 3:00:00 PM 21.32 70.376 0.16 9.2 3.39 10.32
5/20/2021 3:15:00 PM 21.18 70.124 0.16 9.14 3.31 10.3
5/20/2021 3:30:00 PM 21.16 70.088 0.16 9.12 3.24 10.33
5/20/2021 3:45:00 PM 21.19 70.142 0.16 9.11 3.22 10.33
5/20/2021 4:00:00 PM 21.19 70.142 0.16 9.1 3.33 10.37
5/20/2021 4:15:00 PM 21.11 69.998 0.16 9.12 3.21 10.35
5/20/2021 4:30:00 PM 20.93 69.674 0.16 9.05 3.27 10.26
5/20/2021 4:45:00 PM 20.81 69.458 0.16 9.01 3.39 10.21
5/20/2021 5:00:00 PM 20.71 69.278 0.16 8.95 3.29 10.12
5/20/2021 5:15:00 PM 20.61 69.098 0.16 8.89 3.27 10.06
5/20/2021 5:30:00 PM 20.49 68.882 0.16 8.82 3.21 10.01
5/20/2021 5:45:00 PM 20.37 68.666 0.161 8.74 3.27 9.91
5/20/2021 6:00:00 PM 20.26 68.468 0.161 8.67 3.36 9.85
5/20/2021 6:15:00 PM 20.16 68.288 0.161 8.59 3.42 9.76
5/20/2021 6:30:00 PM 20.08 68.144 0.161 8.5 3.45 9.68
5/20/2021 6:45:00 PM 20 68 0.161 8.42 3.53 9.59
5/20/2021 7:00:00 PM 19.93 67.874 0.161 8.34 3.64 9.51
5/20/2021 7:15:00 PM 19.86 67.748 0.161 8.26 3.59 9.4
5/20/2021 7:30:00 PM 19.79 67.622 0.161 8.18 3.7 9.29
5/20/2021 7:45:00 PM 19.71 67.478 0.162 8.09 3.56 9.18
5/20/2021 8:00:00 PM 19.62 67.316 0.162 8.02 3.68 9.05
5/20/2021 8:15:00 PM 19.54 67.172 0.162 7.95 3.62 8.91
5/20/2021 8:30:00 PM 19.45 67.01 0.162 7.88 3.59 8.77
5/20/2021 8:45:00 PM 19.36 66.848 0.163 7.81 3.67 8.62
5/20/2021 9:00:00 PM 19.27 66.686 0.163 7.76 3.58 8.49
5/20/2021 9:15:00 PM 19.17 66.506 0.163 7.7 3.52 8.38
5/20/2021 9:30:00 PM 19.06 66.308 0.163 7.66 3.5 8.3
5/20/2021 9:45:00 PM 18.95 66.11 0.163 7.63 3.44 8.24
5/20/2021 10:00:00 PM 18.84 65.912 0.164 7.59 3.44 8.2
5/20/2021 10:15:00 PM 18.73 65.714 0.164 7.58 3.34 8.18
5/20/2021 10:30:00 PM 18.63 65.534 0.164 7.55 3.37 8.18
5/20/2021 10:45:00 PM 18.52 65.336 0.164 7.54 3.42 8.16
5/20/2021 11:00:00 PM 18.42 65.156 0.164 7.52 3.27 8.16
5/20/2021 11:15:00 PM 18.32 64.976 0.164 7.51 3.37 8.2
5/20/2021 11:30:00 PM 18.22 64.796 0.164 7.5 3.59 8.2
5/20/2021 11:45:00 PM 18.13 64.634 0.164 7.49 3.4 8.22
5/21/2021 12:00:00 AM 18.04 64.472 0.164 7.49 3.48 8.22
5/21/2021 12:15:00 AM 17.95 64.31 0.164 7.47 3.54 8.24
5/21/2021 12:30:00 AM 17.87 64.166 0.164 7.47 3.52 8.24
5/21/2021 12:45:00 AM 17.78 64.004 0.164 7.47 3.49 8.27
5/21/2021 1:00:00 AM 17.7 63.86 0.164 7.46 3.46 8.29
5/21/2021 1:15:00 AM 17.61 63.698 0.164 7.45 3.36 8.3
5/21/2021 1:30:00 AM 17.52 63.536 0.164 7.45 3.48 8.32
5/21/2021 1:45:00 AM 17.44 63.392 0.164 7.44 3.27 8.34
5/21/2021 2:00:00 AM 17.36 63.248 0.165 7.44 3.59 8.34
5/21/2021 2:15:00 AM 17.28 63.104 0.165 7.43 3.37 8.37
5/21/2021 2:30:00 AM 17.2 62.96 0.165 7.43 3.43 8.38
5/21/2021 2:45:00 AM 17.13 62.834 0.165 7.43 3.49 8.4
5/21/2021 3:00:00 AM 17.06 62.708 0.165 7.41 3.44 8.41
5/21/2021 3:15:00 AM 17 62.6 0.165 7.42 3.46 8.44
5/21/2021 3:30:00 AM 16.93 62.474 0.165 7.42 3.44 8.45
5/21/2021 3:45:00 AM 16.87 62.366 0.165 7.42 3.45 8.46
5/21/2021 4:00:00 AM 16.81 62.258 0.165 7.41 3.34 8.49
5/21/2021 4:15:00 AM 16.75 62.15 0.165 7.41 3.63 8.5
5/21/2021 4:30:00 AM 16.68 62.024 0.165 7.41 3.49 8.51
5/21/2021 4:45:00 AM 16.62 61.916 0.165 7.41 3.32 8.53
5/21/2021 5:00:00 AM 16.55 61.79 0.166 7.4 3.26 8.54
5/21/2021 5:15:00 AM 16.48 61.664 0.166 7.4 3.38 8.56
5/21/2021 5:30:00 AM 16.41 61.538 0.166 7.39 3.4 8.51
5/21/2021 5:45:00 AM 16.33 61.394 0.166 7.39 3.41 8.6
5/21/2021 6:00:00 AM 16.26 61.268 0.166 7.38 3.46 8.63
5/21/2021 6:15:00 AM 16.18 61.124 0.166 7.38 3.4 8.69
5/21/2021 6:30:00 AM 16.11 60.998 0.166 7.4 3.39 8.79
5/21/2021 6:45:00 AM 16.05 60.89 0.166 7.41 3.28 8.92
5/21/2021 7:00:00 AM 16 60.8 0.166 7.44 3.32 9.08
5/21/2021 7:15:00 AM 15.97 60.746 0.166 7.47 3.29 9.25
5/21/2021 7:30:00 AM 15.96 60.728 0.166 7.5 3.31 9.42
5/21/2021 7:45:00 AM 15.97 60.746 0.166 7.54 3.32 9.59
5/21/2021 8:00:00 AM 16 60.8 0.166 7.59 3.3 9.76
5/21/2021 8:15:00 AM 16.06 60.908 0.166 7.64 3.4 9.91
5/21/2021 8:30:00 AM 16.16 61.088 0.165 7.71 3.29 10.07
5/21/2021 8:45:00 AM 16.28 61.304 0.165 7.79 3.3 10.2
5/21/2021 9:00:00 AM 16.42 61.556 0.165 7.86 3.4 10.34
5/21/2021 9:15:00 AM 16.57 61.826 0.165 7.94 3.39 10.44
5/21/2021 9:30:00 AM 16.76 62.168 0.165 8.02 3.25 10.55
5/21/2021 9:45:00 AM 16.98 62.564 0.165 8.14 3.25 10.66
5/21/2021 10:00:00 AM 17.23 63.014 0.165 8.23 3.23 10.75
5/21/2021 10:15:00 AM 17.5 63.5 0.164 8.39 3.22 10.81
5/21/2021 10:30:00 AM 17.79 64.022 0.165 8.51 3.25 10.86
5/21/2021 10:45:00 AM 18.1 64.58 0.164 8.61 3.16 10.9
5/21/2021 11:00:00 AM 18.42 65.156 0.165 8.71 3.22 10.93
5/21/2021 11:15:00 AM 18.76 65.768 0.165 8.79 3.17 10.96
5/21/2021 11:30:00 AM 19.15 66.47 0.165 8.88 3.12 10.96
5/21/2021 11:45:00 AM 19.57 67.226 0.165 8.98 3.23 10.96
5/21/2021 12:00:00 PM 20.01 68.018 0.165 9.06 3.19 10.94
5/21/2021 12:15:00 PM 20.44 68.792 0.165 9.16 3.17 10.92
5/21/2021 12:30:00 PM 20.86 69.548 0.165 9.21 3.25 10.91
5/21/2021 12:45:00 PM 21.27 70.286 0.165 9.27 3.2 10.86
5/21/2021 1:00:00 PM 21.63 70.934 0.165 9.31 3.31 10.88
5/21/2021 1:15:00 PM 21.98 71.564 0.165 9.36 3.11 10.79
5/21/2021 1:30:00 PM 22.28 72.104 0.166 9.39 3.06 10.73
5/21/2021 1:45:00 PM 22.55 72.59 0.166 9.43 3.1 10.69
5/21/2021 2:00:00 PM 22.73 72.914 0.166 9.43 3.27 10.63
5/21/2021 2:15:00 PM 22.89 73.202 0.166 9.44 3.05 10.56
5/21/2021 2:30:00 PM 22.93 73.274 0.166 9.43 3.09 10.47
5/21/2021 2:45:00 PM 22.91 73.238 0.166 9.39 3.07 10.42
5/21/2021 3:00:00 PM 22.78 73.004 0.166 9.36 3.08 10.29
5/21/2021 3:15:00 PM 22.67 72.806 0.166 9.32 2.97 10.2
5/21/2021 3:30:00 PM 22.62 72.716 0.166 9.28 3.02 10.16
5/21/2021 3:45:00 PM 22.43 72.374 0.166 9.22 3.09 10.06
5/21/2021 4:00:00 PM 22.25 72.05 0.166 9.15 3.12 10
5/21/2021 4:15:00 PM 22.18 71.924 0.166 9.12 3.07 9.96
5/21/2021 4:30:00 PM 22.15 71.87 0.166 9.11 2.97 9.99
5/21/2021 4:45:00 PM 22.07 71.726 0.166 9.07 3.1 9.92
5/21/2021 5:00:00 PM 22.04 71.672 0.166 9.06 3.05 9.92
5/21/2021 5:15:00 PM 21.96 71.528 0.166 9.05 3.02 9.95
5/21/2021 5:30:00 PM 21.87 71.366 0.166 9.03 3.12 9.91
5/21/2021 5:45:00 PM 21.76 71.168 0.166 8.98 3.02 9.85
5/21/2021 6:00:00 PM 21.63 70.934 0.166 8.91 3.24 9.79
5/21/2021 6:15:00 PM 21.5 70.7 0.166 8.85 3.18 9.73
5/21/2021 6:30:00 PM 21.38 70.484 0.166 8.78 3.31 9.65
5/21/2021 6:45:00 PM 21.27 70.286 0.166 8.7 3.14 9.58
5/21/2021 7:00:00 PM 21.16 70.088 0.167 8.59 3.25 9.47
5/21/2021 7:15:00 PM 21.04 69.872 0.167 8.48 3.01 9.34
5/21/2021 7:30:00 PM 20.92 69.656 0.167 8.35 3.15 9.2
5/21/2021 7:45:00 PM 20.79 69.422 0.167 8.22 3.04 9.04
5/21/2021 8:00:00 PM 20.65 69.17 0.167 8.09 3.13 8.86
5/21/2021 8:15:00 PM 20.54 68.972 0.168 7.99 3.06 8.71
5/21/2021 8:30:00 PM 20.44 68.792 0.168 7.91 3.11 8.55
5/21/2021 8:45:00 PM 20.33 68.594 0.168 7.84 3.15 8.4
5/21/2021 9:00:00 PM 20.23 68.414 0.169 7.78 3.19 8.25
5/21/2021 9:15:00 PM 20.13 68.234 0.169 7.73 3.16 8.14
5/21/2021 9:30:00 PM 20.03 68.054 0.169 7.69 3.16 8.04
5/21/2021 9:45:00 PM 19.93 67.874 0.169 7.65 3.1 7.98
5/21/2021 10:00:00 PM 19.82 67.676 0.17 7.63 3.12 7.91
5/21/2021 10:15:00 PM 19.73 67.514 0.17 7.6 3.1 7.89
5/21/2021 10:30:00 PM 19.63 67.334 0.17 7.59 3.15 7.88
5/21/2021 10:45:00 PM 19.52 67.136 0.17 7.55 3.17 7.87
5/21/2021 11:00:00 PM 19.43 66.974 0.17 7.55 3.14 7.87
5/21/2021 11:15:00 PM 19.34 66.812 0.17 7.54 3.16 7.88
5/21/2021 11:30:00 PM 19.26 66.668 0.17 7.52 3.12 7.87
5/21/2021 11:45:00 PM 19.19 66.542 0.17 7.52 3.14 7.88
5/22/2021 12:00:00 AM 19.12 66.416 0.171 7.52 3.18 7.89
5/22/2021 12:15:00 AM 19.05 66.29 0.171 7.52 3.08 7.88
5/22/2021 12:30:00 AM 18.97 66.146 0.171 7.51 3.16 7.89
5/22/2021 12:45:00 AM 18.89 66.002 0.171 7.51 3.28 7.9
5/22/2021 1:00:00 AM 18.82 65.876 0.171 7.5 3.3 7.92
5/22/2021 1:15:00 AM 18.75 65.75 0.171 7.49 3.18 7.93
5/22/2021 1:30:00 AM 18.67 65.606 0.171 7.49 3.16 7.94
5/22/2021 1:45:00 AM 18.6 65.48 0.171 7.48 3.13 7.95
5/22/2021 2:00:00 AM 18.52 65.336 0.172 7.45 3.33 7.96
5/22/2021 2:15:00 AM 18.45 65.21 0.172 7.47 3.35 7.97
5/22/2021 2:30:00 AM 18.37 65.066 0.172 7.47 3.43 7.99
5/22/2021 2:45:00 AM 18.3 64.94 0.172 7.46 3.3 8
5/22/2021 3:00:00 AM 18.23 64.814 0.172 7.45 3.28 8.02
5/22/2021 3:15:00 AM 18.15 64.67 0.172 7.45 3.35 8.03
5/22/2021 3:30:00 AM 18.08 64.544 0.172 7.44 3.25 8.04
5/22/2021 3:45:00 AM 18 64.4 0.172 7.42 3.2 8.07
5/22/2021 4:00:00 AM 17.93 64.274 0.172 7.44 3.17 8.08
5/22/2021 4:15:00 AM 17.86 64.148 0.172 7.43 3.23 8.1
5/22/2021 4:30:00 AM 17.78 64.004 0.172 7.42 3.2 8.12
5/22/2021 4:45:00 AM 17.71 63.878 0.173 7.42 3.32 8.14
5/22/2021 5:00:00 AM 17.64 63.752 0.173 7.42 3.23 8.15
5/22/2021 5:15:00 AM 17.57 63.626 0.173 7.41 3.27 8.14
5/22/2021 5:30:00 AM 17.5 63.5 0.173 7.41 4.61 8.17
5/22/2021 5:45:00 AM 17.42 63.356 0.173 7.41 4.03 8.19
5/22/2021 6:00:00 AM 17.34 63.212 0.173 7.41 3.79 8.22
5/22/2021 6:15:00 AM 17.27 63.086 0.173 7.4 4.44 8.28
5/22/2021 6:30:00 AM 17.21 62.978 0.173 7.43 3.47 8.39
5/22/2021 6:45:00 AM 17.17 62.906 0.173 7.44 3.19 8.52
5/22/2021 7:00:00 AM 17.13 62.834 0.173 7.46 3.22 8.65
5/22/2021 7:15:00 AM 17.09 62.762 0.173 7.5 3.15 8.85
5/22/2021 7:30:00 AM 17.07 62.726 0.173 7.53 3.18 9.05
5/22/2021 7:45:00 AM 17.06 62.708 0.172 7.58 3.2 9.27
5/22/2021 8:00:00 AM 17.07 62.726 0.172 7.63 3.21 9.5
5/22/2021 8:15:00 AM 17.14 62.852 0.172 7.7 3.47 9.7
5/22/2021 8:30:00 AM 17.21 62.978 0.172 7.78 3.36 9.92
5/22/2021 8:45:00 AM 17.27 63.086 0.172 7.86 3.34 10.09
5/22/2021 9:00:00 AM 17.33 63.194 0.171 7.95 3.24 10.28
5/22/2021 9:15:00 AM 17.47 63.446 0.171 8.07 3.3 10.45
5/22/2021 9:30:00 AM 17.69 63.842 0.171 8.23 3.29 10.6
5/22/2021 9:45:00 AM 17.83 64.094 0.171 8.36 3.25 10.71
5/22/2021 10:00:00 AM 18.04 64.472 0.171 8.49 3.15 10.81
5/22/2021 10:15:00 AM 18.27 64.886 0.171 8.63 3.19 10.91
5/22/2021 10:30:00 AM 18.34 65.012 0.171 8.73 3.18 10.97
5/22/2021 10:45:00 AM 18.49 65.282 0.171 8.8 3.07 11.02
5/22/2021 11:00:00 AM 18.66 65.588 0.17 8.91 3.11 11.08
5/22/2021 11:15:00 AM 18.82 65.876 0.17 9 3.17 11.12
5/22/2021 11:30:00 AM 19.02 66.236 0.171 9.07 3.4 11.15
5/22/2021 11:45:00 AM 19.22 66.596 0.171 9.14 3.07 11.18
5/22/2021 12:00:00 PM 19.41 66.938 0.17 9.2 3.13 11.2
5/22/2021 12:15:00 PM 19.65 67.37 0.171 9.26 3.05 11.21
5/22/2021 12:30:00 PM 19.85 67.73 0.171 9.31 3.14 11.23
5/22/2021 12:45:00 PM 20.01 68.018 0.171 9.36 3.09 11.23
5/22/2021 1:00:00 PM 20.18 68.324 0.171 9.4 3.09 11.24
5/22/2021 1:15:00 PM 20.33 68.594 0.171 9.43 3.08 11.21
5/22/2021 1:30:00 PM 20.56 69.008 0.171 9.46 3.19 11.21
5/22/2021 1:45:00 PM 20.71 69.278 0.171 9.5 3.02 11.17
5/22/2021 2:00:00 PM 20.78 69.404 0.171 9.5 3.06 11.12
5/22/2021 2:15:00 PM 20.89 69.602 0.171 9.5 3.08 11.07
5/22/2021 2:30:00 PM 21.08 69.944 0.171 9.52 3.11 11.07
5/22/2021 2:45:00 PM 21.21 70.17799 0.171 9.52 3.12 11.01
5/22/2021 3:00:00 PM 21.27 70.286 0.171 9.53 3.07 10.97
5/22/2021 3:15:00 PM 21.28 70.304 0.171 9.52 2.93 10.91
5/22/2021 3:30:00 PM 21.27 70.286 0.172 9.51 3.14 10.87
5/22/2021 3:45:00 PM 21.27 70.286 0.172 9.5 3.06 10.82
5/22/2021 4:00:00 PM 21.28 70.304 0.172 9.49 3.1 10.77
5/22/2021 4:15:00 PM 21.27 70.286 0.172 9.47 3.02 10.7
5/22/2021 4:30:00 PM 21.21 70.17799 0.172 9.44 2.94 10.64
5/22/2021 4:45:00 PM 21.15 70.07 0.172 9.41 3.06 10.57
5/22/2021 5:00:00 PM 21.18 70.124 0.172 9.4 3.01 10.57
5/22/2021 5:15:00 PM 21.19 70.142 0.172 9.39 3.06 10.52
5/22/2021 5:30:00 PM 21.13 70.034 0.172 9.35 3 10.4
5/22/2021 5:45:00 PM 21.07 69.926 0.172 9.33 3.06 10.36
5/22/2021 6:00:00 PM 20.98 69.764 0.172 9.29 2.95 10.29
5/22/2021 6:15:00 PM 20.88 69.584 0.172 9.22 3.04 10.14
5/22/2021 6:30:00 PM 20.8 69.44 0.172 9.15 3.04 10.03
5/22/2021 6:45:00 PM 20.73 69.314 0.172 9.08 3.09 9.91
5/22/2021 7:00:00 PM 20.64 69.152 0.172 8.99 3.05 9.8
5/22/2021 7:15:00 PM 20.57 69.026 0.173 8.88 3.13 9.68
5/22/2021 7:30:00 PM 20.49 68.882 0.173 8.79 3 9.53
5/22/2021 7:45:00 PM 20.4 68.72 0.173 8.62 2.95 9.33
5/22/2021 8:00:00 PM 20.32 68.576 0.173 8.46 3.1 9.15
5/22/2021 8:15:00 PM 20.24 68.432 0.174 8.28 2.97 8.91
5/22/2021 8:30:00 PM 20.16 68.288 0.174 8.11 2.97 8.68
5/22/2021 8:45:00 PM 20.08 68.144 0.174 7.98 3.05 8.47
5/22/2021 9:00:00 PM 20 68 0.175 7.88 2.95 8.28
5/22/2021 9:15:00 PM 19.93 67.874 0.175 7.81 2.97 8.13
5/22/2021 9:30:00 PM 19.87 67.766 0.175 7.76 3.04 8.01
5/22/2021 9:45:00 PM 19.8 67.64 0.175 7.72 3.01 7.91
5/22/2021 10:00:00 PM 19.73 67.514 0.176 7.69 2.93 7.85
5/22/2021 10:15:00 PM 19.67 67.406 0.176 7.66 3.11 7.81
5/22/2021 10:30:00 PM 19.61 67.298 0.176 7.64 3 7.78
5/22/2021 10:45:00 PM 19.55 67.19 0.176 7.63 3.07 7.77
5/22/2021 11:00:00 PM 19.5 67.1 0.176 7.61 3.07 7.75
5/22/2021 11:15:00 PM 19.46 67.028 0.176 7.61 3.39 7.74
5/22/2021 11:30:00 PM 19.42 66.956 0.176 7.6 3.05 7.73
5/22/2021 11:45:00 PM 19.37 66.866 0.176 7.59 3.09 7.73
5/23/2021 12:00:00 AM 19.34 66.812 0.176 7.59 3.25 7.73
5/23/2021 12:15:00 AM 19.29 66.722 0.176 7.58 3.09 7.73
5/23/2021 12:30:00 AM 19.25 66.65 0.176 7.58 3.06 7.73
5/23/2021 12:45:00 AM 19.21 66.578 0.176 7.56 3.42 7.73
5/23/2021 1:00:00 AM 19.18 66.524 0.176 7.56 3.1 7.73
5/23/2021 1:15:00 AM 19.14 66.452 0.176 7.55 3.09 7.73
5/23/2021 1:30:00 AM 19.1 66.38 0.176 7.53 3.24 7.74
5/23/2021 1:45:00 AM 19.05 66.29 0.176 7.54 3.25 7.72
5/23/2021 2:00:00 AM 19.01 66.218 0.176 7.53 3.52 7.73
5/23/2021 2:15:00 AM 18.96 66.128 0.176 7.53 3.34 7.74
5/23/2021 2:30:00 AM 18.92 66.056 0.176 7.52 3.32 7.74
5/23/2021 2:45:00 AM 18.88 65.984 0.176 7.51 3.17 7.75
5/23/2021 3:00:00 AM 18.83 65.894 0.176 7.5 3.28 7.75
5/23/2021 3:15:00 AM 18.78 65.804 0.176 7.5 3.19 7.76
5/23/2021 3:30:00 AM 18.73 65.714 0.177 7.5 3.14 7.78
5/23/2021 3:45:00 AM 18.67 65.606 0.177 7.49 3.3 7.77
5/23/2021 4:00:00 AM 18.61 65.498 0.177 7.48 3.14 7.79
5/23/2021 4:15:00 AM 18.56 65.408 0.177 7.48 3.2 7.8
5/23/2021 4:30:00 AM 18.5 65.3 0.177 7.47 3.09 7.81
5/23/2021 4:45:00 AM 18.46 65.228 0.177 7.47 3.2 7.82
5/23/2021 5:00:00 AM 18.42 65.156 0.177 7.46 3.13 7.83
5/23/2021 5:15:00 AM 18.38 65.084 0.177 7.46 3.21 7.82
5/23/2021 5:30:00 AM 18.33 64.994 0.177 7.47 3.6 7.85
5/23/2021 5:45:00 AM 18.29 64.922 0.178 7.46 3.61 7.86
5/23/2021 6:00:00 AM 18.25 64.85 0.178 7.46 3.37 7.86
5/23/2021 6:15:00 AM 18.22 64.796 0.178 7.47 3.31 7.89
5/23/2021 6:30:00 AM 18.19 64.742 0.178 7.47 3.16 7.93
5/23/2021 6:45:00 AM 18.16 64.688 0.178 7.48 3.31 8
5/23/2021 7:00:00 AM 18.14 64.652 0.178 7.5 3.13 8.12
5/23/2021 7:15:00 AM 18.14 64.652 0.178 7.53 3.22 8.3
5/23/2021 7:30:00 AM 18.15 64.67 0.178 7.57 3.1 8.52
5/23/2021 7:45:00 AM 18.17 64.706 0.178 7.61 3.16 8.72
5/23/2021 8:00:00 AM 18.21 64.778 0.177 7.66 3.17 9
5/23/2021 8:15:00 AM 18.28 64.904 0.177 7.75 3.21 9.22
5/23/2021 8:30:00 AM 18.37 65.066 0.177 7.81 3.34 9.44
5/23/2021 8:45:00 AM 18.43 65.174 0.177 7.87 3.35 9.59
5/23/2021 9:00:00 AM 18.53 65.354 0.177 7.96 3.27 9.75
5/23/2021 9:15:00 AM 18.65 65.57 0.177 8.04 3.23 9.89
5/23/2021 9:30:00 AM 18.82 65.876 0.177 8.14 3.24 10.05
5/23/2021 9:45:00 AM 18.97 66.146 0.177 8.26 3.26 10.19
5/23/2021 10:00:00 AM 19.2 66.56 0.177 8.4 3.23 10.31
5/23/2021 10:15:00 AM 19.48 67.064 0.176 8.56 3.17 10.45
5/23/2021 10:30:00 AM 19.64 67.352 0.177 8.68 3.23 10.55
5/23/2021 10:45:00 AM 19.8 67.64 0.177 8.78 3.24 10.59
5/23/2021 11:00:00 AM 20.08 68.144 0.176 8.89 3.21 10.66
5/23/2021 11:15:00 AM 20.3 68.54 0.176 8.99 3.25 10.7
5/23/2021 11:30:00 AM 20.34 68.612 0.176 9.05 3.13 10.71
5/23/2021 11:45:00 AM 20.39 68.702 0.176 9.08 3.16 10.69
5/23/2021 12:00:00 PM 20.63 69.134 0.176 9.15 3.11 10.73
5/23/2021 12:15:00 PM 20.94 69.692 0.177 9.22 3.02 10.75
5/23/2021 12:30:00 PM 21.17 70.106 0.176 9.28 3.14 10.7
5/23/2021 12:45:00 PM 21.25 70.25 0.177 9.29 3.02 10.63
5/23/2021 1:00:00 PM 21.34 70.412 0.177 9.3 3.12 10.6
5/23/2021 1:15:00 PM 21.45 70.61 0.177 9.33 2.98 10.57
5/23/2021 1:30:00 PM 21.58 70.844 0.177 9.36 3.05 10.55
5/23/2021 1:45:00 PM 21.67 71.006 0.177 9.36 3.11 10.46
5/23/2021 2:00:00 PM 21.73 71.114 0.177 9.35 3 10.43
5/23/2021 2:15:00 PM 21.78 71.204 0.177 9.35 3.11 10.4
5/23/2021 2:30:00 PM 21.84 71.312 0.178 9.35 2.95 10.4
5/23/2021 2:45:00 PM 22.01 71.618 0.178 9.37 2.92 10.42
5/23/2021 3:00:00 PM 22.06 71.708 0.178 9.38 2.93 10.41
5/23/2021 3:15:00 PM 22.05 71.69 0.178 9.39 2.95 10.41
5/23/2021 3:30:00 PM 22.1 71.78 0.178 9.39 3.61 10.46
5/23/2021 3:45:00 PM 22.09 71.762 0.178 9.42 3.59 10.43
5/23/2021 4:00:00 PM 22.06 71.708 0.178 9.4 4.07 10.35
5/23/2021 4:15:00 PM 22.01 71.618 0.178 9.38 3.91 10.31
5/23/2021 4:30:00 PM 21.96 71.528 0.178 9.36 3.27 10.28
5/23/2021 4:45:00 PM 21.83 71.294 0.178 9.33 3.33 10.14
5/23/2021 5:00:00 PM 21.73 71.114 0.178 9.28 3.04 10.02
5/23/2021 5:15:00 PM 21.64 70.952 0.178 9.23 3.3 9.96
5/23/2021 5:30:00 PM 21.49 70.682 0.179 9.15 3.14 9.82
5/23/2021 5:45:00 PM 21.32 70.376 0.178 9.03 3.12 9.65
5/23/2021 6:00:00 PM 21.17 70.106 0.179 8.93 3.06 9.56
5/23/2021 6:15:00 PM 20.99 69.782 0.179 8.83 2.99 9.47
5/23/2021 6:30:00 PM 20.82 69.476 0.179 8.68 3.13 9.29
5/23/2021 6:45:00 PM 20.63 69.134 0.179 8.51 3.02 9.1
5/23/2021 7:00:00 PM 20.48 68.864 0.18 8.37 2.94 9.02
5/23/2021 7:15:00 PM 20.34 68.612 0.18 8.27 3.05 8.97
5/23/2021 7:30:00 PM 20.19 68.342 0.18 8.15 3.1 8.85
5/23/2021 7:45:00 PM 20.02 68.036 0.18 8.06 3.09 8.76
5/23/2021 8:00:00 PM 19.87 67.766 0.18 7.97 3 8.71
5/23/2021 8:15:00 PM 19.73 67.514 0.181 7.92 2.96 8.64
5/23/2021 8:30:00 PM 19.58 67.244 0.181 7.86 2.97 8.58
5/23/2021 8:45:00 PM 19.46 67.028 0.181 7.81 3.17 8.47
5/23/2021 9:00:00 PM 19.31 66.758 0.181 7.76 3.07 8.36
5/23/2021 9:15:00 PM 19.16 66.488 0.181 7.71 3.1 8.24
5/23/2021 9:30:00 PM 19.04 66.272 0.182 7.66 3.08 8.14
5/23/2021 9:45:00 PM 18.9 66.02 0.182 7.62 3.43 8.04
5/23/2021 10:00:00 PM 18.79 65.82201 0.182 7.59 3.16 7.98
5/23/2021 10:15:00 PM 18.66 65.588 0.182 7.57 3.19 7.94
5/23/2021 10:30:00 PM 18.55 65.39 0.182 7.53 3.2 7.91
5/23/2021 10:45:00 PM 18.42 65.156 0.182 7.53 3.26 7.88
5/23/2021 11:00:00 PM 18.31 64.958 0.182 7.51 3.19 7.9
5/23/2021 11:15:00 PM 18.21 64.778 0.182 7.5 3.09 7.89
5/23/2021 11:30:00 PM 18.09 64.562 0.182 7.48 3.27 7.9
5/23/2021 11:45:00 PM 17.98 64.364 0.182 7.48 3.22 7.92
5/24/2021 12:00:00 AM 17.88 64.184 0.182 7.47 3.26 7.93
5/24/2021 12:15:00 AM 17.78 64.004 0.182 7.46 3.09 7.94
5/24/2021 12:30:00 AM 17.67 63.806 0.182 7.46 3.22 7.96
5/24/2021 12:45:00 AM 17.58 63.644 0.182 7.44 3.18 7.98
5/24/2021 1:00:00 AM 17.48 63.464 0.182 7.44 3.32 7.99
5/24/2021 1:15:00 AM 17.4 63.32 0.182 7.44 3.25 8
5/24/2021 1:30:00 AM 17.29 63.122 0.182 7.43 3.19 8.03
5/24/2021 1:45:00 AM 17.21 62.978 0.182 7.42 3.21 8.04
5/24/2021 2:00:00 AM 17.11 62.798 0.182 7.42 3.19 8.06
5/24/2021 2:15:00 AM 17.02 62.636 0.182 7.41 3.23 8.08
5/24/2021 2:30:00 AM 16.93 62.474 0.182 7.39 3.23 8.1
5/24/2021 2:45:00 AM 16.84 62.312 0.182 7.41 3.24 8.12
5/24/2021 3:00:00 AM 16.74 62.132 0.182 7.4 3.27 8.14
5/24/2021 3:15:00 AM 16.65 61.97 0.182 7.39 3.39 8.16
5/24/2021 3:30:00 AM 16.57 61.826 0.182 7.39 3.19 8.19
5/24/2021 3:45:00 AM 16.48 61.664 0.182 7.38 3.33 8.19
5/24/2021 4:00:00 AM 16.4 61.52 0.183 7.39 3.33 8.22
5/24/2021 4:15:00 AM 16.32 61.376 0.183 7.39 3.42 8.23
5/24/2021 4:30:00 AM 16.25 61.25 0.183 7.37 3.19 8.25
5/24/2021 4:45:00 AM 16.17 61.106 0.183 7.38 3.09 8.27
5/24/2021 5:00:00 AM 16.09 60.962 0.183 7.36 3.19 8.29
5/24/2021 5:15:00 AM 16.03 60.854 0.183 7.38 3.16 8.3
5/24/2021 5:30:00 AM 15.97 60.746 0.183 7.38 3.11 8.32
5/24/2021 5:45:00 AM 15.92 60.656 0.183 7.38 4.17 8.33
5/24/2021 6:00:00 AM 15.86 60.548 0.183 7.37 4.77 8.37
5/24/2021 6:15:00 AM 15.82 60.476 0.183 7.39 3.73 8.42
5/24/2021 6:30:00 AM 15.79 60.422 0.183 7.4 3.39 8.5
5/24/2021 6:45:00 AM 15.77 60.386 0.183 7.42 3.21 8.64
5/24/2021 7:00:00 AM 15.75 60.35 0.183 7.45 3.15 8.81
5/24/2021 7:15:00 AM 15.74 60.332 0.183 7.48 3.15 9
5/24/2021 7:30:00 AM 15.75 60.35 0.183 7.52 3.19 9.22
5/24/2021 7:45:00 AM 15.77 60.386 0.182 7.57 3.12 9.45
5/24/2021 8:00:00 AM 15.8 60.44 0.182 7.63 3.22 9.7
5/24/2021 8:15:00 AM 15.86 60.548 0.182 7.71 3.14 9.96
5/24/2021 8:30:00 AM 15.93 60.674 0.181 7.8 3.12 10.19
5/24/2021 8:45:00 AM 16.01 60.818 0.181 7.89 3.13 10.39
5/24/2021 9:00:00 AM 16.14 61.052 0.181 8.02 3.1 10.59
5/24/2021 9:15:00 AM 16.34 61.412 0.181 8.17 3.05 10.8
5/24/2021 9:30:00 AM 16.47 61.646 0.18 8.33 3.06 10.95
5/24/2021 9:45:00 AM 16.58 61.844 0.18 8.43 3.09 11.07
5/24/2021 10:00:00 AM 16.71 62.078 0.18 8.57 3 11.17
5/24/2021 10:15:00 AM 16.91 62.438 0.18 8.71 3.08 11.26
5/24/2021 10:30:00 AM 17.18 62.924 0.18 8.84 3.09 11.37
5/24/2021 10:45:00 AM 17.3 63.14 0.18 8.91 3.12 11.43
5/24/2021 11:00:00 AM 17.51 63.518 0.18 8.98 3.09 11.48
5/24/2021 11:15:00 AM 17.91 64.238 0.18 9.09 3.11 11.53
5/24/2021 11:30:00 AM 18.05 64.49 0.18 9.14 3.04 11.51
5/24/2021 11:45:00 AM 18.28 64.904 0.18 9.19 2.99 11.54
5/24/2021 12:00:00 PM 18.59 65.462 0.18 9.26 3.09 11.54
5/24/2021 12:15:00 PM 18.76 65.768 0.18 9.3 3.02 11.55
5/24/2021 12:30:00 PM 18.93 66.074 0.18 9.32 3.04 11.5
5/24/2021 12:45:00 PM 19.19 66.542 0.18 9.36 3.02 11.47
5/24/2021 1:00:00 PM 19.47 67.046 0.18 9.39 3 11.45
5/24/2021 1:15:00 PM 19.69 67.442 0.181 9.41 3.04 11.41
5/24/2021 1:30:00 PM 19.88 67.784 0.181 9.44 3.02 11.38
5/24/2021 1:45:00 PM 20.09 68.162 0.181 9.47 3.03 11.34
5/24/2021 2:00:00 PM 20.41 68.738 0.181 9.5 2.95 11.3
5/24/2021 2:15:00 PM 20.67 69.206 0.181 9.54 2.93 11.21
5/24/2021 2:30:00 PM 20.88 69.584 0.181 9.54 2.91 11.15
5/24/2021 2:45:00 PM 20.95 69.71 0.182 9.55 2.96 11.11
5/24/2021 3:00:00 PM 20.98 69.764 0.182 9.55 2.95 11.1
5/24/2021 3:15:00 PM 21.03 69.854 0.182 9.53 2.97 11.07
5/24/2021 3:30:00 PM 21.03 69.854 0.182 9.53 3.01 11.04
5/24/2021 3:45:00 PM 21.09 69.962 0.182 9.52 2.92 11.02
5/24/2021 4:00:00 PM 21.09 69.962 0.182 9.51 2.98 10.99
5/24/2021 4:15:00 PM 21.01 69.818 0.182 9.51 2.99 10.94
5/24/2021 4:30:00 PM 20.95 69.71 0.182 9.49 2.95 10.89
5/24/2021 4:45:00 PM 20.89 69.602 0.182 9.47 2.97 10.85
5/24/2021 5:00:00 PM 20.8 69.44 0.182 9.44 2.92 10.72
5/24/2021 5:15:00 PM 20.7 69.26 0.183 9.41 2.93 10.63
5/24/2021 5:30:00 PM 20.53 68.954 0.183 9.35 2.92 10.55
5/24/2021 5:45:00 PM 20.39 68.702 0.183 9.28 2.92 10.46
5/24/2021 6:00:00 PM 20.26 68.468 0.183 9.22 2.97 10.39
5/24/2021 6:15:00 PM 20.12 68.216 0.183 9.15 3.05 10.36
5/24/2021 6:30:00 PM 19.95 67.91 0.183 9.1 2.99 10.31
5/24/2021 6:45:00 PM 19.8 67.64 0.183 9.02 3.12 10.24
5/24/2021 7:00:00 PM 19.62 67.316 0.184 8.98 2.93 10.15
5/24/2021 7:15:00 PM 19.47 67.046 0.184 8.9 2.98 10.07
5/24/2021 7:30:00 PM 19.31 66.758 0.184 8.85 3.08 9.95
5/24/2021 7:45:00 PM 19.18 66.524 0.184 8.76 2.99 9.77
5/24/2021 8:00:00 PM 19.04 66.272 0.184 8.62 3.07 9.57
5/24/2021 8:15:00 PM 18.91 66.038 0.184 8.43 2.97 9.35
5/24/2021 8:30:00 PM 18.8 65.84 0.185 8.26 2.94 9.15
5/24/2021 8:45:00 PM 18.7 65.66 0.185 8.09 2.97 8.99
5/24/2021 9:00:00 PM 18.59 65.462 0.186 7.97 2.95 8.8
5/24/2021 9:15:00 PM 18.5 65.3 0.186 7.85 3 8.63
5/24/2021 9:30:00 PM 18.42 65.156 0.186 7.79 3.06 8.47
5/24/2021 9:45:00 PM 18.34 65.012 0.187 7.71 3.06 8.34
5/24/2021 10:00:00 PM 18.25 64.85 0.187 7.67 3.05 8.22
5/24/2021 10:15:00 PM 18.17 64.706 0.187 7.63 3.06 8.13
5/24/2021 10:30:00 PM 18.1 64.58 0.187 7.6 2.99 8.07
5/24/2021 10:45:00 PM 18.02 64.436 0.188 7.57 3.01 8.02
5/24/2021 11:00:00 PM 17.95 64.31 0.188 7.55 2.98 8
5/24/2021 11:15:00 PM 17.88 64.184 0.188 7.54 3.03 7.98
5/24/2021 11:30:00 PM 17.82 64.076 0.188 7.52 3.04 7.96
5/24/2021 11:45:00 PM 17.75 63.95 0.188 7.51 3.08 7.95
5/25/2021 12:00:00 AM 17.7 63.86 0.188 7.5 3.03 7.94
5/25/2021 12:15:00 AM 17.64 63.752 0.188 7.49 3.07 7.94
5/25/2021 12:30:00 AM 17.59 63.662 0.188 7.48 3.06 7.93
5/25/2021 12:45:00 AM 17.54 63.572 0.188 7.48 3.05 7.95
5/25/2021 1:00:00 AM 17.49 63.482 0.188 7.47 3.03 7.96
5/25/2021 1:15:00 AM 17.44 63.392 0.188 7.47 3.03 7.95
5/25/2021 1:30:00 AM 17.39 63.302 0.188 7.45 3.08 7.96
5/25/2021 1:45:00 AM 17.35 63.23 0.188 7.46 3.07 7.96
5/25/2021 2:00:00 AM 17.31 63.158 0.188 7.45 3.18 7.97
5/25/2021 2:15:00 AM 17.27 63.086 0.188 7.45 3.05 7.96
5/25/2021 2:30:00 AM 17.23 63.014 0.188 7.45 3.13 7.97
5/25/2021 2:45:00 AM 17.19 62.942 0.188 7.45 2.97 7.99
5/25/2021 3:00:00 AM 17.15 62.87 0.188 7.45 3.06 7.98
5/25/2021 3:15:00 AM 17.12 62.816 0.188 7.44 3.25 7.99
5/25/2021 3:30:00 AM 17.09 62.762 0.188 7.44 3.13 7.99
5/25/2021 3:45:00 AM 17.06 62.708 0.188 7.44 3.06 8.01
5/25/2021 4:00:00 AM 17.03 62.654 0.188 7.43 3.07 8
5/25/2021 4:15:00 AM 16.99 62.582 0.188 7.43 3.11 8.01
5/25/2021 4:30:00 AM 16.96 62.528 0.188 7.44 3.04 8.02
5/25/2021 4:45:00 AM 16.93 62.474 0.189 7.43 3.21 8.02
5/25/2021 5:00:00 AM 16.89 62.402 0.188 7.4 3.13 8.03
5/25/2021 5:15:00 AM 16.86 62.348 0.188 7.43 3.11 8.04
5/25/2021 5:30:00 AM 16.83 62.294 0.188 7.42 3.12 8.05
5/25/2021 5:45:00 AM 16.81 62.258 0.189 7.43 3.22 8.06
5/25/2021 6:00:00 AM 16.78 62.204 0.188 7.43 3.16 8.08
5/25/2021 6:15:00 AM 16.75 62.15 0.188 7.42 3.27 8.09
5/25/2021 6:30:00 AM 16.73 62.114 0.188 7.43 5.38 8.15
5/25/2021 6:45:00 AM 16.72 62.096 0.189 7.43 6.98 8.22
5/25/2021 7:00:00 AM 16.71 62.078 0.188 7.47 3.78 8.36
5/25/2021 7:15:00 AM 16.7 62.06 0.188 7.49 3.4 8.51
5/25/2021 7:30:00 AM 16.71 62.078 0.188 7.51 3.27 8.69
5/25/2021 7:45:00 AM 16.72 62.096 0.188 7.55 3.24 8.89
5/25/2021 8:00:00 AM 16.74 62.132 0.188 7.6 3.3 9.13
5/25/2021 8:15:00 AM 16.77 62.186 0.187 7.66 3.19 9.39
5/25/2021 8:30:00 AM 16.81 62.258 0.187 7.72 3.16 9.62
5/25/2021 8:45:00 AM 16.88 62.384 0.187 7.8 3.26 9.88
5/25/2021 9:00:00 AM 16.96 62.528 0.186 7.9 3.2 10.09
5/25/2021 9:15:00 AM 17.12 62.816 0.186 8.02 3.13 10.33
5/25/2021 9:30:00 AM 17.33 63.194 0.186 8.17 3.15 10.53
5/25/2021 9:45:00 AM 17.37 63.266 0.186 8.3 3.26 10.67
5/25/2021 10:00:00 AM 17.45 63.41 0.185 8.43 3.11 10.82
5/25/2021 10:15:00 AM 17.65 63.77 0.185 8.61 3.05 11
5/25/2021 10:30:00 AM 17.84 64.112 0.185 8.76 3.07 11.13
5/25/2021 10:45:00 AM 18.09 64.562 0.185 8.9 3.07 11.23
5/25/2021 11:00:00 AM 18.34 65.012 0.185 9.01 3.19 11.29
5/25/2021 11:15:00 AM 18.54 65.372 0.185 9.08 3.86 11.34
5/25/2021 11:30:00 AM 18.71 65.67799 0.184 9.13 7.45 11.37
5/25/2021 11:45:00 AM 18.84 65.912 0.185 9.18 5.74 11.38
5/25/2021 12:00:00 PM 19.13 66.434 0.185 9.24 3.7 11.38
5/25/2021 12:15:00 PM 19.49 67.082 0.185 9.33 4.29 11.44
5/25/2021 12:30:00 PM 19.91 67.838 0.185 9.37 6.23 11.42
5/25/2021 12:45:00 PM 20.21 68.378 0.185 9.41 7.78 11.41
5/25/2021 1:00:00 PM 20.55 68.99 0.185 9.47 3.93 11.4
5/25/2021 1:15:00 PM 20.9 69.62 0.185 9.5 3.24 11.37
5/25/2021 1:30:00 PM 21.24 70.232 0.185 9.54 3.21 11.33
5/25/2021 1:45:00 PM 21.61 70.898 0.185 9.59 2.99 11.27
5/25/2021 2:00:00 PM 21.96 71.528 0.185 9.63 2.98 11.21
5/25/2021 2:15:00 PM 22.26 72.068 0.186 9.65 5.33 11.15
5/25/2021 2:30:00 PM 22.55 72.59 0.186 9.68 5.28 11.07
5/25/2021 2:45:00 PM 22.86 73.148 0.186 9.69 6.35 10.99
5/25/2021 3:00:00 PM 23.07 73.526 0.186 9.72 4.41 10.91
5/25/2021 3:15:00 PM 23.25 73.85 0.187 9.73 3.93 10.86
5/25/2021 3:30:00 PM 23.37 74.066 0.187 9.73 3.3 10.79
5/25/2021 3:45:00 PM 23.45 74.21 0.187 9.73 3.14 10.7
5/25/2021 4:00:00 PM 23.5 74.3 0.187 9.72 2.98 10.63
5/25/2021 4:15:00 PM 23.48 74.264 0.187 9.7 2.98 10.54
5/25/2021 4:30:00 PM 23.41 74.138 0.187 9.67 3.03 10.44
5/25/2021 4:45:00 PM 23.29 73.922 0.187 9.63 3 10.34
5/25/2021 5:00:00 PM 23.14 73.652 0.187 9.58 2.92 10.24
5/25/2021 5:15:00 PM 23 73.4 0.187 9.53 2.99 10.16
5/25/2021 5:30:00 PM 22.87 73.166 0.188 9.47 2.99 10.09
5/25/2021 5:45:00 PM 22.71 72.878 0.188 9.4 2.84 9.97
5/25/2021 6:00:00 PM 22.58 72.644 0.188 9.33 3.04 9.9
5/25/2021 6:15:00 PM 22.41 72.338 0.188 9.26 2.92 9.81
5/25/2021 6:30:00 PM 22.26 72.068 0.188 9.2 3.01 9.72
5/25/2021 6:45:00 PM 22.1 71.78 0.188 9.13 2.97 9.63
5/25/2021 7:00:00 PM 21.96 71.528 0.189 9.06 3.01 9.51
5/25/2021 7:15:00 PM 21.82 71.276 0.189 9 3.05 9.43
5/25/2021 7:30:00 PM 21.68 71.024 0.189 8.91 3.05 9.28
5/25/2021 7:45:00 PM 21.55 70.79 0.189 8.81 3.03 9.14
5/25/2021 8:00:00 PM 21.43 70.574 0.189 8.69 3.13 9
5/25/2021 8:15:00 PM 21.31 70.358 0.19 8.56 3.08 8.83
5/25/2021 8:30:00 PM 21.18 70.124 0.19 8.41 3.09 8.64
5/25/2021 8:45:00 PM 21.08 69.944 0.19 8.24 3 8.44
5/25/2021 9:00:00 PM 20.98 69.764 0.191 8.13 2.98 8.28
5/25/2021 9:15:00 PM 20.87 69.566 0.191 8 3 8.07
5/25/2021 9:30:00 PM 20.76 69.368 0.192 7.91 3.03 7.91
5/25/2021 9:45:00 PM 20.65 69.17 0.192 7.84 2.95 7.75
5/25/2021 10:00:00 PM 20.55 68.99 0.192 7.78 3.04 7.62
5/25/2021 10:15:00 PM 20.45 68.81 0.193 7.73 3.01 7.51
5/25/2021 10:30:00 PM 20.35 68.63 0.193 7.7 3 7.42
5/25/2021 10:45:00 PM 20.24 68.432 0.193 7.66 3.14 7.38
5/25/2021 11:00:00 PM 20.14 68.252 0.193 7.63 3.11 7.33
5/25/2021 11:15:00 PM 20.04 68.07201 0.193 7.61 3.1 7.31
5/25/2021 11:30:00 PM 19.94 67.892 0.194 7.59 3.19 7.3
5/25/2021 11:45:00 PM 19.85 67.73 0.194 7.58 3.22 7.28
5/26/2021 12:00:00 AM 19.75 67.55 0.194 7.56 3.13 7.28
5/26/2021 12:15:00 AM 19.66 67.388 0.194 7.54 3.11 7.28
5/26/2021 12:30:00 AM 19.56 67.208 0.194 7.54 3.11 7.3
5/26/2021 12:45:00 AM 19.46 67.028 0.194 7.52 3.48 7.3
5/26/2021 1:00:00 AM 19.37 66.866 0.194 7.52 3.19 7.33
5/26/2021 1:15:00 AM 19.28 66.704 0.194 7.51 3.16 7.33
5/26/2021 1:30:00 AM 19.2 66.56 0.194 7.5 3.31 7.31
5/26/2021 1:45:00 AM 19.1 66.38 0.194 7.48 3.13 7.35
5/26/2021 2:00:00 AM 19.02 66.236 0.194 7.48 3.27 7.36
5/26/2021 2:15:00 AM 18.94 66.092 0.194 7.47 3.16 7.37
5/26/2021 2:30:00 AM 18.87 65.966 0.194 7.47 3.12 7.38
5/26/2021 2:45:00 AM 18.79 65.82201 0.194 7.44 3.2 7.39
5/26/2021 3:00:00 AM 18.7 65.66 0.194 7.46 3.11 7.42
5/26/2021 3:15:00 AM 18.63 65.534 0.194 7.45 3.11 7.43
5/26/2021 3:30:00 AM 18.54 65.372 0.194 7.44 3.07 7.44
5/26/2021 3:45:00 AM 18.46 65.228 0.194 7.43 3.25 7.47
5/26/2021 4:00:00 AM 18.39 65.102 0.194 7.43 3.33 7.45
5/26/2021 4:15:00 AM 18.32 64.976 0.194 7.42 3.08 7.49
5/26/2021 4:30:00 AM 18.26 64.868 0.194 7.42 3.13 7.51
5/26/2021 4:45:00 AM 18.21 64.778 0.194 7.42 3.11 7.52
5/26/2021 5:00:00 AM 18.15 64.67 0.194 7.43 3.09 7.53
5/26/2021 5:15:00 AM 18.1 64.58 0.194 7.42 3.13 7.55
5/26/2021 5:30:00 AM 18.06 64.508 0.194 7.42 3.11 7.56
5/26/2021 5:45:00 AM 18.01 64.418 0.194 7.42 3.12 7.58
5/26/2021 6:00:00 AM 17.98 64.364 0.194 7.42 3.23 7.6
5/26/2021 6:15:00 AM 17.94 64.292 0.194 7.42 3.15 7.63
5/26/2021 6:30:00 AM 17.92 64.256 0.194 7.43 3.25 7.74
5/26/2021 6:45:00 AM 17.91 64.238 0.194 7.46 3.15 7.83
5/26/2021 7:00:00 AM 17.9 64.22 0.194 7.47 3.17 7.96
5/26/2021 7:15:00 AM 17.89 64.202 0.194 7.5 3.12 8.09
5/26/2021 7:30:00 AM 17.88 64.184 0.194 7.52 3.03 8.26
5/26/2021 7:45:00 AM 17.91 64.238 0.194 7.55 3.05 8.46
5/26/2021 8:00:00 AM 17.99 64.382 0.193 7.6 3.53 8.72
5/26/2021 8:15:00 AM 18.08 64.544 0.193 7.65 3.12 9.01
5/26/2021 8:30:00 AM 18.15 64.67 0.193 7.73 3.18 9.19
5/26/2021 8:45:00 AM 18.23 64.814 0.193 7.8 3.2 9.41
5/26/2021 9:00:00 AM 18.32 64.976 0.193 7.87 3.3 9.61
5/26/2021 9:15:00 AM 18.5 65.3 0.192 7.98 3.22 9.85
5/26/2021 9:30:00 AM 18.76 65.768 0.192 8.11 3.1 10.07
5/26/2021 9:45:00 AM 19.01 66.218 0.192 8.24 3.16 10.28
5/26/2021 10:00:00 AM 19.23 66.614 0.191 8.41 3.16 10.45
5/26/2021 10:15:00 AM 19.42 66.956 0.191 8.55 3.13 10.59
5/26/2021 10:30:00 AM 19.64 67.352 0.191 8.71 3.09 10.72
5/26/2021 10:45:00 AM 19.94 67.892 0.191 8.86 3.18 10.85
5/26/2021 11:00:00 AM 20.31 68.558 0.191 8.99 3.05 10.91
5/26/2021 11:15:00 AM 20.66 69.188 0.191 9.1 4.33 10.99
5/26/2021 11:30:00 AM 20.97 69.746 0.191 9.17 4.99 11.03
5/26/2021 11:45:00 AM 21.3 70.34 0.191 9.25 5.05 11.03
5/26/2021 12:00:00 PM 21.7 71.06 0.191 9.34 3.84 11.04
5/26/2021 12:15:00 PM 22.1 71.78 0.19 9.42 3.37 10.99
5/26/2021 12:30:00 PM 22.38 72.284 0.19 9.46 3.11 10.92
5/26/2021 12:45:00 PM 22.68 72.824 0.191 9.5 3.06 10.85
5/26/2021 1:00:00 PM 22.99 73.382 0.191 9.53 2.97 10.81
5/26/2021 1:15:00 PM 23.28 73.904 0.191 9.58 2.9 10.75
5/26/2021 1:30:00 PM 23.4 74.12 0.191 9.6 2.98 10.65
5/26/2021 1:45:00 PM 23.66 74.588 0.191 9.61 2.89 10.6
5/26/2021 2:00:00 PM 23.73 74.714 0.191 9.62 3.09 10.51
5/26/2021 2:15:00 PM 23.79 74.82201 0.191 9.61 2.94 10.38
5/26/2021 2:30:00 PM 23.73 74.714 0.192 9.58 3.18 10.24
5/26/2021 2:45:00 PM 23.75 74.75 0.192 9.54 2.92 10.09
5/26/2021 3:00:00 PM 23.81 74.858 0.192 9.54 3.16 10.09
5/26/2021 3:15:00 PM 23.88 74.984 0.192 9.55 2.98 10.07
5/26/2021 3:30:00 PM 23.93 75.074 0.192 9.55 2.89 10.04
5/26/2021 3:45:00 PM 23.94 75.092 0.192 9.53 2.9 9.97
5/26/2021 4:00:00 PM 23.89 75.002 0.192 9.52 3.01 9.97
5/26/2021 4:15:00 PM 23.77 74.786 0.192 9.47 2.98 9.92
5/26/2021 4:30:00 PM 23.64 74.552 0.192 9.45 2.96 9.88
5/26/2021 4:45:00 PM 23.53 74.354 0.192 9.41 3.22 9.83
5/26/2021 5:00:00 PM 23.49 74.282 0.192 9.41 3.16 9.83
5/26/2021 5:15:00 PM 23.46 74.228 0.192 9.4 3.26 9.84
5/26/2021 5:30:00 PM 23.33 73.994 0.192 9.37 3.08 9.69
5/26/2021 5:45:00 PM 23.07 73.526 0.188 9.21 5.64 9.21
5/26/2021 6:00:00 PM 22.81 73.058 0.185 9.01 10.68 8.88
5/26/2021 6:15:00 PM 22.66 72.788 0.185 8.88 6.05 8.7
5/26/2021 6:30:00 PM 22.56 72.608 0.186 8.78 4.42 8.64
5/26/2021 6:45:00 PM 22.43 72.374 0.184 8.57 4.67 8.44
5/26/2021 7:00:00 PM 22.27 72.086 0.182 8.34 5.63 8.19
5/26/2021 7:15:00 PM 22.14 71.852 0.181 8.17 6.94 8.07
5/26/2021 7:30:00 PM 21.99 71.582 0.18 8.05 9.44 7.98
5/26/2021 7:45:00 PM 21.86 71.348 0.181 7.98 8.59 7.96
5/26/2021 8:00:00 PM 21.76 71.168 0.183 7.94 7.44 7.9
5/26/2021 8:15:00 PM 21.66 70.988 0.183 7.89 8.08 7.82
5/26/2021 8:30:00 PM 21.54 70.772 0.184 7.84 7.53 7.65
5/26/2021 8:45:00 PM 21.43 70.574 0.185 7.78 6.56 7.51
5/26/2021 9:00:00 PM 21.32 70.376 0.187 7.74 5.61 7.39
5/26/2021 9:15:00 PM 21.22 70.196 0.189 7.7 5.08 7.24
5/26/2021 9:30:00 PM 21.12 70.016 0.19 7.65 5.05 7.14
5/26/2021 9:45:00 PM 21.03 69.854 0.191 7.63 4.76 7.04
5/26/2021 10:00:00 PM 20.93 69.674 0.191 7.6 4.72 6.96
5/26/2021 10:15:00 PM 20.84 69.512 0.192 7.58 4.66 6.92
5/26/2021 10:30:00 PM 20.73 69.314 0.192 7.56 4.51 6.9
5/26/2021 10:45:00 PM 20.59 69.062 0.192 7.53 4.37 6.89
5/26/2021 11:00:00 PM 20.47 68.846 0.192 7.52 4.43 6.88
5/26/2021 11:15:00 PM 20.35 68.63 0.192 7.5 4.11 6.86
5/26/2021 11:30:00 PM 20.23 68.414 0.192 7.48 4.12 6.89
5/26/2021 11:45:00 PM 20.11 68.198 0.192 7.48 4 6.9
5/27/2021 12:00:00 AM 19.98 67.964 0.193 7.47 3.76 6.94
5/27/2021 12:15:00 AM 19.88 67.784 0.193 7.46 3.85 6.95
5/27/2021 12:30:00 AM 19.78 67.604 0.193 7.45 3.77 6.98
5/27/2021 12:45:00 AM 19.68 67.424 0.194 7.45 3.75 7
5/27/2021 1:00:00 AM 19.6 67.28 0.194 7.44 3.68 7.01
5/27/2021 1:15:00 AM 19.5 67.1 0.194 7.43 3.74 7.02
5/27/2021 1:30:00 AM 19.41 66.938 0.194 7.43 3.71 7.05
5/27/2021 1:45:00 AM 19.31 66.758 0.194 7.42 3.54 7.07
5/27/2021 2:00:00 AM 19.24 66.632 0.194 7.41 3.58 7.11
5/27/2021 2:15:00 AM 19.16 66.488 0.194 7.42 3.6 7.13
5/27/2021 2:30:00 AM 19.09 66.362 0.195 7.42 3.51 7.13
5/27/2021 2:45:00 AM 19.01 66.218 0.195 7.42 3.49 7.17
5/27/2021 3:00:00 AM 18.93 66.074 0.195 7.41 3.35 7.18
5/27/2021 3:15:00 AM 18.86 65.948 0.195 7.41 3.42 7.2
5/27/2021 3:30:00 AM 18.79 65.82201 0.195 7.41 3.36 7.23
5/27/2021 3:45:00 AM 18.73 65.714 0.195 7.41 3.43 7.23
5/27/2021 4:00:00 AM 18.66 65.588 0.195 7.38 3.44 7.26
5/27/2021 4:15:00 AM 18.6 65.48 0.196 7.41 3.56 7.27
5/27/2021 4:30:00 AM 18.53 65.354 0.196 7.4 3.47 7.29
5/27/2021 4:45:00 AM 18.45 65.21 0.196 7.38 3.44 7.31
5/27/2021 5:00:00 AM 18.38 65.084 0.196 7.4 3.35 7.35
5/27/2021 5:15:00 AM 18.32 64.976 0.196 7.39 3.36 7.35
5/27/2021 5:30:00 AM 18.26 64.868 0.196 7.39 3.4 7.38
5/27/2021 5:45:00 AM 18.2 64.76 0.197 7.39 3.55 7.4
5/27/2021 6:00:00 AM 18.14 64.652 0.197 7.39 3.39 7.43
5/27/2021 6:15:00 AM 18.07 64.526 0.198 7.4 3.57 7.5
5/27/2021 6:30:00 AM 18.02 64.436 0.198 7.4 3.4 7.54
5/27/2021 6:45:00 AM 17.98 64.364 0.198 7.41 3.62 7.66
5/27/2021 7:00:00 AM 17.94 64.292 0.199 7.43 3.41 7.79
5/27/2021 7:15:00 AM 17.91 64.238 0.2 7.45 3.72 7.95
5/27/2021 7:30:00 AM 17.9 64.22 0.2 7.48 3.53 8.16
5/27/2021 7:45:00 AM 17.91 64.238 0.2 7.51 3.62 8.34
5/27/2021 8:00:00 AM 17.9 64.22 0.201 7.55 3.6 8.51
5/27/2021 8:15:00 AM 17.93 64.274 0.201 7.58 3.5 8.71
5/27/2021 8:30:00 AM 17.96 64.328 0.201 7.63 3.47 8.87
5/27/2021 8:45:00 AM 18.02 64.436 0.202 7.69 3.58 9.09
5/27/2021 9:00:00 AM 18.09 64.562 0.202 7.74 3.72 9.23
5/27/2021 9:15:00 AM 18.18 64.724 0.202 7.79 3.45 9.38
5/27/2021 9:30:00 AM 18.29 64.922 0.202 7.85 3.41 9.54
5/27/2021 9:45:00 AM 18.41 65.138 0.202 7.92 3.5 9.68
5/27/2021 10:00:00 AM 18.54 65.372 0.202 7.99 3.39 9.84
5/27/2021 10:15:00 AM 18.69 65.642 0.201 8.09 3.32 9.96
5/27/2021 10:30:00 AM 18.9 66.02 0.201 8.2 3.36 10.11
5/27/2021 10:45:00 AM 19.16 66.488 0.201 8.31 3.25 10.24
5/27/2021 11:00:00 AM 19.42 66.956 0.201 8.43 3.28 10.38
5/27/2021 11:15:00 AM 19.56 67.208 0.201 8.52 3.19 10.42
5/27/2021 11:30:00 AM 19.71 67.478 0.2 8.62 3.29 10.5
5/27/2021 11:45:00 AM 19.9 67.82 0.2 8.68 3.28 10.57
5/27/2021 12:00:00 PM 20.15 68.27 0.2 8.81 3.23 10.64
5/27/2021 12:15:00 PM 20.42 68.756 0.2 8.9 3.29 10.72
5/27/2021 12:30:00 PM 20.64 69.152 0.2 8.95 3.24 10.73
5/27/2021 12:45:00 PM 20.83 69.494 0.199 9.05 3.19 10.76
5/27/2021 1:00:00 PM 21.03 69.854 0.199 9.1 3.18 10.76
5/27/2021 1:15:00 PM 21.31 70.358 0.199 9.18 3.25 10.81
5/27/2021 1:30:00 PM 21.46 70.628 0.199 9.23 3.21 10.77
5/27/2021 1:45:00 PM 21.76 71.168 0.199 9.28 3.11 10.75
5/27/2021 2:00:00 PM 21.95 71.51 0.199 9.32 3.11 10.71
5/27/2021 2:15:00 PM 22.23 72.014 0.199 9.35 3.07 10.68
5/27/2021 2:30:00 PM 22.44 72.392 0.199 9.39 3.17 10.62
5/27/2021 2:45:00 PM 22.67 72.806 0.199 9.41 3.13 10.58
5/27/2021 3:00:00 PM 22.81 73.058 0.199 9.43 3.06 10.51
5/27/2021 3:15:00 PM 22.95 73.31 0.199 9.43 3.7 10.5
5/27/2021 3:30:00 PM 23.03 73.454 0.199 9.44 4.28 10.46
5/27/2021 3:45:00 PM 23.07 73.526 0.199 9.44 3.66 10.41
5/27/2021 4:00:00 PM 22.98 73.364 0.199 9.42 4.24 10.34
5/27/2021 4:15:00 PM 22.94 73.292 0.199 9.4 3.29 10.3
5/27/2021 4:30:00 PM 22.83 73.094 0.199 9.39 3.36 10.29
5/27/2021 4:45:00 PM 22.62 72.716 0.199 9.35 3.49 10.21
5/27/2021 5:00:00 PM 22.39 72.302 0.199 9.29 3.39 10.08
5/27/2021 5:15:00 PM 22.19 71.942 0.199 9.19 3.29 10.01
5/27/2021 5:30:00 PM 21.97 71.546 0.199 9.15 3.34 9.96
5/27/2021 5:45:00 PM 21.78 71.204 0.199 9.09 3.32 9.86
5/27/2021 6:00:00 PM 21.57 70.826 0.199 9.02 3.22 9.75
5/27/2021 6:15:00 PM 21.34 70.412 0.199 8.94 3.14 9.63
5/27/2021 6:30:00 PM 21.15 70.07 0.199 8.86 3.16 9.52
5/27/2021 6:45:00 PM 20.94 69.692 0.199 8.76 3.22 9.41
5/27/2021 7:00:00 PM 20.75 69.35 0.2 8.68 3.67 9.3
5/27/2021 7:15:00 PM 20.55 68.99 0.2 8.56 4.21 9.18
5/27/2021 7:30:00 PM 20.37 68.666 0.2 8.45 3.36 9.06
5/27/2021 7:45:00 PM 20.16 68.288 0.2 8.3 3.29 8.9
5/27/2021 8:00:00 PM 20 68 0.201 8.17 3.25 8.77
5/27/2021 8:15:00 PM 19.85 67.73 0.201 8.05 3.37 8.66
5/27/2021 8:30:00 PM 19.69 67.442 0.201 7.93 3.44 8.51
5/27/2021 8:45:00 PM 19.54 67.172 0.201 7.84 3.15 8.36
5/27/2021 9:00:00 PM 19.39 66.902 0.202 7.76 3.29 8.22
5/27/2021 9:15:00 PM 19.23 66.614 0.202 7.69 3.18 8.08
5/27/2021 9:30:00 PM 19.05 66.29 0.202 7.64 3.16 7.98
5/27/2021 9:45:00 PM 18.9 66.02 0.202 7.6 3.3 7.87
5/27/2021 10:00:00 PM 18.75 65.75 0.202 7.55 3.44 7.77
5/27/2021 10:15:00 PM 18.59 65.462 0.202 7.51 3.13 7.67
5/27/2021 10:30:00 PM 18.46 65.228 0.202 7.48 3.07 7.61
5/27/2021 10:45:00 PM 18.3 64.94 0.202 7.45 3.57 7.57
5/27/2021 11:00:00 PM 18.17 64.706 0.202 7.43 3.54 7.53
5/27/2021 11:15:00 PM 18.03 64.454 0.202 7.41 3.23 7.53
5/27/2021 11:30:00 PM 17.88 64.184 0.202 7.39 3.42 7.52
5/27/2021 11:45:00 PM 17.74 63.932 0.202 7.38 3.36 7.55
5/28/2021 12:00:00 AM 17.61 63.698 0.202 7.37 3.36 7.53
5/28/2021 12:15:00 AM 17.46 63.428 0.202 7.35 3.34 7.55
5/28/2021 12:30:00 AM 17.33 63.194 0.202 7.35 3.35 7.56
5/28/2021 12:45:00 AM 17.21 62.978 0.202 7.34 3.46 7.59
5/28/2021 1:00:00 AM 17.08 62.744 0.202 7.32 3.5 7.61
5/28/2021 1:15:00 AM 16.95 62.51 0.202 7.33 3.29 7.64
5/28/2021 1:30:00 AM 16.84 62.312 0.202 7.31 3.19 7.66
5/28/2021 1:45:00 AM 16.74 62.132 0.202 7.32 3.32 7.69
5/28/2021 2:00:00 AM 16.62 61.916 0.202 7.32 3.49 7.7
5/28/2021 2:15:00 AM 16.53 61.754 0.202 7.31 3.56 7.75
5/28/2021 2:30:00 AM 16.45 61.61 0.202 7.31 3.21 7.76
5/28/2021 2:45:00 AM 16.35 61.43 0.202 7.31 4.54 7.78
5/28/2021 3:00:00 AM 16.27 61.286 0.202 7.31 3.15 7.8
5/28/2021 3:15:00 AM 16.19 61.142 0.202 7.31 3.26 7.81
5/28/2021 3:30:00 AM 16.11 60.998 0.202 7.31 3.29 7.84
5/28/2021 3:45:00 AM 16.04 60.872 0.202 7.31 3.2 7.89
5/28/2021 4:00:00 AM 15.97 60.746 0.202 7.31 3.32 7.87
5/28/2021 4:15:00 AM 15.9 60.62 0.203 7.31 3.34 7.88
5/28/2021 4:30:00 AM 15.83 60.494 0.202 7.31 3.35 7.91
5/28/2021 4:45:00 AM 15.76 60.368 0.202 7.3 3.2 7.92
5/28/2021 5:00:00 AM 15.7 60.26 0.202 7.31 3.34 7.94
5/28/2021 5:15:00 AM 15.65 60.17 0.202 7.29 3.62 7.96
5/28/2021 5:30:00 AM 15.59 60.062 0.202 7.31 3.24 7.97
5/28/2021 5:45:00 AM 15.54 59.972 0.203 7.31 3.18 7.98
5/28/2021 6:00:00 AM 15.48 59.864 0.202 7.31 3.27 8.03
5/28/2021 6:15:00 AM 15.43 59.774 0.202 7.31 3.46 8.04
5/28/2021 6:30:00 AM 15.39 59.702 0.202 7.32 3.7 8.11
5/28/2021 6:45:00 AM 15.35 59.63 0.202 7.33 3.22 8.17
5/28/2021 7:00:00 AM 15.32 59.576 0.202 7.33 3.21 8.28
5/28/2021 7:15:00 AM 15.29 59.522 0.203 7.35 3.23 8.38
5/28/2021 7:30:00 AM 15.27 59.486 0.202 7.37 3.33 8.5
5/28/2021 7:45:00 AM 15.25 59.45 0.202 7.39 3.46 8.63
5/28/2021 8:00:00 AM 15.24 59.432 0.202 7.41 3.57 8.79
5/28/2021 8:15:00 AM 15.24 59.432 0.202 7.43 3.79 8.91
5/28/2021 8:30:00 AM 15.24 59.432 0.202 7.45 3.49 9.08
5/28/2021 8:45:00 AM 15.25 59.45 0.202 7.49 3.52 9.23
5/28/2021 9:00:00 AM 15.26 59.468 0.201 7.53 3.36 9.4
5/28/2021 9:15:00 AM 15.26 59.468 0.201 7.56 3.48 9.52
5/28/2021 9:30:00 AM 15.28 59.504 0.201 7.59 3.36 9.64
5/28/2021 9:45:00 AM 15.32 59.576 0.201 7.63 3.6 9.82
5/28/2021 10:00:00 AM 15.38 59.684 0.201 7.69